Provisional Data: South Branch Tunkhannock Creek near La Plume, PA


Please select a monitoring station.
Please select start date.
Please select start date.

Toggle Unit: C/F Toggle Unit: C/F
Sample Time Temperature (C) Temperature (F) Specific Conductivity (mS/cm) pH   Turbidity (NTU+) DO (mg/L)
12/23/2021 12:00:00 AM -99999.99 -179968 -99999.99 -99999.99 -99999.99 -99999.99
12/23/2021 12:15:00 AM -99999.99 -179968 -99999.99 -99999.99 -99999.99 -99999.99
12/23/2021 12:30:00 AM -99999.99 -179968 -99999.99 -99999.99 -99999.99 -99999.99
12/23/2021 12:45:00 AM -99999.99 -179968 -99999.99 -99999.99 -99999.99 -99999.99
12/23/2021 1:00:00 AM -99999.99 -179968 -99999.99 -99999.99 -99999.99 -99999.99
12/23/2021 1:15:00 AM -99999.99 -179968 -99999.99 -99999.99 -99999.99 -99999.99
12/23/2021 1:30:00 AM -99999.99 -179968 -99999.99 -99999.99 -99999.99 -99999.99
12/23/2021 1:45:00 AM -99999.99 -179968 -99999.99 -99999.99 -99999.99 -99999.99
12/23/2021 2:00:00 AM -99999.99 -179968 -99999.99 -99999.99 -99999.99 -99999.99
12/23/2021 2:15:00 AM -99999.99 -179968 -99999.99 -99999.99 -99999.99 -99999.99
12/23/2021 2:30:00 AM -99999.99 -179968 -99999.99 -99999.99 -99999.99 -99999.99
12/23/2021 2:45:00 AM -99999.99 -179968 -99999.99 -99999.99 -99999.99 -99999.99
12/23/2021 3:00:00 AM -99999.99 -179968 -99999.99 -99999.99 -99999.99 -99999.99
12/23/2021 3:15:00 AM -99999.99 -179968 -99999.99 -99999.99 -99999.99 -99999.99
12/23/2021 3:30:00 AM -99999.99 -179968 -99999.99 -99999.99 -99999.99 -99999.99
12/23/2021 3:45:00 AM -99999.99 -179968 -99999.99 -99999.99 -99999.99 -99999.99
12/23/2021 4:00:00 AM -99999.99 -179968 -99999.99 -99999.99 -99999.99 -99999.99
12/23/2021 4:15:00 AM -99999.99 -179968 -99999.99 -99999.99 -99999.99 -99999.99
12/23/2021 4:30:00 AM -99999.99 -179968 -99999.99 -99999.99 -99999.99 -99999.99
12/23/2021 4:45:00 AM -99999.99 -179968 -99999.99 -99999.99 -99999.99 -99999.99
12/23/2021 5:00:00 AM -99999.99 -179968 -99999.99 -99999.99 -99999.99 -99999.99
12/23/2021 5:15:00 AM -99999.99 -179968 -99999.99 -99999.99 -99999.99 -99999.99
12/23/2021 5:30:00 AM -99999.99 -179968 -99999.99 -99999.99 -99999.99 -99999.99
12/23/2021 5:45:00 AM -99999.99 -179968 -99999.99 -99999.99 -99999.99 -99999.99
12/23/2021 6:00:00 AM -99999.99 -179968 -99999.99 -99999.99 -99999.99 -99999.99
12/23/2021 6:15:00 AM -99999.99 -179968 -99999.99 -99999.99 -99999.99 -99999.99
12/23/2021 6:30:00 AM -99999.99 -179968 -99999.99 -99999.99 -99999.99 -99999.99
12/23/2021 6:45:00 AM -99999.99 -179968 -99999.99 -99999.99 -99999.99 -99999.99
12/23/2021 7:00:00 AM -99999.99 -179968 -99999.99 -99999.99 -99999.99 -99999.99
12/23/2021 7:15:00 AM -99999.99 -179968 -99999.99 -99999.99 -99999.99 -99999.99
12/23/2021 7:30:00 AM -99999.99 -179968 -99999.99 -99999.99 -99999.99 -99999.99
12/23/2021 7:45:00 AM -99999.99 -179968 -99999.99 -99999.99 -99999.99 -99999.99
12/23/2021 8:00:00 AM -99999.99 -179968 -99999.99 -99999.99 -99999.99 -99999.99
12/23/2021 8:15:00 AM -99999.99 -179968 -99999.99 -99999.99 -99999.99 -99999.99
12/23/2021 8:30:00 AM -99999.99 -179968 -99999.99 -99999.99 -99999.99 -99999.99
12/23/2021 8:45:00 AM -99999.99 -179968 -99999.99 -99999.99 -99999.99 -99999.99
12/23/2021 9:00:00 AM -99999.99 -179968 -99999.99 -99999.99 -99999.99 -99999.99
12/23/2021 9:15:00 AM -99999.99 -179968 -99999.99 -99999.99 -99999.99 -99999.99
12/23/2021 9:30:00 AM -2.76 27.032 0 7.28 325.96 15.7
12/23/2021 9:45:00 AM -2.3 27.86 0 7.26 329.64 15.44
12/23/2021 10:00:00 AM -99999.99 -179968 -99999.99 -99999.99 -99999.99 -99999.99
12/23/2021 10:15:00 AM -1.48 29.336 0 7.23 335.38 15.03
12/23/2021 10:30:00 AM -1.19 29.858 0 7.33 337.61 14.89
12/23/2021 10:45:00 AM -0.89 30.398 0 7.45 339.71 14.75
12/23/2021 11:00:00 AM -0.64 30.848 0 7.54 343.48 14.63
12/23/2021 11:15:00 AM -0.45 31.19 0 7.62 369 14.54
12/23/2021 11:30:00 AM -0.29 31.478 0 7.67 487.91 14.46
12/23/2021 11:45:00 AM -0.32 31.424 0 7.87 12.09 14.23
12/23/2021 12:00:00 PM -0.24 31.568 0 7.85 12.64 14.42
12/23/2021 12:15:00 PM -0.17 31.694 0 7.84 14.45 14.4
12/23/2021 12:30:00 PM -0.13 31.766 0 7.82 7.02 14.38
12/23/2021 12:45:00 PM -0.11 31.802 0 7.81 6.63 14.38
12/23/2021 1:00:00 PM -0.11 31.802 0 7.79 6.89 14.39
12/23/2021 1:15:00 PM -0.1 31.82 0.001 7.79 7.27 14.4
12/23/2021 1:30:00 PM -99999.99 -179968 -99999.99 -99999.99 -99999.99 -99999.99
12/23/2021 1:45:00 PM -99999.99 -179968 -99999.99 -99999.99 -99999.99 -99999.99
12/23/2021 2:00:00 PM -99999.99 -179968 -99999.99 -99999.99 -99999.99 -99999.99
12/23/2021 2:15:00 PM -99999.99 -179968 -99999.99 -99999.99 -99999.99 -99999.99
12/23/2021 2:30:00 PM -99999.99 -179968 -99999.99 -99999.99 -99999.99 -99999.99
12/23/2021 2:45:00 PM -99999.99 -179968 -99999.99 -99999.99 -99999.99 -99999.99
12/23/2021 3:00:00 PM -99999.99 -179968 -99999.99 -99999.99 -99999.99 -99999.99
12/23/2021 3:15:00 PM -99999.99 -179968 -99999.99 -99999.99 -99999.99 -99999.99
12/23/2021 3:30:00 PM -99999.99 -179968 -99999.99 -99999.99 -99999.99 -99999.99
12/23/2021 3:45:00 PM -99999.99 -179968 -99999.99 -99999.99 -99999.99 -99999.99
12/23/2021 4:00:00 PM -99999.99 -179968 -99999.99 -99999.99 -99999.99 -99999.99
12/23/2021 4:15:00 PM -99999.99 -179968 -99999.99 -99999.99 -99999.99 -99999.99
12/23/2021 4:30:00 PM -99999.99 -179968 -99999.99 -99999.99 -99999.99 -99999.99
12/23/2021 4:45:00 PM -99999.99 -179968 -99999.99 -99999.99 -99999.99 -99999.99
12/23/2021 5:00:00 PM -99999.99 -179968 -99999.99 -99999.99 -99999.99 -99999.99
12/23/2021 5:15:00 PM -99999.99 -179968 -99999.99 -99999.99 -99999.99 -99999.99
12/23/2021 5:30:00 PM -99999.99 -179968 -99999.99 -99999.99 -99999.99 -99999.99
12/23/2021 5:45:00 PM -99999.99 -179968 -99999.99 -99999.99 -99999.99 -99999.99
12/23/2021 6:00:00 PM -99999.99 -179968 -99999.99 -99999.99 -99999.99 -99999.99
12/23/2021 6:15:00 PM -99999.99 -179968 -99999.99 -99999.99 -99999.99 -99999.99
12/23/2021 6:30:00 PM -99999.99 -179968 -99999.99 -99999.99 -99999.99 -99999.99
12/23/2021 6:45:00 PM -99999.99 -179968 -99999.99 -99999.99 -99999.99 -99999.99
12/23/2021 7:00:00 PM -99999.99 -179968 -99999.99 -99999.99 -99999.99 -99999.99
12/23/2021 7:15:00 PM -99999.99 -179968 -99999.99 -99999.99 -99999.99 -99999.99
12/23/2021 7:30:00 PM -99999.99 -179968 -99999.99 -99999.99 -99999.99 -99999.99
12/23/2021 7:45:00 PM -99999.99 -179968 -99999.99 -99999.99 -99999.99 -99999.99
12/23/2021 8:00:00 PM -99999.99 -179968 -99999.99 -99999.99 -99999.99 -99999.99
12/23/2021 8:15:00 PM -99999.99 -179968 -99999.99 -99999.99 -99999.99 -99999.99
12/23/2021 8:30:00 PM -99999.99 -179968 -99999.99 -99999.99 -99999.99 -99999.99
12/23/2021 8:45:00 PM -99999.99 -179968 -99999.99 -99999.99 -99999.99 -99999.99
12/23/2021 9:00:00 PM -99999.99 -179968 -99999.99 -99999.99 -99999.99 -99999.99
12/23/2021 9:15:00 PM -99999.99 -179968 -99999.99 -99999.99 -99999.99 -99999.99
12/23/2021 9:30:00 PM -99999.99 -179968 -99999.99 -99999.99 -99999.99 -99999.99
12/23/2021 9:45:00 PM -99999.99 -179968 -99999.99 -99999.99 -99999.99 -99999.99
12/23/2021 10:00:00 PM -99999.99 -179968 -99999.99 -99999.99 -99999.99 -99999.99
12/23/2021 10:15:00 PM -99999.99 -179968 -99999.99 -99999.99 -99999.99 -99999.99
12/23/2021 10:30:00 PM -99999.99 -179968 -99999.99 -99999.99 -99999.99 -99999.99
12/23/2021 10:45:00 PM -99999.99 -179968 -99999.99 -99999.99 -99999.99 -99999.99
12/23/2021 11:00:00 PM -99999.99 -179968 -99999.99 -99999.99 -99999.99 -99999.99
12/23/2021 11:15:00 PM -99999.99 -179968 -99999.99 -99999.99 -99999.99 -99999.99
12/23/2021 11:30:00 PM -99999.99 -179968 -99999.99 -99999.99 -99999.99 -99999.99
12/23/2021 11:45:00 PM -99999.99 -179968 -99999.99 -99999.99 -99999.99 -99999.99
12/24/2021 12:00:00 AM -99999.99 -179968 -99999.99 -99999.99 -99999.99 -99999.99
12/24/2021 12:15:00 AM -99999.99 -179968 -99999.99 -99999.99 -99999.99 -99999.99
12/24/2021 12:30:00 AM -99999.99 -179968 -99999.99 -99999.99 -99999.99 -99999.99
12/24/2021 12:45:00 AM -99999.99 -179968 -99999.99 -99999.99 -99999.99 -99999.99
12/24/2021 1:00:00 AM -99999.99 -179968 -99999.99 -99999.99 -99999.99 -99999.99
12/24/2021 1:15:00 AM -99999.99 -179968 -99999.99 -99999.99 -99999.99 -99999.99
12/24/2021 1:30:00 AM -99999.99 -179968 -99999.99 -99999.99 -99999.99 -99999.99
12/24/2021 1:45:00 AM -99999.99 -179968 -99999.99 -99999.99 -99999.99 -99999.99
12/24/2021 2:00:00 AM -99999.99 -179968 -99999.99 -99999.99 -99999.99 -99999.99
12/24/2021 2:15:00 AM -99999.99 -179968 -99999.99 -99999.99 -99999.99 -99999.99
12/24/2021 2:30:00 AM -99999.99 -179968 -99999.99 -99999.99 -99999.99 -99999.99
12/24/2021 2:45:00 AM -99999.99 -179968 -99999.99 -99999.99 -99999.99 -99999.99
12/24/2021 3:00:00 AM -99999.99 -179968 -99999.99 -99999.99 -99999.99 -99999.99
12/24/2021 3:15:00 AM -99999.99 -179968 -99999.99 -99999.99 -99999.99 -99999.99
12/24/2021 3:30:00 AM -99999.99 -179968 -99999.99 -99999.99 -99999.99 -99999.99
12/24/2021 3:45:00 AM -99999.99 -179968 -99999.99 -99999.99 -99999.99 -99999.99
12/24/2021 4:00:00 AM -99999.99 -179968 -99999.99 -99999.99 -99999.99 -99999.99
12/24/2021 4:15:00 AM -99999.99 -179968 -99999.99 -99999.99 -99999.99 -99999.99
12/24/2021 4:30:00 AM -99999.99 -179968 -99999.99 -99999.99 -99999.99 -99999.99
12/24/2021 4:45:00 AM -99999.99 -179968 -99999.99 -99999.99 -99999.99 -99999.99
12/24/2021 5:00:00 AM -99999.99 -179968 -99999.99 -99999.99 -99999.99 -99999.99
12/24/2021 5:15:00 AM -99999.99 -179968 -99999.99 -99999.99 -99999.99 -99999.99
12/24/2021 5:30:00 AM -99999.99 -179968 -99999.99 -99999.99 -99999.99 -99999.99
12/24/2021 5:45:00 AM -99999.99 -179968 -99999.99 -99999.99 -99999.99 -99999.99
12/24/2021 6:00:00 AM -99999.99 -179968 -99999.99 -99999.99 -99999.99 -99999.99
12/24/2021 6:15:00 AM -99999.99 -179968 -99999.99 -99999.99 -99999.99 -99999.99
12/24/2021 6:30:00 AM -99999.99 -179968 -99999.99 -99999.99 -99999.99 -99999.99
12/24/2021 6:45:00 AM -99999.99 -179968 -99999.99 -99999.99 -99999.99 -99999.99
12/24/2021 7:00:00 AM -99999.99 -179968 -99999.99 -99999.99 -99999.99 -99999.99
12/24/2021 7:15:00 AM -99999.99 -179968 -99999.99 -99999.99 -99999.99 -99999.99
12/24/2021 7:30:00 AM -99999.99 -179968 -99999.99 -99999.99 -99999.99 -99999.99
12/24/2021 7:45:00 AM -99999.99 -179968 -99999.99 -99999.99 -99999.99 -99999.99
12/24/2021 8:00:00 AM -99999.99 -179968 -99999.99 -99999.99 -99999.99 -99999.99
12/24/2021 8:15:00 AM -99999.99 -179968 -99999.99 -99999.99 -99999.99 -99999.99
12/24/2021 8:30:00 AM -99999.99 -179968 -99999.99 -99999.99 -99999.99 -99999.99
12/24/2021 8:45:00 AM -99999.99 -179968 -99999.99 -99999.99 -99999.99 -99999.99
12/24/2021 9:00:00 AM -99999.99 -179968 -99999.99 -99999.99 -99999.99 -99999.99
12/24/2021 9:15:00 AM -99999.99 -179968 -99999.99 -99999.99 -99999.99 -99999.99
12/24/2021 9:30:00 AM -99999.99 -179968 -99999.99 -99999.99 -99999.99 -99999.99
12/24/2021 9:45:00 AM -99999.99 -179968 -99999.99 -99999.99 -99999.99 -99999.99
12/24/2021 10:00:00 AM -99999.99 -179968 -99999.99 -99999.99 -99999.99 -99999.99
12/24/2021 10:15:00 AM -99999.99 -179968 -99999.99 -99999.99 -99999.99 -99999.99
12/24/2021 10:30:00 AM -99999.99 -179968 -99999.99 -99999.99 -99999.99 -99999.99
12/24/2021 10:45:00 AM -99999.99 -179968 -99999.99 -99999.99 -99999.99 -99999.99
12/24/2021 11:00:00 AM -99999.99 -179968 -99999.99 -99999.99 -99999.99 -99999.99
12/24/2021 11:15:00 AM -99999.99 -179968 -99999.99 -99999.99 -99999.99 -99999.99
12/24/2021 11:30:00 AM -99999.99 -179968 -99999.99 -99999.99 -99999.99 -99999.99
12/24/2021 11:45:00 AM -99999.99 -179968 -99999.99 -99999.99 -99999.99 -99999.99
12/24/2021 12:00:00 PM -99999.99 -179968 -99999.99 -99999.99 -99999.99 -99999.99
12/24/2021 12:15:00 PM 1.6 34.88 0.002 7.73 3.48 13.66
12/24/2021 12:30:00 PM 2.1 35.78 0.002 7.62 3.61 13.43
12/24/2021 12:45:00 PM 2.42 36.356 0.002 7.56 3.57 13.3
12/24/2021 1:00:00 PM 2.69 36.842 0.002 7.55 3.52 13.2
12/24/2021 1:15:00 PM 2.93 37.274 0.002 7.56 3.4 13.1
12/24/2021 1:30:00 PM 3.16 37.688 0.002 7.57 3.42 13.02
12/24/2021 1:45:00 PM 3.34 38.012 0.002 7.58 3.46 12.93
12/24/2021 2:00:00 PM 3.31 37.958 0.002 7.58 3.45 12.93
12/24/2021 2:15:00 PM 3.3 37.94 0.002 7.59 3.41 12.94
12/24/2021 2:30:00 PM 3.33 37.994 0.002 7.59 3.44 12.93
12/24/2021 2:45:00 PM 3.29 37.922 0.002 7.6 3.42 12.94
12/24/2021 3:00:00 PM 3.21 37.778 0.002 7.6 3.42 12.97
12/24/2021 3:15:00 PM -99999.99 -179968 -99999.99 -99999.99 -99999.99 -99999.99
12/24/2021 3:30:00 PM -99999.99 -179968 -99999.99 -99999.99 -99999.99 -99999.99
12/24/2021 3:45:00 PM -99999.99 -179968 -99999.99 -99999.99 -99999.99 -99999.99
12/24/2021 4:00:00 PM -99999.99 -179968 -99999.99 -99999.99 -99999.99 -99999.99
12/24/2021 4:15:00 PM -99999.99 -179968 -99999.99 -99999.99 -99999.99 -99999.99
12/24/2021 4:30:00 PM -99999.99 -179968 -99999.99 -99999.99 -99999.99 -99999.99
12/24/2021 4:45:00 PM -99999.99 -179968 -99999.99 -99999.99 -99999.99 -99999.99
12/24/2021 5:00:00 PM -99999.99 -179968 -99999.99 -99999.99 -99999.99 -99999.99
12/24/2021 5:15:00 PM -99999.99 -179968 -99999.99 -99999.99 -99999.99 -99999.99
12/24/2021 5:30:00 PM -99999.99 -179968 -99999.99 -99999.99 -99999.99 -99999.99
12/24/2021 5:45:00 PM -99999.99 -179968 -99999.99 -99999.99 -99999.99 -99999.99
12/24/2021 6:00:00 PM -99999.99 -179968 -99999.99 -99999.99 -99999.99 -99999.99
12/24/2021 6:15:00 PM -99999.99 -179968 -99999.99 -99999.99 -99999.99 -99999.99
12/24/2021 6:30:00 PM -99999.99 -179968 -99999.99 -99999.99 -99999.99 -99999.99
12/24/2021 6:45:00 PM -99999.99 -179968 -99999.99 -99999.99 -99999.99 -99999.99
12/24/2021 7:00:00 PM -99999.99 -179968 -99999.99 -99999.99 -99999.99 -99999.99
12/24/2021 7:15:00 PM -99999.99 -179968 -99999.99 -99999.99 -99999.99 -99999.99
12/24/2021 7:30:00 PM -99999.99 -179968 -99999.99 -99999.99 -99999.99 -99999.99
12/24/2021 7:45:00 PM -99999.99 -179968 -99999.99 -99999.99 -99999.99 -99999.99
12/24/2021 8:00:00 PM -99999.99 -179968 -99999.99 -99999.99 -99999.99 -99999.99
12/24/2021 8:15:00 PM -99999.99 -179968 -99999.99 -99999.99 -99999.99 -99999.99
12/24/2021 8:30:00 PM -99999.99 -179968 -99999.99 -99999.99 -99999.99 -99999.99
12/24/2021 8:45:00 PM -99999.99 -179968 -99999.99 -99999.99 -99999.99 -99999.99
12/24/2021 9:00:00 PM -99999.99 -179968 -99999.99 -99999.99 -99999.99 -99999.99
12/24/2021 9:15:00 PM -99999.99 -179968 -99999.99 -99999.99 -99999.99 -99999.99
12/24/2021 9:30:00 PM -99999.99 -179968 -99999.99 -99999.99 -99999.99 -99999.99
12/24/2021 9:45:00 PM -99999.99 -179968 -99999.99 -99999.99 -99999.99 -99999.99
12/24/2021 10:00:00 PM -99999.99 -179968 -99999.99 -99999.99 -99999.99 -99999.99
12/24/2021 10:15:00 PM -99999.99 -179968 -99999.99 -99999.99 -99999.99 -99999.99
12/24/2021 10:30:00 PM -99999.99 -179968 -99999.99 -99999.99 -99999.99 -99999.99
12/24/2021 10:45:00 PM -99999.99 -179968 -99999.99 -99999.99 -99999.99 -99999.99
12/24/2021 11:00:00 PM -99999.99 -179968 -99999.99 -99999.99 -99999.99 -99999.99
12/24/2021 11:15:00 PM -99999.99 -179968 -99999.99 -99999.99 -99999.99 -99999.99
12/24/2021 11:30:00 PM -99999.99 -179968 -99999.99 -99999.99 -99999.99 -99999.99
12/24/2021 11:45:00 PM -99999.99 -179968 -99999.99 -99999.99 -99999.99 -99999.99
12/25/2021 12:00:00 AM -99999.99 -179968 -99999.99 -99999.99 -99999.99 -99999.99
12/25/2021 12:15:00 AM -99999.99 -179968 -99999.99 -99999.99 -99999.99 -99999.99
12/25/2021 12:30:00 AM -99999.99 -179968 -99999.99 -99999.99 -99999.99 -99999.99
12/25/2021 12:45:00 AM -99999.99 -179968 -99999.99 -99999.99 -99999.99 -99999.99
12/25/2021 1:00:00 AM -99999.99 -179968 -99999.99 -99999.99 -99999.99 -99999.99
12/25/2021 1:15:00 AM -99999.99 -179968 -99999.99 -99999.99 -99999.99 -99999.99
12/25/2021 1:30:00 AM -99999.99 -179968 -99999.99 -99999.99 -99999.99 -99999.99
12/25/2021 1:45:00 AM -99999.99 -179968 -99999.99 -99999.99 -99999.99 -99999.99
12/25/2021 2:00:00 AM -99999.99 -179968 -99999.99 -99999.99 -99999.99 -99999.99
12/25/2021 2:15:00 AM -99999.99 -179968 -99999.99 -99999.99 -99999.99 -99999.99
12/25/2021 2:30:00 AM -99999.99 -179968 -99999.99 -99999.99 -99999.99 -99999.99
12/25/2021 2:45:00 AM -99999.99 -179968 -99999.99 -99999.99 -99999.99 -99999.99
12/25/2021 3:00:00 AM -99999.99 -179968 -99999.99 -99999.99 -99999.99 -99999.99
12/25/2021 3:15:00 AM -99999.99 -179968 -99999.99 -99999.99 -99999.99 -99999.99
12/25/2021 3:30:00 AM -99999.99 -179968 -99999.99 -99999.99 -99999.99 -99999.99
12/25/2021 3:45:00 AM -99999.99 -179968 -99999.99 -99999.99 -99999.99 -99999.99
12/25/2021 4:00:00 AM -99999.99 -179968 -99999.99 -99999.99 -99999.99 -99999.99
12/25/2021 4:15:00 AM -99999.99 -179968 -99999.99 -99999.99 -99999.99 -99999.99
12/25/2021 4:30:00 AM -99999.99 -179968 -99999.99 -99999.99 -99999.99 -99999.99
12/25/2021 4:45:00 AM -99999.99 -179968 -99999.99 -99999.99 -99999.99 -99999.99
12/25/2021 5:00:00 AM -99999.99 -179968 -99999.99 -99999.99 -99999.99 -99999.99
12/25/2021 5:15:00 AM -99999.99 -179968 -99999.99 -99999.99 -99999.99 -99999.99
12/25/2021 5:30:00 AM -99999.99 -179968 -99999.99 -99999.99 -99999.99 -99999.99
12/25/2021 5:45:00 AM -99999.99 -179968 -99999.99 -99999.99 -99999.99 -99999.99
12/25/2021 6:00:00 AM -99999.99 -179968 -99999.99 -99999.99 -99999.99 -99999.99
12/25/2021 6:15:00 AM -99999.99 -179968 -99999.99 -99999.99 -99999.99 -99999.99
12/25/2021 6:30:00 AM -99999.99 -179968 -99999.99 -99999.99 -99999.99 -99999.99
12/25/2021 6:45:00 AM -99999.99 -179968 -99999.99 -99999.99 -99999.99 -99999.99
12/25/2021 7:00:00 AM -99999.99 -179968 -99999.99 -99999.99 -99999.99 -99999.99
12/25/2021 7:15:00 AM -99999.99 -179968 -99999.99 -99999.99 -99999.99 -99999.99
12/25/2021 7:30:00 AM -99999.99 -179968 -99999.99 -99999.99 -99999.99 -99999.99
12/25/2021 7:45:00 AM -99999.99 -179968 -99999.99 -99999.99 -99999.99 -99999.99
12/25/2021 8:00:00 AM -99999.99 -179968 -99999.99 -99999.99 -99999.99 -99999.99
12/25/2021 8:15:00 AM -99999.99 -179968 -99999.99 -99999.99 -99999.99 -99999.99
12/25/2021 8:30:00 AM -99999.99 -179968 -99999.99 -99999.99 -99999.99 -99999.99
12/25/2021 8:45:00 AM -99999.99 -179968 -99999.99 -99999.99 -99999.99 -99999.99
12/25/2021 9:00:00 AM -99999.99 -179968 -99999.99 -99999.99 -99999.99 -99999.99
12/25/2021 9:15:00 AM -99999.99 -179968 -99999.99 -99999.99 -99999.99 -99999.99
12/25/2021 9:30:00 AM -99999.99 -179968 -99999.99 -99999.99 -99999.99 -99999.99
12/25/2021 9:45:00 AM -99999.99 -179968 -99999.99 -99999.99 -99999.99 -99999.99
12/25/2021 10:00:00 AM -99999.99 -179968 -99999.99 -99999.99 -99999.99 -99999.99
12/25/2021 10:15:00 AM -99999.99 -179968 -99999.99 -99999.99 -99999.99 -99999.99
12/25/2021 10:30:00 AM -99999.99 -179968 -99999.99 -99999.99 -99999.99 -99999.99
12/25/2021 10:45:00 AM -99999.99 -179968 -99999.99 -99999.99 -99999.99 -99999.99
12/25/2021 11:00:00 AM -99999.99 -179968 -99999.99 -99999.99 -99999.99 -99999.99
12/25/2021 11:15:00 AM -99999.99 -179968 -99999.99 -99999.99 -99999.99 -99999.99
12/25/2021 11:30:00 AM 3.07 37.526 0.267 7.61 7.32 13.08
12/25/2021 11:45:00 AM 3.11 37.598 0.268 7.68 9.15 13.22
12/25/2021 12:00:00 PM 3.13 37.634 0.269 7.72 9.47 13.26
12/25/2021 12:15:00 PM -99999.99 -179968 -99999.99 -99999.99 -99999.99 -99999.99
12/25/2021 12:30:00 PM -99999.99 -179968 -99999.99 -99999.99 -99999.99 -99999.99
12/25/2021 12:45:00 PM 3.16 37.688 0.272 7.73 11.31 13.18
12/25/2021 1:00:00 PM 3.18 37.724 0.273 7.72 10.37 13.21
12/25/2021 1:15:00 PM 3.19 37.742 0.275 7.72 10.06 13.2
12/25/2021 1:30:00 PM -99999.99 -179968 -99999.99 -99999.99 -99999.99 -99999.99
12/25/2021 1:45:00 PM 3.24 37.832 0.279 7.74 10.12 13.19
12/25/2021 2:00:00 PM 3.27 37.886 0.281 7.74 9.07 13.18
12/25/2021 2:15:00 PM 3.31 37.958 0.285 7.76 9.35 13.18
12/25/2021 2:30:00 PM -99999.99 -179968 -99999.99 -99999.99 -99999.99 -99999.99
12/25/2021 2:45:00 PM -99999.99 -179968 -99999.99 -99999.99 -99999.99 -99999.99
12/25/2021 3:00:00 PM -99999.99 -179968 -99999.99 -99999.99 -99999.99 -99999.99
12/25/2021 3:15:00 PM -99999.99 -179968 -99999.99 -99999.99 -99999.99 -99999.99
12/25/2021 3:30:00 PM -99999.99 -179968 -99999.99 -99999.99 -99999.99 -99999.99
12/25/2021 3:45:00 PM -99999.99 -179968 -99999.99 -99999.99 -99999.99 -99999.99
12/25/2021 4:00:00 PM -99999.99 -179968 -99999.99 -99999.99 -99999.99 -99999.99
12/25/2021 4:15:00 PM -99999.99 -179968 -99999.99 -99999.99 -99999.99 -99999.99
12/25/2021 4:30:00 PM -99999.99 -179968 -99999.99 -99999.99 -99999.99 -99999.99
12/25/2021 4:45:00 PM -99999.99 -179968 -99999.99 -99999.99 -99999.99 -99999.99
12/25/2021 5:00:00 PM -99999.99 -179968 -99999.99 -99999.99 -99999.99 -99999.99
12/25/2021 5:15:00 PM -99999.99 -179968 -99999.99 -99999.99 -99999.99 -99999.99
12/25/2021 5:30:00 PM -99999.99 -179968 -99999.99 -99999.99 -99999.99 -99999.99
12/25/2021 5:45:00 PM -99999.99 -179968 -99999.99 -99999.99 -99999.99 -99999.99
12/25/2021 6:00:00 PM -99999.99 -179968 -99999.99 -99999.99 -99999.99 -99999.99
12/25/2021 6:15:00 PM -99999.99 -179968 -99999.99 -99999.99 -99999.99 -99999.99
12/25/2021 6:30:00 PM -99999.99 -179968 -99999.99 -99999.99 -99999.99 -99999.99
12/25/2021 6:45:00 PM -99999.99 -179968 -99999.99 -99999.99 -99999.99 -99999.99
12/25/2021 7:00:00 PM -99999.99 -179968 -99999.99 -99999.99 -99999.99 -99999.99
12/25/2021 7:15:00 PM -99999.99 -179968 -99999.99 -99999.99 -99999.99 -99999.99
12/25/2021 7:30:00 PM -99999.99 -179968 -99999.99 -99999.99 -99999.99 -99999.99
12/25/2021 7:45:00 PM -99999.99 -179968 -99999.99 -99999.99 -99999.99 -99999.99
12/25/2021 8:00:00 PM -99999.99 -179968 -99999.99 -99999.99 -99999.99 -99999.99
12/25/2021 8:15:00 PM -99999.99 -179968 -99999.99 -99999.99 -99999.99 -99999.99
12/25/2021 8:30:00 PM -99999.99 -179968 -99999.99 -99999.99 -99999.99 -99999.99
12/25/2021 8:45:00 PM -99999.99 -179968 -99999.99 -99999.99 -99999.99 -99999.99
12/25/2021 9:00:00 PM -99999.99 -179968 -99999.99 -99999.99 -99999.99 -99999.99
12/25/2021 9:15:00 PM -99999.99 -179968 -99999.99 -99999.99 -99999.99 -99999.99
12/25/2021 9:30:00 PM -99999.99 -179968 -99999.99 -99999.99 -99999.99 -99999.99
12/25/2021 9:45:00 PM -99999.99 -179968 -99999.99 -99999.99 -99999.99 -99999.99
12/25/2021 10:00:00 PM -99999.99 -179968 -99999.99 -99999.99 -99999.99 -99999.99
12/25/2021 10:15:00 PM -99999.99 -179968 -99999.99 -99999.99 -99999.99 -99999.99
12/25/2021 10:30:00 PM -99999.99 -179968 -99999.99 -99999.99 -99999.99 -99999.99
12/25/2021 10:45:00 PM -99999.99 -179968 -99999.99 -99999.99 -99999.99 -99999.99
12/25/2021 11:00:00 PM -99999.99 -179968 -99999.99 -99999.99 -99999.99 -99999.99
12/25/2021 11:15:00 PM -99999.99 -179968 -99999.99 -99999.99 -99999.99 -99999.99
12/25/2021 11:30:00 PM -99999.99 -179968 -99999.99 -99999.99 -99999.99 -99999.99
12/25/2021 11:45:00 PM -99999.99 -179968 -99999.99 -99999.99 -99999.99 -99999.99
12/26/2021 12:00:00 AM -99999.99 -179968 -99999.99 -99999.99 -99999.99 -99999.99
12/26/2021 12:15:00 AM -99999.99 -179968 -99999.99 -99999.99 -99999.99 -99999.99
12/26/2021 12:30:00 AM -99999.99 -179968 -99999.99 -99999.99 -99999.99 -99999.99
12/26/2021 12:45:00 AM -99999.99 -179968 -99999.99 -99999.99 -99999.99 -99999.99
12/26/2021 1:00:00 AM -99999.99 -179968 -99999.99 -99999.99 -99999.99 -99999.99
12/26/2021 1:15:00 AM -99999.99 -179968 -99999.99 -99999.99 -99999.99 -99999.99
12/26/2021 1:30:00 AM -99999.99 -179968 -99999.99 -99999.99 -99999.99 -99999.99
12/26/2021 1:45:00 AM -99999.99 -179968 -99999.99 -99999.99 -99999.99 -99999.99
12/26/2021 2:00:00 AM -99999.99 -179968 -99999.99 -99999.99 -99999.99 -99999.99
12/26/2021 2:15:00 AM -99999.99 -179968 -99999.99 -99999.99 -99999.99 -99999.99
12/26/2021 2:30:00 AM -99999.99 -179968 -99999.99 -99999.99 -99999.99 -99999.99
12/26/2021 2:45:00 AM -99999.99 -179968 -99999.99 -99999.99 -99999.99 -99999.99
12/26/2021 3:00:00 AM -99999.99 -179968 -99999.99 -99999.99 -99999.99 -99999.99
12/26/2021 3:15:00 AM -99999.99 -179968 -99999.99 -99999.99 -99999.99 -99999.99
12/26/2021 3:30:00 AM -99999.99 -179968 -99999.99 -99999.99 -99999.99 -99999.99
12/26/2021 3:45:00 AM -99999.99 -179968 -99999.99 -99999.99 -99999.99 -99999.99
12/26/2021 4:00:00 AM -99999.99 -179968 -99999.99 -99999.99 -99999.99 -99999.99
12/26/2021 4:15:00 AM -99999.99 -179968 -99999.99 -99999.99 -99999.99 -99999.99
12/26/2021 4:30:00 AM -99999.99 -179968 -99999.99 -99999.99 -99999.99 -99999.99
12/26/2021 4:45:00 AM -99999.99 -179968 -99999.99 -99999.99 -99999.99 -99999.99
12/26/2021 5:00:00 AM -99999.99 -179968 -99999.99 -99999.99 -99999.99 -99999.99
12/26/2021 5:15:00 AM -99999.99 -179968 -99999.99 -99999.99 -99999.99 -99999.99
12/26/2021 5:30:00 AM -99999.99 -179968 -99999.99 -99999.99 -99999.99 -99999.99
12/26/2021 5:45:00 AM -99999.99 -179968 -99999.99 -99999.99 -99999.99 -99999.99
12/26/2021 6:00:00 AM -99999.99 -179968 -99999.99 -99999.99 -99999.99 -99999.99
12/26/2021 6:15:00 AM -99999.99 -179968 -99999.99 -99999.99 -99999.99 -99999.99
12/26/2021 6:30:00 AM -99999.99 -179968 -99999.99 -99999.99 -99999.99 -99999.99
12/26/2021 6:45:00 AM -99999.99 -179968 -99999.99 -99999.99 -99999.99 -99999.99
12/26/2021 7:00:00 AM -99999.99 -179968 -99999.99 -99999.99 -99999.99 -99999.99
12/26/2021 7:15:00 AM -99999.99 -179968 -99999.99 -99999.99 -99999.99 -99999.99
12/26/2021 7:30:00 AM -99999.99 -179968 -99999.99 -99999.99 -99999.99 -99999.99
12/26/2021 7:45:00 AM -99999.99 -179968 -99999.99 -99999.99 -99999.99 -99999.99
12/26/2021 8:00:00 AM -99999.99 -179968 -99999.99 -99999.99 -99999.99 -99999.99
12/26/2021 8:15:00 AM -99999.99 -179968 -99999.99 -99999.99 -99999.99 -99999.99
12/26/2021 8:30:00 AM -99999.99 -179968 -99999.99 -99999.99 -99999.99 -99999.99
12/26/2021 8:45:00 AM -99999.99 -179968 -99999.99 -99999.99 -99999.99 -99999.99
12/26/2021 9:00:00 AM -99999.99 -179968 -99999.99 -99999.99 -99999.99 -99999.99
12/26/2021 9:15:00 AM 3.46 38.228 0.223 7.64 3.67 12.88
12/26/2021 9:30:00 AM 3.48 38.264 0.223 7.64 4.25 13.02
12/26/2021 9:45:00 AM 3.5 38.3 0.222 7.69 4.63 13.15
12/26/2021 10:00:00 AM 3.52 38.336 0.222 7.72 3.33 13.22
12/26/2021 10:15:00 AM 3.54 38.372 0.222 7.77 3.68 13.34
12/26/2021 10:30:00 AM 3.56 38.408 0.222 7.8 3.52 13.4
12/26/2021 10:45:00 AM 3.59 38.462 0.222 7.84 3.48 13.48
12/26/2021 11:00:00 AM 3.62 38.516 0.221 7.88 3.58 13.49
12/26/2021 11:15:00 AM 3.65 38.57 0.221 7.92 3.45 13.53
12/26/2021 11:30:00 AM 3.67 38.606 0.221 7.95 4.02 13.58
12/26/2021 11:45:00 AM 3.7 38.66 0.221 7.99 3.23 13.63
12/26/2021 12:00:00 PM 3.73 38.714 0.221 7.99 3.47 13.67
12/26/2021 12:15:00 PM 3.76 38.768 0.221 8.04 3.3 13.69
12/26/2021 12:30:00 PM 3.79 38.822 0.221 8.06 3.15 13.66
12/26/2021 12:45:00 PM 3.81 38.858 0.221 8.09 3.14 13.67
12/26/2021 1:00:00 PM 3.83 38.894 0.221 8.11 3.32 13.71
12/26/2021 1:15:00 PM 3.86 38.948 0.221 8.13 3.51 13.72
12/26/2021 1:30:00 PM 3.89 39.002 0.221 8.14 3.51 13.7
12/26/2021 1:45:00 PM 3.91 39.038 0.221 8.19 3.18 13.69
12/26/2021 2:00:00 PM 3.95 39.11 0.22 8.24 3.25 13.75
12/26/2021 2:15:00 PM 4 39.2 0.22 8.28 3.25 13.82
12/26/2021 2:30:00 PM 4.03 39.254 0.22 8.28 3.17 13.8
12/26/2021 2:45:00 PM 4.04 39.272 0.221 8.25 3.51 13.73
12/26/2021 3:00:00 PM 4.04 39.272 0.221 8.2 3.4 13.65
12/26/2021 3:15:00 PM 4.03 39.254 0.221 8.19 3.08 13.63
12/26/2021 3:30:00 PM 4.02 39.236 0.221 8.16 3.21 13.57
12/26/2021 3:45:00 PM 3.98 39.164 0.221 8.12 3.21 13.5
12/26/2021 4:00:00 PM 3.93 39.074 0.222 8.06 3.07 13.39
12/26/2021 4:15:00 PM 3.9 39.02 0.222 7.99 3.29 13.29
12/26/2021 4:30:00 PM 3.87 38.966 0.222 7.92 2.98 13.18
12/26/2021 4:45:00 PM 3.84 38.912 0.222 7.85 2.96 13.1
12/26/2021 5:00:00 PM 3.8 38.84 0.223 7.79 3.19 12.95
12/26/2021 5:15:00 PM -99999.99 -179968 -99999.99 -99999.99 -99999.99 -99999.99
12/26/2021 5:30:00 PM -99999.99 -179968 -99999.99 -99999.99 -99999.99 -99999.99
12/26/2021 5:45:00 PM -99999.99 -179968 -99999.99 -99999.99 -99999.99 -99999.99
12/26/2021 6:00:00 PM -99999.99 -179968 -99999.99 -99999.99 -99999.99 -99999.99
12/26/2021 6:15:00 PM -99999.99 -179968 -99999.99 -99999.99 -99999.99 -99999.99
12/26/2021 6:30:00 PM -99999.99 -179968 -99999.99 -99999.99 -99999.99 -99999.99
12/26/2021 6:45:00 PM -99999.99 -179968 -99999.99 -99999.99 -99999.99 -99999.99
12/26/2021 7:00:00 PM -99999.99 -179968 -99999.99 -99999.99 -99999.99 -99999.99
12/26/2021 7:15:00 PM -99999.99 -179968 -99999.99 -99999.99 -99999.99 -99999.99
12/26/2021 7:30:00 PM -99999.99 -179968 -99999.99 -99999.99 -99999.99 -99999.99
12/26/2021 7:45:00 PM -99999.99 -179968 -99999.99 -99999.99 -99999.99 -99999.99
12/26/2021 8:00:00 PM -99999.99 -179968 -99999.99 -99999.99 -99999.99 -99999.99
12/26/2021 8:15:00 PM -99999.99 -179968 -99999.99 -99999.99 -99999.99 -99999.99
12/26/2021 8:30:00 PM -99999.99 -179968 -99999.99 -99999.99 -99999.99 -99999.99
12/26/2021 8:45:00 PM -99999.99 -179968 -99999.99 -99999.99 -99999.99 -99999.99
12/26/2021 9:00:00 PM -99999.99 -179968 -99999.99 -99999.99 -99999.99 -99999.99
12/26/2021 9:15:00 PM -99999.99 -179968 -99999.99 -99999.99 -99999.99 -99999.99
12/26/2021 9:30:00 PM -99999.99 -179968 -99999.99 -99999.99 -99999.99 -99999.99
12/26/2021 9:45:00 PM -99999.99 -179968 -99999.99 -99999.99 -99999.99 -99999.99
12/26/2021 10:00:00 PM -99999.99 -179968 -99999.99 -99999.99 -99999.99 -99999.99
12/26/2021 10:15:00 PM -99999.99 -179968 -99999.99 -99999.99 -99999.99 -99999.99
12/26/2021 10:30:00 PM -99999.99 -179968 -99999.99 -99999.99 -99999.99 -99999.99
12/26/2021 10:45:00 PM -99999.99 -179968 -99999.99 -99999.99 -99999.99 -99999.99
12/26/2021 11:00:00 PM -99999.99 -179968 -99999.99 -99999.99 -99999.99 -99999.99
12/26/2021 11:15:00 PM -99999.99 -179968 -99999.99 -99999.99 -99999.99 -99999.99
12/26/2021 11:30:00 PM -99999.99 -179968 -99999.99 -99999.99 -99999.99 -99999.99
12/26/2021 11:45:00 PM -99999.99 -179968 -99999.99 -99999.99 -99999.99 -99999.99
12/27/2021 12:00:00 AM -99999.99 -179968 -99999.99 -99999.99 -99999.99 -99999.99
12/27/2021 12:15:00 AM -99999.99 -179968 -99999.99 -99999.99 -99999.99 -99999.99
12/27/2021 12:30:00 AM -99999.99 -179968 -99999.99 -99999.99 -99999.99 -99999.99
12/27/2021 12:45:00 AM -99999.99 -179968 -99999.99 -99999.99 -99999.99 -99999.99
12/27/2021 1:00:00 AM -99999.99 -179968 -99999.99 -99999.99 -99999.99 -99999.99
12/27/2021 1:15:00 AM -99999.99 -179968 -99999.99 -99999.99 -99999.99 -99999.99
12/27/2021 1:30:00 AM -99999.99 -179968 -99999.99 -99999.99 -99999.99 -99999.99
12/27/2021 1:45:00 AM -99999.99 -179968 -99999.99 -99999.99 -99999.99 -99999.99
12/27/2021 2:00:00 AM -99999.99 -179968 -99999.99 -99999.99 -99999.99 -99999.99
12/27/2021 2:15:00 AM -99999.99 -179968 -99999.99 -99999.99 -99999.99 -99999.99
12/27/2021 2:30:00 AM -99999.99 -179968 -99999.99 -99999.99 -99999.99 -99999.99
12/27/2021 2:45:00 AM -99999.99 -179968 -99999.99 -99999.99 -99999.99 -99999.99
12/27/2021 3:00:00 AM -99999.99 -179968 -99999.99 -99999.99 -99999.99 -99999.99
12/27/2021 3:15:00 AM -99999.99 -179968 -99999.99 -99999.99 -99999.99 -99999.99
12/27/2021 3:30:00 AM -99999.99 -179968 -99999.99 -99999.99 -99999.99 -99999.99
12/27/2021 3:45:00 AM -99999.99 -179968 -99999.99 -99999.99 -99999.99 -99999.99
12/27/2021 4:00:00 AM -99999.99 -179968 -99999.99 -99999.99 -99999.99 -99999.99
12/27/2021 4:15:00 AM -99999.99 -179968 -99999.99 -99999.99 -99999.99 -99999.99
12/27/2021 4:30:00 AM -99999.99 -179968 -99999.99 -99999.99 -99999.99 -99999.99
12/27/2021 4:45:00 AM -99999.99 -179968 -99999.99 -99999.99 -99999.99 -99999.99
12/27/2021 5:00:00 AM -99999.99 -179968 -99999.99 -99999.99 -99999.99 -99999.99
12/27/2021 5:15:00 AM -99999.99 -179968 -99999.99 -99999.99 -99999.99 -99999.99
12/27/2021 5:30:00 AM -99999.99 -179968 -99999.99 -99999.99 -99999.99 -99999.99
12/27/2021 5:45:00 AM -99999.99 -179968 -99999.99 -99999.99 -99999.99 -99999.99
12/27/2021 6:00:00 AM -99999.99 -179968 -99999.99 -99999.99 -99999.99 -99999.99
12/27/2021 6:15:00 AM -99999.99 -179968 -99999.99 -99999.99 -99999.99 -99999.99
12/27/2021 6:30:00 AM -99999.99 -179968 -99999.99 -99999.99 -99999.99 -99999.99
12/27/2021 6:45:00 AM -99999.99 -179968 -99999.99 -99999.99 -99999.99 -99999.99
12/27/2021 7:00:00 AM -99999.99 -179968 -99999.99 -99999.99 -99999.99 -99999.99
12/27/2021 7:15:00 AM -99999.99 -179968 -99999.99 -99999.99 -99999.99 -99999.99
12/27/2021 7:30:00 AM -99999.99 -179968 -99999.99 -99999.99 -99999.99 -99999.99
12/27/2021 7:45:00 AM -99999.99 -179968 -99999.99 -99999.99 -99999.99 -99999.99
12/27/2021 8:00:00 AM -99999.99 -179968 -99999.99 -99999.99 -99999.99 -99999.99
12/27/2021 8:15:00 AM -99999.99 -179968 -99999.99 -99999.99 -99999.99 -99999.99
12/27/2021 8:30:00 AM -99999.99 -179968 -99999.99 -99999.99 -99999.99 -99999.99
12/27/2021 8:45:00 AM -99999.99 -179968 -99999.99 -99999.99 -99999.99 -99999.99
12/27/2021 9:00:00 AM -99999.99 -179968 -99999.99 -99999.99 -99999.99 -99999.99
12/27/2021 9:15:00 AM -99999.99 -179968 -99999.99 -99999.99 -99999.99 -99999.99
12/27/2021 9:30:00 AM -99999.99 -179968 -99999.99 -99999.99 -99999.99 -99999.99
12/27/2021 9:45:00 AM -99999.99 -179968 -99999.99 -99999.99 -99999.99 -99999.99
12/27/2021 10:00:00 AM -99999.99 -179968 -99999.99 -99999.99 -99999.99 -99999.99
12/27/2021 10:15:00 AM -99999.99 -179968 -99999.99 -99999.99 -99999.99 -99999.99
12/27/2021 10:30:00 AM -99999.99 -179968 -99999.99 -99999.99 -99999.99 -99999.99
12/27/2021 10:45:00 AM -99999.99 -179968 -99999.99 -99999.99 -99999.99 -99999.99
12/27/2021 11:00:00 AM 2.51 36.518 0.223 7.72 2.78 13.62
12/27/2021 11:15:00 AM -99999.99 -179968 -99999.99 -99999.99 -99999.99 -99999.99
12/27/2021 11:30:00 AM 2.59 36.662 0.223 7.82 2.67 13.87
12/27/2021 11:45:00 AM 2.65 36.77 0.223 7.85 2.74 13.99
12/27/2021 12:00:00 PM 2.72 36.896 0.223 7.91 2.59 14.1
12/27/2021 12:15:00 PM 2.76 36.968 0.223 7.98 2.67 14.17
12/27/2021 12:30:00 PM 2.8 37.04 0.223 8.02 2.7 14.18
12/27/2021 12:45:00 PM 2.83 37.094 0.222 8.04 2.71 14.14
12/27/2021 1:00:00 PM -99999.99 -179968 -99999.99 -99999.99 -99999.99 -99999.99
12/27/2021 1:15:00 PM -99999.99 -179968 -99999.99 -99999.99 -99999.99 -99999.99
12/27/2021 1:30:00 PM -99999.99 -179968 -99999.99 -99999.99 -99999.99 -99999.99
12/27/2021 1:45:00 PM -99999.99 -179968 -99999.99 -99999.99 -99999.99 -99999.99
12/27/2021 2:00:00 PM -99999.99 -179968 -99999.99 -99999.99 -99999.99 -99999.99
12/27/2021 2:15:00 PM -99999.99 -179968 -99999.99 -99999.99 -99999.99 -99999.99
12/27/2021 2:30:00 PM -99999.99 -179968 -99999.99 -99999.99 -99999.99 -99999.99
12/27/2021 2:45:00 PM -99999.99 -179968 -99999.99 -99999.99 -99999.99 -99999.99
12/27/2021 3:00:00 PM -99999.99 -179968 -99999.99 -99999.99 -99999.99 -99999.99
12/27/2021 3:15:00 PM -99999.99 -179968 -99999.99 -99999.99 -99999.99 -99999.99
12/27/2021 3:30:00 PM -99999.99 -179968 -99999.99 -99999.99 -99999.99 -99999.99
12/27/2021 3:45:00 PM -99999.99 -179968 -99999.99 -99999.99 -99999.99 -99999.99
12/27/2021 4:00:00 PM -99999.99 -179968 -99999.99 -99999.99 -99999.99 -99999.99
12/27/2021 4:15:00 PM -99999.99 -179968 -99999.99 -99999.99 -99999.99 -99999.99
12/27/2021 4:30:00 PM -99999.99 -179968 -99999.99 -99999.99 -99999.99 -99999.99
12/27/2021 4:45:00 PM -99999.99 -179968 -99999.99 -99999.99 -99999.99 -99999.99
12/27/2021 5:00:00 PM -99999.99 -179968 -99999.99 -99999.99 -99999.99 -99999.99
12/27/2021 5:15:00 PM -99999.99 -179968 -99999.99 -99999.99 -99999.99 -99999.99
12/27/2021 5:30:00 PM -99999.99 -179968 -99999.99 -99999.99 -99999.99 -99999.99
12/27/2021 5:45:00 PM -99999.99 -179968 -99999.99 -99999.99 -99999.99 -99999.99
12/27/2021 6:00:00 PM -99999.99 -179968 -99999.99 -99999.99 -99999.99 -99999.99
12/27/2021 6:15:00 PM -99999.99 -179968 -99999.99 -99999.99 -99999.99 -99999.99
12/27/2021 6:30:00 PM -99999.99 -179968 -99999.99 -99999.99 -99999.99 -99999.99
12/27/2021 6:45:00 PM -99999.99 -179968 -99999.99 -99999.99 -99999.99 -99999.99
12/27/2021 7:00:00 PM -99999.99 -179968 -99999.99 -99999.99 -99999.99 -99999.99
12/27/2021 7:15:00 PM -99999.99 -179968 -99999.99 -99999.99 -99999.99 -99999.99
12/27/2021 7:30:00 PM -99999.99 -179968 -99999.99 -99999.99 -99999.99 -99999.99
12/27/2021 7:45:00 PM -99999.99 -179968 -99999.99 -99999.99 -99999.99 -99999.99
12/27/2021 8:00:00 PM -99999.99 -179968 -99999.99 -99999.99 -99999.99 -99999.99
12/27/2021 8:15:00 PM -99999.99 -179968 -99999.99 -99999.99 -99999.99 -99999.99
12/27/2021 8:30:00 PM -99999.99 -179968 -99999.99 -99999.99 -99999.99 -99999.99
12/27/2021 8:45:00 PM -99999.99 -179968 -99999.99 -99999.99 -99999.99 -99999.99
12/27/2021 9:00:00 PM -99999.99 -179968 -99999.99 -99999.99 -99999.99 -99999.99
12/27/2021 9:15:00 PM -99999.99 -179968 -99999.99 -99999.99 -99999.99 -99999.99
12/27/2021 9:30:00 PM -99999.99 -179968 -99999.99 -99999.99 -99999.99 -99999.99
12/27/2021 9:45:00 PM -99999.99 -179968 -99999.99 -99999.99 -99999.99 -99999.99
12/27/2021 10:00:00 PM -99999.99 -179968 -99999.99 -99999.99 -99999.99 -99999.99
12/27/2021 10:15:00 PM -99999.99 -179968 -99999.99 -99999.99 -99999.99 -99999.99
12/27/2021 10:30:00 PM -99999.99 -179968 -99999.99 -99999.99 -99999.99 -99999.99
12/27/2021 10:45:00 PM -99999.99 -179968 -99999.99 -99999.99 -99999.99 -99999.99
12/27/2021 11:00:00 PM -99999.99 -179968 -99999.99 -99999.99 -99999.99 -99999.99
12/27/2021 11:15:00 PM -99999.99 -179968 -99999.99 -99999.99 -99999.99 -99999.99
12/27/2021 11:30:00 PM -99999.99 -179968 -99999.99 -99999.99 -99999.99 -99999.99
12/27/2021 11:45:00 PM -99999.99 -179968 -99999.99 -99999.99 -99999.99 -99999.99
12/28/2021 12:00:00 AM -99999.99 -179968 -99999.99 -99999.99 -99999.99 -99999.99
12/28/2021 12:15:00 AM -99999.99 -179968 -99999.99 -99999.99 -99999.99 -99999.99
12/28/2021 12:30:00 AM -99999.99 -179968 -99999.99 -99999.99 -99999.99 -99999.99
12/28/2021 12:45:00 AM -99999.99 -179968 -99999.99 -99999.99 -99999.99 -99999.99
12/28/2021 1:00:00 AM -99999.99 -179968 -99999.99 -99999.99 -99999.99 -99999.99
12/28/2021 1:15:00 AM -99999.99 -179968 -99999.99 -99999.99 -99999.99 -99999.99
12/28/2021 1:30:00 AM -99999.99 -179968 -99999.99 -99999.99 -99999.99 -99999.99
12/28/2021 1:45:00 AM -99999.99 -179968 -99999.99 -99999.99 -99999.99 -99999.99
12/28/2021 2:00:00 AM -99999.99 -179968 -99999.99 -99999.99 -99999.99 -99999.99
12/28/2021 2:15:00 AM -99999.99 -179968 -99999.99 -99999.99 -99999.99 -99999.99
12/28/2021 2:30:00 AM -99999.99 -179968 -99999.99 -99999.99 -99999.99 -99999.99
12/28/2021 2:45:00 AM -99999.99 -179968 -99999.99 -99999.99 -99999.99 -99999.99
12/28/2021 3:00:00 AM -99999.99 -179968 -99999.99 -99999.99 -99999.99 -99999.99
12/28/2021 3:15:00 AM -99999.99 -179968 -99999.99 -99999.99 -99999.99 -99999.99
12/28/2021 3:30:00 AM -99999.99 -179968 -99999.99 -99999.99 -99999.99 -99999.99
12/28/2021 3:45:00 AM -99999.99 -179968 -99999.99 -99999.99 -99999.99 -99999.99
12/28/2021 4:00:00 AM -99999.99 -179968 -99999.99 -99999.99 -99999.99 -99999.99
12/28/2021 4:15:00 AM -99999.99 -179968 -99999.99 -99999.99 -99999.99 -99999.99
12/28/2021 4:30:00 AM -99999.99 -179968 -99999.99 -99999.99 -99999.99 -99999.99
12/28/2021 4:45:00 AM -99999.99 -179968 -99999.99 -99999.99 -99999.99 -99999.99
12/28/2021 5:00:00 AM -99999.99 -179968 -99999.99 -99999.99 -99999.99 -99999.99
12/28/2021 5:15:00 AM -99999.99 -179968 -99999.99 -99999.99 -99999.99 -99999.99
12/28/2021 5:30:00 AM -99999.99 -179968 -99999.99 -99999.99 -99999.99 -99999.99
12/28/2021 5:45:00 AM -99999.99 -179968 -99999.99 -99999.99 -99999.99 -99999.99
12/28/2021 6:00:00 AM -99999.99 -179968 -99999.99 -99999.99 -99999.99 -99999.99
12/28/2021 6:15:00 AM -99999.99 -179968 -99999.99 -99999.99 -99999.99 -99999.99
12/28/2021 6:30:00 AM -99999.99 -179968 -99999.99 -99999.99 -99999.99 -99999.99
12/28/2021 6:45:00 AM -99999.99 -179968 -99999.99 -99999.99 -99999.99 -99999.99
12/28/2021 7:00:00 AM -99999.99 -179968 -99999.99 -99999.99 -99999.99 -99999.99
12/28/2021 7:15:00 AM -99999.99 -179968 -99999.99 -99999.99 -99999.99 -99999.99
12/28/2021 7:30:00 AM -99999.99 -179968 -99999.99 -99999.99 -99999.99 -99999.99
12/28/2021 7:45:00 AM -99999.99 -179968 -99999.99 -99999.99 -99999.99 -99999.99
12/28/2021 8:00:00 AM -99999.99 -179968 -99999.99 -99999.99 -99999.99 -99999.99
12/28/2021 8:15:00 AM -99999.99 -179968 -99999.99 -99999.99 -99999.99 -99999.99
12/28/2021 8:30:00 AM -99999.99 -179968 -99999.99 -99999.99 -99999.99 -99999.99
12/28/2021 8:45:00 AM -99999.99 -179968 -99999.99 -99999.99 -99999.99 -99999.99
12/28/2021 9:00:00 AM -99999.99 -179968 -99999.99 -99999.99 -99999.99 -99999.99
12/28/2021 9:15:00 AM -99999.99 -179968 -99999.99 -99999.99 -99999.99 -99999.99
12/28/2021 9:30:00 AM -99999.99 -179968 -99999.99 -99999.99 -99999.99 -99999.99
12/28/2021 9:45:00 AM -99999.99 -179968 -99999.99 -99999.99 -99999.99 -99999.99
12/28/2021 10:00:00 AM -99999.99 -179968 -99999.99 -99999.99 -99999.99 -99999.99
12/28/2021 10:15:00 AM -99999.99 -179968 -99999.99 -99999.99 -99999.99 -99999.99
12/28/2021 10:30:00 AM -99999.99 -179968 -99999.99 -99999.99 -99999.99 -99999.99
12/28/2021 10:45:00 AM -99999.99 -179968 -99999.99 -99999.99 -99999.99 -99999.99
12/28/2021 11:00:00 AM -99999.99 -179968 -99999.99 -99999.99 -99999.99 -99999.99
12/28/2021 11:15:00 AM -99999.99 -179968 -99999.99 -99999.99 -99999.99 -99999.99
12/28/2021 11:30:00 AM -99999.99 -179968 -99999.99 -99999.99 -99999.99 -99999.99
12/28/2021 11:45:00 AM 3.06 37.508 0.235 7.98 2.7 13.95
12/28/2021 12:00:00 PM 3.19 37.742 0.236 8.08 2.74 14.14
12/28/2021 12:15:00 PM 3.3 37.94 0.236 8.21 2.78 14.23
12/28/2021 12:30:00 PM 3.4 38.12 0.237 8.26 2.7 14.27
12/28/2021 12:45:00 PM 3.49 38.282 0.237 8.33 2.72 14.25
12/28/2021 1:00:00 PM 3.55 38.39 0.239 8.35 2.75 14.23
12/28/2021 1:15:00 PM 3.6 38.48 0.24 8.36 2.67 14.17
12/28/2021 1:30:00 PM 3.6 38.48 0.243 8.32 2.72 14.06
12/28/2021 1:45:00 PM 3.62 38.516 0.246 8.29 2.67 13.93
12/28/2021 2:00:00 PM -99999.99 -179968 -99999.99 -99999.99 -99999.99 -99999.99
12/28/2021 2:15:00 PM -99999.99 -179968 -99999.99 -99999.99 -99999.99 -99999.99
12/28/2021 2:30:00 PM -99999.99 -179968 -99999.99 -99999.99 -99999.99 -99999.99
12/28/2021 2:45:00 PM -99999.99 -179968 -99999.99 -99999.99 -99999.99 -99999.99
12/28/2021 3:00:00 PM -99999.99 -179968 -99999.99 -99999.99 -99999.99 -99999.99
12/28/2021 3:15:00 PM -99999.99 -179968 -99999.99 -99999.99 -99999.99 -99999.99
12/28/2021 3:30:00 PM -99999.99 -179968 -99999.99 -99999.99 -99999.99 -99999.99
12/28/2021 3:45:00 PM -99999.99 -179968 -99999.99 -99999.99 -99999.99 -99999.99
12/28/2021 4:00:00 PM -99999.99 -179968 -99999.99 -99999.99 -99999.99 -99999.99
12/28/2021 4:15:00 PM -99999.99 -179968 -99999.99 -99999.99 -99999.99 -99999.99
12/28/2021 4:30:00 PM -99999.99 -179968 -99999.99 -99999.99 -99999.99 -99999.99
12/28/2021 4:45:00 PM -99999.99 -179968 -99999.99 -99999.99 -99999.99 -99999.99
12/28/2021 5:00:00 PM -99999.99 -179968 -99999.99 -99999.99 -99999.99 -99999.99
12/28/2021 5:15:00 PM -99999.99 -179968 -99999.99 -99999.99 -99999.99 -99999.99
12/28/2021 5:30:00 PM -99999.99 -179968 -99999.99 -99999.99 -99999.99 -99999.99
12/28/2021 5:45:00 PM -99999.99 -179968 -99999.99 -99999.99 -99999.99 -99999.99
12/28/2021 6:00:00 PM -99999.99 -179968 -99999.99 -99999.99 -99999.99 -99999.99
12/28/2021 6:15:00 PM -99999.99 -179968 -99999.99 -99999.99 -99999.99 -99999.99
12/28/2021 6:30:00 PM -99999.99 -179968 -99999.99 -99999.99 -99999.99 -99999.99
12/28/2021 6:45:00 PM -99999.99 -179968 -99999.99 -99999.99 -99999.99 -99999.99
12/28/2021 7:00:00 PM -99999.99 -179968 -99999.99 -99999.99 -99999.99 -99999.99
12/28/2021 7:15:00 PM -99999.99 -179968 -99999.99 -99999.99 -99999.99 -99999.99
12/28/2021 7:30:00 PM -99999.99 -179968 -99999.99 -99999.99 -99999.99 -99999.99
12/28/2021 7:45:00 PM -99999.99 -179968 -99999.99 -99999.99 -99999.99 -99999.99
12/28/2021 8:00:00 PM -99999.99 -179968 -99999.99 -99999.99 -99999.99 -99999.99
12/28/2021 8:15:00 PM -99999.99 -179968 -99999.99 -99999.99 -99999.99 -99999.99
12/28/2021 8:30:00 PM -99999.99 -179968 -99999.99 -99999.99 -99999.99 -99999.99
12/28/2021 8:45:00 PM -99999.99 -179968 -99999.99 -99999.99 -99999.99 -99999.99
12/28/2021 9:00:00 PM -99999.99 -179968 -99999.99 -99999.99 -99999.99 -99999.99
12/28/2021 9:15:00 PM -99999.99 -179968 -99999.99 -99999.99 -99999.99 -99999.99
12/28/2021 9:30:00 PM -99999.99 -179968 -99999.99 -99999.99 -99999.99 -99999.99
12/28/2021 9:45:00 PM -99999.99 -179968 -99999.99 -99999.99 -99999.99 -99999.99
12/28/2021 10:00:00 PM -99999.99 -179968 -99999.99 -99999.99 -99999.99 -99999.99
12/28/2021 10:15:00 PM -99999.99 -179968 -99999.99 -99999.99 -99999.99 -99999.99
12/28/2021 10:30:00 PM -99999.99 -179968 -99999.99 -99999.99 -99999.99 -99999.99
12/28/2021 10:45:00 PM -99999.99 -179968 -99999.99 -99999.99 -99999.99 -99999.99
12/28/2021 11:00:00 PM -99999.99 -179968 -99999.99 -99999.99 -99999.99 -99999.99
12/28/2021 11:15:00 PM -99999.99 -179968 -99999.99 -99999.99 -99999.99 -99999.99
12/28/2021 11:30:00 PM -99999.99 -179968 -99999.99 -99999.99 -99999.99 -99999.99
12/28/2021 11:45:00 PM -99999.99 -179968 -99999.99 -99999.99 -99999.99 -99999.99
12/29/2021 12:00:00 AM -99999.99 -179968 -99999.99 -99999.99 -99999.99 -99999.99
12/29/2021 12:15:00 AM -99999.99 -179968 -99999.99 -99999.99 -99999.99 -99999.99
12/29/2021 12:30:00 AM -99999.99 -179968 -99999.99 -99999.99 -99999.99 -99999.99
12/29/2021 12:45:00 AM -99999.99 -179968 -99999.99 -99999.99 -99999.99 -99999.99
12/29/2021 1:00:00 AM -99999.99 -179968 -99999.99 -99999.99 -99999.99 -99999.99
12/29/2021 1:15:00 AM -99999.99 -179968 -99999.99 -99999.99 -99999.99 -99999.99
12/29/2021 1:30:00 AM -99999.99 -179968 -99999.99 -99999.99 -99999.99 -99999.99
12/29/2021 1:45:00 AM -99999.99 -179968 -99999.99 -99999.99 -99999.99 -99999.99
12/29/2021 2:00:00 AM -99999.99 -179968 -99999.99 -99999.99 -99999.99 -99999.99
12/29/2021 2:15:00 AM -99999.99 -179968 -99999.99 -99999.99 -99999.99 -99999.99
12/29/2021 2:30:00 AM -99999.99 -179968 -99999.99 -99999.99 -99999.99 -99999.99
12/29/2021 2:45:00 AM -99999.99 -179968 -99999.99 -99999.99 -99999.99 -99999.99
12/29/2021 3:00:00 AM -99999.99 -179968 -99999.99 -99999.99 -99999.99 -99999.99
12/29/2021 3:15:00 AM -99999.99 -179968 -99999.99 -99999.99 -99999.99 -99999.99
12/29/2021 3:30:00 AM -99999.99 -179968 -99999.99 -99999.99 -99999.99 -99999.99
12/29/2021 3:45:00 AM -99999.99 -179968 -99999.99 -99999.99 -99999.99 -99999.99
12/29/2021 4:00:00 AM -99999.99 -179968 -99999.99 -99999.99 -99999.99 -99999.99
12/29/2021 4:15:00 AM -99999.99 -179968 -99999.99 -99999.99 -99999.99 -99999.99
12/29/2021 4:30:00 AM -99999.99 -179968 -99999.99 -99999.99 -99999.99 -99999.99
12/29/2021 4:45:00 AM -99999.99 -179968 -99999.99 -99999.99 -99999.99 -99999.99
12/29/2021 5:00:00 AM -99999.99 -179968 -99999.99 -99999.99 -99999.99 -99999.99
12/29/2021 5:15:00 AM -99999.99 -179968 -99999.99 -99999.99 -99999.99 -99999.99
12/29/2021 5:30:00 AM -99999.99 -179968 -99999.99 -99999.99 -99999.99 -99999.99
12/29/2021 5:45:00 AM -99999.99 -179968 -99999.99 -99999.99 -99999.99 -99999.99
12/29/2021 6:00:00 AM -99999.99 -179968 -99999.99 -99999.99 -99999.99 -99999.99
12/29/2021 6:15:00 AM -99999.99 -179968 -99999.99 -99999.99 -99999.99 -99999.99
12/29/2021 6:30:00 AM -99999.99 -179968 -99999.99 -99999.99 -99999.99 -99999.99
12/29/2021 6:45:00 AM -99999.99 -179968 -99999.99 -99999.99 -99999.99 -99999.99
12/29/2021 7:00:00 AM -99999.99 -179968 -99999.99 -99999.99 -99999.99 -99999.99
12/29/2021 7:15:00 AM -99999.99 -179968 -99999.99 -99999.99 -99999.99 -99999.99
12/29/2021 7:30:00 AM -99999.99 -179968 -99999.99 -99999.99 -99999.99 -99999.99
12/29/2021 7:45:00 AM -99999.99 -179968 -99999.99 -99999.99 -99999.99 -99999.99
12/29/2021 8:00:00 AM -99999.99 -179968 -99999.99 -99999.99 -99999.99 -99999.99
12/29/2021 8:15:00 AM -99999.99 -179968 -99999.99 -99999.99 -99999.99 -99999.99
12/29/2021 8:30:00 AM -99999.99 -179968 -99999.99 -99999.99 -99999.99 -99999.99
12/29/2021 8:45:00 AM -99999.99 -179968 -99999.99 -99999.99 -99999.99 -99999.99
12/29/2021 9:00:00 AM -99999.99 -179968 -99999.99 -99999.99 -99999.99 -99999.99
12/29/2021 9:15:00 AM -99999.99 -179968 -99999.99 -99999.99 -99999.99 -99999.99
12/29/2021 9:30:00 AM -99999.99 -179968 -99999.99 -99999.99 -99999.99 -99999.99
12/29/2021 9:45:00 AM -99999.99 -179968 -99999.99 -99999.99 -99999.99 -99999.99
12/29/2021 10:00:00 AM -99999.99 -179968 -99999.99 -99999.99 -99999.99 -99999.99
12/29/2021 10:15:00 AM -99999.99 -179968 -99999.99 -99999.99 -99999.99 -99999.99
12/29/2021 10:30:00 AM -99999.99 -179968 -99999.99 -99999.99 -99999.99 -99999.99
12/29/2021 10:45:00 AM 3.64 38.552 0.241 7.76 2.92 13.28
12/29/2021 11:00:00 AM 3.68 38.624 0.241 7.78 2.8 13.38
12/29/2021 11:15:00 AM 3.74 38.732 0.241 7.82 2.63 13.54
12/29/2021 11:30:00 AM 3.81 38.858 0.24 7.9 2.54 13.67
12/29/2021 11:45:00 AM 3.88 38.984 0.24 7.98 2.63 13.77
12/29/2021 12:00:00 PM 3.97 39.146 0.24 8.09 2.6 13.89
12/29/2021 12:15:00 PM 4.06 39.308 0.239 8.19 2.58 14
12/29/2021 12:30:00 PM 4.13 39.434 0.239 8.28 2.69 14.03
12/29/2021 12:45:00 PM 4.19 39.542 0.238 8.31 2.71 14.06
12/29/2021 1:00:00 PM 4.26 39.668 0.238 8.37 2.62 14.04
12/29/2021 1:15:00 PM 4.31 39.758 0.238 8.38 2.65 14.02
12/29/2021 1:30:00 PM 4.35 39.83 0.238 8.39 2.65 13.98
12/29/2021 1:45:00 PM 4.37 39.866 0.238 8.41 2.59 13.94
12/29/2021 2:00:00 PM 4.43 39.974 0.238 8.38 2.61 13.87
12/29/2021 2:15:00 PM 4.45 40.01 0.237 8.4 2.54 13.83
12/29/2021 2:30:00 PM 4.5 40.1 0.237 8.37 2.59 13.73
12/29/2021 2:45:00 PM 4.51 40.118 0.237 8.38 2.65 13.68
12/29/2021 3:00:00 PM 4.54 40.172 0.237 8.35 2.64 13.6
12/29/2021 3:15:00 PM 4.55 40.19 0.237 8.32 2.62 13.51
12/29/2021 3:30:00 PM 4.54 40.172 0.237 8.26 2.55 13.4
12/29/2021 3:45:00 PM 4.55 40.19 0.237 8.2 2.57 13.32
12/29/2021 4:00:00 PM 4.56 40.208 0.237 8.14 2.67 13.19
12/29/2021 4:15:00 PM 4.54 40.172 0.238 8.04 2.65 13.01
12/29/2021 4:30:00 PM 4.48 40.064 0.238 7.96 2.8 12.85
12/29/2021 4:45:00 PM 4.49 40.082 0.238 7.88 2.51 12.67
12/29/2021 5:00:00 PM 4.47 40.046 0.238 7.82 2.52 12.56
12/29/2021 5:15:00 PM 4.44 39.992 0.238 7.75 2.6 12.43
12/29/2021 5:30:00 PM 4.41 39.938 0.239 7.7 2.62 12.36
12/29/2021 5:45:00 PM 4.39 39.902 0.239 7.67 2.52 12.3
12/29/2021 6:00:00 PM 4.36 39.848 0.239 7.63 2.61 12.23
12/29/2021 6:15:00 PM 4.34 39.812 0.239 7.6 2.51 12.19
12/29/2021 6:30:00 PM 4.31 39.758 0.239 7.59 2.73 12.15
12/29/2021 6:45:00 PM -99999.99 -179968 -99999.99 -99999.99 -99999.99 -99999.99
12/29/2021 7:00:00 PM -99999.99 -179968 -99999.99 -99999.99 -99999.99 -99999.99
12/29/2021 7:15:00 PM -99999.99 -179968 -99999.99 -99999.99 -99999.99 -99999.99
12/29/2021 7:30:00 PM -99999.99 -179968 -99999.99 -99999.99 -99999.99 -99999.99
12/29/2021 7:45:00 PM -99999.99 -179968 -99999.99 -99999.99 -99999.99 -99999.99
12/29/2021 8:00:00 PM -99999.99 -179968 -99999.99 -99999.99 -99999.99 -99999.99
12/29/2021 8:15:00 PM -99999.99 -179968 -99999.99 -99999.99 -99999.99 -99999.99
12/29/2021 8:30:00 PM -99999.99 -179968 -99999.99 -99999.99 -99999.99 -99999.99
12/29/2021 8:45:00 PM -99999.99 -179968 -99999.99 -99999.99 -99999.99 -99999.99
12/29/2021 9:00:00 PM -99999.99 -179968 -99999.99 -99999.99 -99999.99 -99999.99
12/29/2021 9:15:00 PM -99999.99 -179968 -99999.99 -99999.99 -99999.99 -99999.99
12/29/2021 9:30:00 PM -99999.99 -179968 -99999.99 -99999.99 -99999.99 -99999.99
12/29/2021 9:45:00 PM -99999.99 -179968 -99999.99 -99999.99 -99999.99 -99999.99
12/29/2021 10:00:00 PM -99999.99 -179968 -99999.99 -99999.99 -99999.99 -99999.99
12/29/2021 10:15:00 PM -99999.99 -179968 -99999.99 -99999.99 -99999.99 -99999.99
12/29/2021 10:30:00 PM -99999.99 -179968 -99999.99 -99999.99 -99999.99 -99999.99
12/29/2021 10:45:00 PM -99999.99 -179968 -99999.99 -99999.99 -99999.99 -99999.99
12/29/2021 11:00:00 PM -99999.99 -179968 -99999.99 -99999.99 -99999.99 -99999.99
12/29/2021 11:15:00 PM -99999.99 -179968 -99999.99 -99999.99 -99999.99 -99999.99
12/29/2021 11:30:00 PM -99999.99 -179968 -99999.99 -99999.99 -99999.99 -99999.99
12/29/2021 11:45:00 PM -99999.99 -179968 -99999.99 -99999.99 -99999.99 -99999.99
12/30/2021 12:00:00 AM -99999.99 -179968 -99999.99 -99999.99 -99999.99 -99999.99
12/30/2021 12:15:00 AM -99999.99 -179968 -99999.99 -99999.99 -99999.99 -99999.99
12/30/2021 12:30:00 AM -99999.99 -179968 -99999.99 -99999.99 -99999.99 -99999.99
12/30/2021 12:45:00 AM -99999.99 -179968 -99999.99 -99999.99 -99999.99 -99999.99
12/30/2021 1:00:00 AM -99999.99 -179968 -99999.99 -99999.99 -99999.99 -99999.99
12/30/2021 1:15:00 AM -99999.99 -179968 -99999.99 -99999.99 -99999.99 -99999.99
12/30/2021 1:30:00 AM -99999.99 -179968 -99999.99 -99999.99 -99999.99 -99999.99
12/30/2021 1:45:00 AM -99999.99 -179968 -99999.99 -99999.99 -99999.99 -99999.99
12/30/2021 2:00:00 AM -99999.99 -179968 -99999.99 -99999.99 -99999.99 -99999.99
12/30/2021 2:15:00 AM -99999.99 -179968 -99999.99 -99999.99 -99999.99 -99999.99
12/30/2021 2:30:00 AM -99999.99 -179968 -99999.99 -99999.99 -99999.99 -99999.99
12/30/2021 2:45:00 AM -99999.99 -179968 -99999.99 -99999.99 -99999.99 -99999.99
12/30/2021 3:00:00 AM -99999.99 -179968 -99999.99 -99999.99 -99999.99 -99999.99
12/30/2021 3:15:00 AM -99999.99 -179968 -99999.99 -99999.99 -99999.99 -99999.99
12/30/2021 3:30:00 AM -99999.99 -179968 -99999.99 -99999.99 -99999.99 -99999.99
12/30/2021 3:45:00 AM -99999.99 -179968 -99999.99 -99999.99 -99999.99 -99999.99
12/30/2021 4:00:00 AM -99999.99 -179968 -99999.99 -99999.99 -99999.99 -99999.99
12/30/2021 4:15:00 AM -99999.99 -179968 -99999.99 -99999.99 -99999.99 -99999.99
12/30/2021 4:30:00 AM -99999.99 -179968 -99999.99 -99999.99 -99999.99 -99999.99
12/30/2021 4:45:00 AM -99999.99 -179968 -99999.99 -99999.99 -99999.99 -99999.99
12/30/2021 5:00:00 AM -99999.99 -179968 -99999.99 -99999.99 -99999.99 -99999.99
12/30/2021 5:15:00 AM -99999.99 -179968 -99999.99 -99999.99 -99999.99 -99999.99
12/30/2021 5:30:00 AM -99999.99 -179968 -99999.99 -99999.99 -99999.99 -99999.99
12/30/2021 5:45:00 AM -99999.99 -179968 -99999.99 -99999.99 -99999.99 -99999.99
12/30/2021 6:00:00 AM -99999.99 -179968 -99999.99 -99999.99 -99999.99 -99999.99
12/30/2021 6:15:00 AM -99999.99 -179968 -99999.99 -99999.99 -99999.99 -99999.99
12/30/2021 6:30:00 AM -99999.99 -179968 -99999.99 -99999.99 -99999.99 -99999.99
12/30/2021 6:45:00 AM -99999.99 -179968 -99999.99 -99999.99 -99999.99 -99999.99
12/30/2021 7:00:00 AM -99999.99 -179968 -99999.99 -99999.99 -99999.99 -99999.99
12/30/2021 7:15:00 AM -99999.99 -179968 -99999.99 -99999.99 -99999.99 -99999.99
12/30/2021 7:30:00 AM -99999.99 -179968 -99999.99 -99999.99 -99999.99 -99999.99
12/30/2021 7:45:00 AM -99999.99 -179968 -99999.99 -99999.99 -99999.99 -99999.99
12/30/2021 8:00:00 AM -99999.99 -179968 -99999.99 -99999.99 -99999.99 -99999.99
12/30/2021 8:15:00 AM -99999.99 -179968 -99999.99 -99999.99 -99999.99 -99999.99
12/30/2021 8:30:00 AM -99999.99 -179968 -99999.99 -99999.99 -99999.99 -99999.99
12/30/2021 8:45:00 AM -99999.99 -179968 -99999.99 -99999.99 -99999.99 -99999.99
12/30/2021 9:00:00 AM -99999.99 -179968 -99999.99 -99999.99 -99999.99 -99999.99
12/30/2021 9:15:00 AM -99999.99 -179968 -99999.99 -99999.99 -99999.99 -99999.99
12/30/2021 9:30:00 AM -99999.99 -179968 -99999.99 -99999.99 -99999.99 -99999.99
12/30/2021 9:45:00 AM -99999.99 -179968 -99999.99 -99999.99 -99999.99 -99999.99
12/30/2021 10:00:00 AM -99999.99 -179968 -99999.99 -99999.99 -99999.99 -99999.99
12/30/2021 10:15:00 AM -99999.99 -179968 -99999.99 -99999.99 -99999.99 -99999.99
12/30/2021 10:30:00 AM -99999.99 -179968 -99999.99 -99999.99 -99999.99 -99999.99
12/30/2021 10:45:00 AM -99999.99 -179968 -99999.99 -99999.99 -99999.99 -99999.99
12/30/2021 11:00:00 AM -99999.99 -179968 -99999.99 -99999.99 -99999.99 -99999.99
12/30/2021 11:15:00 AM -99999.99 -179968 -99999.99 -99999.99 -99999.99 -99999.99
12/30/2021 11:30:00 AM -99999.99 -179968 -99999.99 -99999.99 -99999.99 -99999.99
12/30/2021 11:45:00 AM -99999.99 -179968 -99999.99 -99999.99 -99999.99 -99999.99
12/30/2021 12:00:00 PM -99999.99 -179968 -99999.99 -99999.99 -99999.99 -99999.99
12/30/2021 12:15:00 PM -99999.99 -179968 -99999.99 -99999.99 -99999.99 -99999.99
12/30/2021 12:30:00 PM -99999.99 -179968 -99999.99 -99999.99 -99999.99 -99999.99
12/30/2021 12:45:00 PM -99999.99 -179968 -99999.99 -99999.99 -99999.99 -99999.99
12/30/2021 1:00:00 PM -99999.99 -179968 -99999.99 -99999.99 -99999.99 -99999.99
12/30/2021 1:15:00 PM -99999.99 -179968 -99999.99 -99999.99 -99999.99 -99999.99
12/30/2021 1:30:00 PM -99999.99 -179968 -99999.99 -99999.99 -99999.99 -99999.99
12/30/2021 1:45:00 PM -99999.99 -179968 -99999.99 -99999.99 -99999.99 -99999.99
12/30/2021 2:00:00 PM -99999.99 -179968 -99999.99 -99999.99 -99999.99 -99999.99
12/30/2021 2:15:00 PM -99999.99 -179968 -99999.99 -99999.99 -99999.99 -99999.99
12/30/2021 2:30:00 PM -99999.99 -179968 -99999.99 -99999.99 -99999.99 -99999.99
12/30/2021 2:45:00 PM -99999.99 -179968 -99999.99 -99999.99 -99999.99 -99999.99
12/30/2021 3:00:00 PM -99999.99 -179968 -99999.99 -99999.99 -99999.99 -99999.99
12/30/2021 3:15:00 PM -99999.99 -179968 -99999.99 -99999.99 -99999.99 -99999.99
12/30/2021 3:30:00 PM -99999.99 -179968 -99999.99 -99999.99 -99999.99 -99999.99
12/30/2021 3:45:00 PM -99999.99 -179968 -99999.99 -99999.99 -99999.99 -99999.99
12/30/2021 4:00:00 PM -99999.99 -179968 -99999.99 -99999.99 -99999.99 -99999.99
12/30/2021 4:15:00 PM -99999.99 -179968 -99999.99 -99999.99 -99999.99 -99999.99
12/30/2021 4:30:00 PM -99999.99 -179968 -99999.99 -99999.99 -99999.99 -99999.99
12/30/2021 4:45:00 PM -99999.99 -179968 -99999.99 -99999.99 -99999.99 -99999.99
12/30/2021 5:00:00 PM -99999.99 -179968 -99999.99 -99999.99 -99999.99 -99999.99
12/30/2021 5:15:00 PM -99999.99 -179968 -99999.99 -99999.99 -99999.99 -99999.99
12/30/2021 5:30:00 PM -99999.99 -179968 -99999.99 -99999.99 -99999.99 -99999.99
12/30/2021 5:45:00 PM -99999.99 -179968 -99999.99 -99999.99 -99999.99 -99999.99
12/30/2021 6:00:00 PM -99999.99 -179968 -99999.99 -99999.99 -99999.99 -99999.99
12/30/2021 6:15:00 PM -99999.99 -179968 -99999.99 -99999.99 -99999.99 -99999.99
12/30/2021 6:30:00 PM -99999.99 -179968 -99999.99 -99999.99 -99999.99 -99999.99
12/30/2021 6:45:00 PM -99999.99 -179968 -99999.99 -99999.99 -99999.99 -99999.99
12/30/2021 7:00:00 PM -99999.99 -179968 -99999.99 -99999.99 -99999.99 -99999.99
12/30/2021 7:15:00 PM -99999.99 -179968 -99999.99 -99999.99 -99999.99 -99999.99
12/30/2021 7:30:00 PM -99999.99 -179968 -99999.99 -99999.99 -99999.99 -99999.99
12/30/2021 7:45:00 PM -99999.99 -179968 -99999.99 -99999.99 -99999.99 -99999.99
12/30/2021 8:00:00 PM -99999.99 -179968 -99999.99 -99999.99 -99999.99 -99999.99
12/30/2021 8:15:00 PM -99999.99 -179968 -99999.99 -99999.99 -99999.99 -99999.99
12/30/2021 8:30:00 PM -99999.99 -179968 -99999.99 -99999.99 -99999.99 -99999.99
12/30/2021 8:45:00 PM -99999.99 -179968 -99999.99 -99999.99 -99999.99 -99999.99
12/30/2021 9:00:00 PM -99999.99 -179968 -99999.99 -99999.99 -99999.99 -99999.99
12/30/2021 9:15:00 PM -99999.99 -179968 -99999.99 -99999.99 -99999.99 -99999.99
12/30/2021 9:30:00 PM -99999.99 -179968 -99999.99 -99999.99 -99999.99 -99999.99
12/30/2021 9:45:00 PM -99999.99 -179968 -99999.99 -99999.99 -99999.99 -99999.99
12/30/2021 10:00:00 PM -99999.99 -179968 -99999.99 -99999.99 -99999.99 -99999.99
12/30/2021 10:15:00 PM -99999.99 -179968 -99999.99 -99999.99 -99999.99 -99999.99
12/30/2021 10:30:00 PM -99999.99 -179968 -99999.99 -99999.99 -99999.99 -99999.99
12/30/2021 10:45:00 PM -99999.99 -179968 -99999.99 -99999.99 -99999.99 -99999.99
12/30/2021 11:00:00 PM -99999.99 -179968 -99999.99 -99999.99 -99999.99 -99999.99
12/30/2021 11:15:00 PM -99999.99 -179968 -99999.99 -99999.99 -99999.99 -99999.99
12/30/2021 11:30:00 PM -99999.99 -179968 -99999.99 -99999.99 -99999.99 -99999.99
12/30/2021 11:45:00 PM -99999.99 -179968 -99999.99 -99999.99 -99999.99 -99999.99
12/31/2021 12:00:00 AM -99999.99 -179968 -99999.99 -99999.99 -99999.99 -99999.99
12/31/2021 12:15:00 AM -99999.99 -179968 -99999.99 -99999.99 -99999.99 -99999.99
12/31/2021 12:30:00 AM -99999.99 -179968 -99999.99 -99999.99 -99999.99 -99999.99
12/31/2021 12:45:00 AM -99999.99 -179968 -99999.99 -99999.99 -99999.99 -99999.99
12/31/2021 1:00:00 AM -99999.99 -179968 -99999.99 -99999.99 -99999.99 -99999.99
12/31/2021 1:15:00 AM -99999.99 -179968 -99999.99 -99999.99 -99999.99 -99999.99
12/31/2021 1:30:00 AM -99999.99 -179968 -99999.99 -99999.99 -99999.99 -99999.99
12/31/2021 1:45:00 AM -99999.99 -179968 -99999.99 -99999.99 -99999.99 -99999.99
12/31/2021 2:00:00 AM -99999.99 -179968 -99999.99 -99999.99 -99999.99 -99999.99
12/31/2021 2:15:00 AM -99999.99 -179968 -99999.99 -99999.99 -99999.99 -99999.99
12/31/2021 2:30:00 AM -99999.99 -179968 -99999.99 -99999.99 -99999.99 -99999.99
12/31/2021 2:45:00 AM -99999.99 -179968 -99999.99 -99999.99 -99999.99 -99999.99
12/31/2021 3:00:00 AM -99999.99 -179968 -99999.99 -99999.99 -99999.99 -99999.99
12/31/2021 3:15:00 AM -99999.99 -179968 -99999.99 -99999.99 -99999.99 -99999.99
12/31/2021 3:30:00 AM -99999.99 -179968 -99999.99 -99999.99 -99999.99 -99999.99
12/31/2021 3:45:00 AM -99999.99 -179968 -99999.99 -99999.99 -99999.99 -99999.99
12/31/2021 4:00:00 AM -99999.99 -179968 -99999.99 -99999.99 -99999.99 -99999.99
12/31/2021 4:15:00 AM -99999.99 -179968 -99999.99 -99999.99 -99999.99 -99999.99
12/31/2021 4:30:00 AM -99999.99 -179968 -99999.99 -99999.99 -99999.99 -99999.99
12/31/2021 4:45:00 AM -99999.99 -179968 -99999.99 -99999.99 -99999.99 -99999.99
12/31/2021 5:00:00 AM -99999.99 -179968 -99999.99 -99999.99 -99999.99 -99999.99
12/31/2021 5:15:00 AM -99999.99 -179968 -99999.99 -99999.99 -99999.99 -99999.99
12/31/2021 5:30:00 AM -99999.99 -179968 -99999.99 -99999.99 -99999.99 -99999.99
12/31/2021 5:45:00 AM -99999.99 -179968 -99999.99 -99999.99 -99999.99 -99999.99
12/31/2021 6:00:00 AM -99999.99 -179968 -99999.99 -99999.99 -99999.99 -99999.99
12/31/2021 6:15:00 AM -99999.99 -179968 -99999.99 -99999.99 -99999.99 -99999.99
12/31/2021 6:30:00 AM -99999.99 -179968 -99999.99 -99999.99 -99999.99 -99999.99
12/31/2021 6:45:00 AM -99999.99 -179968 -99999.99 -99999.99 -99999.99 -99999.99
12/31/2021 7:00:00 AM -99999.99 -179968 -99999.99 -99999.99 -99999.99 -99999.99
12/31/2021 7:15:00 AM -99999.99 -179968 -99999.99 -99999.99 -99999.99 -99999.99
12/31/2021 7:30:00 AM -99999.99 -179968 -99999.99 -99999.99 -99999.99 -99999.99
12/31/2021 7:45:00 AM -99999.99 -179968 -99999.99 -99999.99 -99999.99 -99999.99
12/31/2021 8:00:00 AM -99999.99 -179968 -99999.99 -99999.99 -99999.99 -99999.99
12/31/2021 8:15:00 AM -99999.99 -179968 -99999.99 -99999.99 -99999.99 -99999.99
12/31/2021 8:30:00 AM -99999.99 -179968 -99999.99 -99999.99 -99999.99 -99999.99
12/31/2021 8:45:00 AM -99999.99 -179968 -99999.99 -99999.99 -99999.99 -99999.99
12/31/2021 9:00:00 AM -99999.99 -179968 -99999.99 -99999.99 -99999.99 -99999.99
12/31/2021 9:15:00 AM -99999.99 -179968 -99999.99 -99999.99 -99999.99 -99999.99
12/31/2021 9:30:00 AM -99999.99 -179968 -99999.99 -99999.99 -99999.99 -99999.99
12/31/2021 9:45:00 AM -99999.99 -179968 -99999.99 -99999.99 -99999.99 -99999.99
12/31/2021 10:00:00 AM -99999.99 -179968 -99999.99 -99999.99 -99999.99 -99999.99
12/31/2021 10:15:00 AM 4.71 40.478 0.232 7.84 2.51 13.37
12/31/2021 10:30:00 AM 4.81 40.658 0.232 7.95 2.51 13.45
12/31/2021 10:45:00 AM 4.86 40.748 0.232 8 2.47 13.59
12/31/2021 11:00:00 AM 4.91 40.838 0.232 8.08 2.49 13.54
12/31/2021 11:15:00 AM 4.93 40.874 0.232 8.08 2.54 13.59
12/31/2021 11:30:00 AM 5 41 0.232 8.15 2.46 13.66
12/31/2021 11:45:00 AM 5.08 41.144 0.231 8.23 2.46 13.69
12/31/2021 12:00:00 PM 5.16 41.288 0.232 8.28 2.49 13.71
12/31/2021 12:15:00 PM 5.23 41.414 0.231 8.37 2.49 13.78
12/31/2021 12:30:00 PM 5.31 41.558 0.231 8.42 2.43 13.75
12/31/2021 12:45:00 PM 5.36 41.648 0.231 8.43 2.52 13.71
12/31/2021 1:00:00 PM 5.4 41.72 0.231 8.43 4 13.63
12/31/2021 1:15:00 PM 5.44 41.792 0.231 8.46 2.41 13.6
12/31/2021 1:30:00 PM 5.53 41.954 0.231 8.46 2.51 13.65
12/31/2021 1:45:00 PM 5.61 42.098 0.231 8.53 2.45 13.65
12/31/2021 2:00:00 PM 5.63 42.134 0.23 8.54 2.44 13.61
12/31/2021 2:15:00 PM 5.71 42.278 0.23 8.53 2.48 13.55
12/31/2021 2:30:00 PM 5.72 42.296 0.23 8.59 2.51 13.56
12/31/2021 2:45:00 PM 5.78 42.404 0.23 8.57 2.64 13.49
12/31/2021 3:00:00 PM 5.86 42.548 0.231 8.53 2.55 13.41
12/31/2021 3:15:00 PM 5.86 42.548 0.231 8.53 2.49 13.37
12/31/2021 3:30:00 PM 5.86 42.548 0.231 8.5 2.5 13.22
12/31/2021 3:45:00 PM -99999.99 -179968 -99999.99 -99999.99 -99999.99 -99999.99
12/31/2021 4:00:00 PM -99999.99 -179968 -99999.99 -99999.99 -99999.99 -99999.99
12/31/2021 4:15:00 PM -99999.99 -179968 -99999.99 -99999.99 -99999.99 -99999.99
12/31/2021 4:30:00 PM -99999.99 -179968 -99999.99 -99999.99 -99999.99 -99999.99
12/31/2021 4:45:00 PM -99999.99 -179968 -99999.99 -99999.99 -99999.99 -99999.99
12/31/2021 5:00:00 PM -99999.99 -179968 -99999.99 -99999.99 -99999.99 -99999.99
12/31/2021 5:15:00 PM -99999.99 -179968 -99999.99 -99999.99 -99999.99 -99999.99
12/31/2021 5:30:00 PM -99999.99 -179968 -99999.99 -99999.99 -99999.99 -99999.99
12/31/2021 5:45:00 PM -99999.99 -179968 -99999.99 -99999.99 -99999.99 -99999.99
12/31/2021 6:00:00 PM -99999.99 -179968 -99999.99 -99999.99 -99999.99 -99999.99
12/31/2021 6:15:00 PM -99999.99 -179968 -99999.99 -99999.99 -99999.99 -99999.99
12/31/2021 6:30:00 PM -99999.99 -179968 -99999.99 -99999.99 -99999.99 -99999.99
12/31/2021 6:45:00 PM -99999.99 -179968 -99999.99 -99999.99 -99999.99 -99999.99
12/31/2021 7:00:00 PM -99999.99 -179968 -99999.99 -99999.99 -99999.99 -99999.99
12/31/2021 7:15:00 PM -99999.99 -179968 -99999.99 -99999.99 -99999.99 -99999.99
12/31/2021 7:30:00 PM -99999.99 -179968 -99999.99 -99999.99 -99999.99 -99999.99
12/31/2021 7:45:00 PM -99999.99 -179968 -99999.99 -99999.99 -99999.99 -99999.99
12/31/2021 8:00:00 PM -99999.99 -179968 -99999.99 -99999.99 -99999.99 -99999.99
12/31/2021 8:15:00 PM -99999.99 -179968 -99999.99 -99999.99 -99999.99 -99999.99
12/31/2021 8:30:00 PM -99999.99 -179968 -99999.99 -99999.99 -99999.99 -99999.99
12/31/2021 8:45:00 PM -99999.99 -179968 -99999.99 -99999.99 -99999.99 -99999.99
12/31/2021 9:00:00 PM -99999.99 -179968 -99999.99 -99999.99 -99999.99 -99999.99
12/31/2021 9:15:00 PM -99999.99 -179968 -99999.99 -99999.99 -99999.99 -99999.99
12/31/2021 9:30:00 PM -99999.99 -179968 -99999.99 -99999.99 -99999.99 -99999.99
12/31/2021 9:45:00 PM -99999.99 -179968 -99999.99 -99999.99 -99999.99 -99999.99
12/31/2021 10:00:00 PM -99999.99 -179968 -99999.99 -99999.99 -99999.99 -99999.99
12/31/2021 10:15:00 PM -99999.99 -179968 -99999.99 -99999.99 -99999.99 -99999.99
12/31/2021 10:30:00 PM -99999.99 -179968 -99999.99 -99999.99 -99999.99 -99999.99
12/31/2021 10:45:00 PM -99999.99 -179968 -99999.99 -99999.99 -99999.99 -99999.99
12/31/2021 11:00:00 PM -99999.99 -179968 -99999.99 -99999.99 -99999.99 -99999.99
12/31/2021 11:15:00 PM -99999.99 -179968 -99999.99 -99999.99 -99999.99 -99999.99
12/31/2021 11:30:00 PM -99999.99 -179968 -99999.99 -99999.99 -99999.99 -99999.99
12/31/2021 11:45:00 PM -99999.99 -179968 -99999.99 -99999.99 -99999.99 -99999.99
1/1/2022 12:00:00 AM -99999.99 -179968 -99999.99 -99999.99 -99999.99 -99999.99
1/1/2022 12:15:00 AM -99999.99 -179968 -99999.99 -99999.99 -99999.99 -99999.99
1/1/2022 12:30:00 AM -99999.99 -179968 -99999.99 -99999.99 -99999.99 -99999.99
1/1/2022 12:45:00 AM -99999.99 -179968 -99999.99 -99999.99 -99999.99 -99999.99
1/1/2022 1:00:00 AM -99999.99 -179968 -99999.99 -99999.99 -99999.99 -99999.99
1/1/2022 1:15:00 AM -99999.99 -179968 -99999.99 -99999.99 -99999.99 -99999.99
1/1/2022 1:30:00 AM -99999.99 -179968 -99999.99 -99999.99 -99999.99 -99999.99
1/1/2022 1:45:00 AM -99999.99 -179968 -99999.99 -99999.99 -99999.99 -99999.99
1/1/2022 2:00:00 AM -99999.99 -179968 -99999.99 -99999.99 -99999.99 -99999.99
1/1/2022 2:15:00 AM -99999.99 -179968 -99999.99 -99999.99 -99999.99 -99999.99
1/1/2022 2:30:00 AM -99999.99 -179968 -99999.99 -99999.99 -99999.99 -99999.99
1/1/2022 2:45:00 AM -99999.99 -179968 -99999.99 -99999.99 -99999.99 -99999.99
1/1/2022 3:00:00 AM -99999.99 -179968 -99999.99 -99999.99 -99999.99 -99999.99
1/1/2022 3:15:00 AM -99999.99 -179968 -99999.99 -99999.99 -99999.99 -99999.99
1/1/2022 3:30:00 AM -99999.99 -179968 -99999.99 -99999.99 -99999.99 -99999.99
1/1/2022 3:45:00 AM -99999.99 -179968 -99999.99 -99999.99 -99999.99 -99999.99
1/1/2022 4:00:00 AM -99999.99 -179968 -99999.99 -99999.99 -99999.99 -99999.99
1/1/2022 4:15:00 AM -99999.99 -179968 -99999.99 -99999.99 -99999.99 -99999.99
1/1/2022 4:30:00 AM -99999.99 -179968 -99999.99 -99999.99 -99999.99 -99999.99
1/1/2022 4:45:00 AM -99999.99 -179968 -99999.99 -99999.99 -99999.99 -99999.99
1/1/2022 5:00:00 AM -99999.99 -179968 -99999.99 -99999.99 -99999.99 -99999.99
1/1/2022 5:15:00 AM -99999.99 -179968 -99999.99 -99999.99 -99999.99 -99999.99
1/1/2022 5:30:00 AM -99999.99 -179968 -99999.99 -99999.99 -99999.99 -99999.99
1/1/2022 5:45:00 AM -99999.99 -179968 -99999.99 -99999.99 -99999.99 -99999.99
1/1/2022 6:00:00 AM -99999.99 -179968 -99999.99 -99999.99 -99999.99 -99999.99
1/1/2022 6:15:00 AM -99999.99 -179968 -99999.99 -99999.99 -99999.99 -99999.99
1/1/2022 6:30:00 AM -99999.99 -179968 -99999.99 -99999.99 -99999.99 -99999.99
1/1/2022 6:45:00 AM -99999.99 -179968 -99999.99 -99999.99 -99999.99 -99999.99
1/1/2022 7:00:00 AM -99999.99 -179968 -99999.99 -99999.99 -99999.99 -99999.99
1/1/2022 7:15:00 AM -99999.99 -179968 -99999.99 -99999.99 -99999.99 -99999.99
1/1/2022 7:30:00 AM -99999.99 -179968 -99999.99 -99999.99 -99999.99 -99999.99
1/1/2022 7:45:00 AM -99999.99 -179968 -99999.99 -99999.99 -99999.99 -99999.99
1/1/2022 8:00:00 AM -99999.99 -179968 -99999.99 -99999.99 -99999.99 -99999.99
1/1/2022 8:15:00 AM -99999.99 -179968 -99999.99 -99999.99 -99999.99 -99999.99
1/1/2022 8:30:00 AM -99999.99 -179968 -99999.99 -99999.99 -99999.99 -99999.99
1/1/2022 8:45:00 AM -99999.99 -179968 -99999.99 -99999.99 -99999.99 -99999.99
1/1/2022 9:00:00 AM -99999.99 -179968 -99999.99 -99999.99 -99999.99 -99999.99
1/1/2022 9:15:00 AM -99999.99 -179968 -99999.99 -99999.99 -99999.99 -99999.99
1/1/2022 9:30:00 AM -99999.99 -179968 -99999.99 -99999.99 -99999.99 -99999.99
1/1/2022 9:45:00 AM -99999.99 -179968 -99999.99 -99999.99 -99999.99 -99999.99
1/1/2022 10:00:00 AM -99999.99 -179968 -99999.99 -99999.99 -99999.99 -99999.99
1/1/2022 10:15:00 AM -99999.99 -179968 -99999.99 -99999.99 -99999.99 -99999.99
1/1/2022 10:30:00 AM -99999.99 -179968 -99999.99 -99999.99 -99999.99 -99999.99
1/1/2022 10:45:00 AM -99999.99 -179968 -99999.99 -99999.99 -99999.99 -99999.99
1/1/2022 11:00:00 AM -99999.99 -179968 -99999.99 -99999.99 -99999.99 -99999.99
1/1/2022 11:15:00 AM -99999.99 -179968 -99999.99 -99999.99 -99999.99 -99999.99
1/1/2022 11:30:00 AM -99999.99 -179968 -99999.99 -99999.99 -99999.99 -99999.99
1/1/2022 11:45:00 AM -99999.99 -179968 -99999.99 -99999.99 -99999.99 -99999.99
1/1/2022 12:00:00 PM -99999.99 -179968 -99999.99 -99999.99 -99999.99 -99999.99
1/1/2022 12:15:00 PM -99999.99 -179968 -99999.99 -99999.99 -99999.99 -99999.99
1/1/2022 12:30:00 PM -99999.99 -179968 -99999.99 -99999.99 -99999.99 -99999.99
1/1/2022 12:45:00 PM -99999.99 -179968 -99999.99 -99999.99 -99999.99 -99999.99
1/1/2022 1:00:00 PM -99999.99 -179968 -99999.99 -99999.99 -99999.99 -99999.99
1/1/2022 1:15:00 PM -99999.99 -179968 -99999.99 -99999.99 -99999.99 -99999.99
1/1/2022 1:30:00 PM -99999.99 -179968 -99999.99 -99999.99 -99999.99 -99999.99
1/1/2022 1:45:00 PM 5.75 42.35 0.228 8.05 2.56 13.05
1/1/2022 2:00:00 PM 5.81 42.458 0.228 8.15 2.42 13.19
1/1/2022 2:15:00 PM 5.88 42.584 0.228 8.24 2.65 13.27
1/1/2022 2:30:00 PM 5.94 42.692 0.228 8.22 2.59 13.27
1/1/2022 2:45:00 PM 6 42.8 0.228 8.31 2.58 13.24
1/1/2022 3:00:00 PM 6.04 42.872 0.228 8.3 2.39 13.16
1/1/2022 3:15:00 PM -99999.99 -179968 -99999.99 -99999.99 -99999.99 -99999.99
1/1/2022 3:30:00 PM -99999.99 -179968 -99999.99 -99999.99 -99999.99 -99999.99
1/1/2022 3:45:00 PM -99999.99 -179968 -99999.99 -99999.99 -99999.99 -99999.99
1/1/2022 4:00:00 PM -99999.99 -179968 -99999.99 -99999.99 -99999.99 -99999.99
1/1/2022 4:15:00 PM -99999.99 -179968 -99999.99 -99999.99 -99999.99 -99999.99
1/1/2022 4:30:00 PM -99999.99 -179968 -99999.99 -99999.99 -99999.99 -99999.99
1/1/2022 4:45:00 PM -99999.99 -179968 -99999.99 -99999.99 -99999.99 -99999.99
1/1/2022 5:00:00 PM -99999.99 -179968 -99999.99 -99999.99 -99999.99 -99999.99
1/1/2022 5:15:00 PM -99999.99 -179968 -99999.99 -99999.99 -99999.99 -99999.99
1/1/2022 5:30:00 PM -99999.99 -179968 -99999.99 -99999.99 -99999.99 -99999.99
1/1/2022 5:45:00 PM -99999.99 -179968 -99999.99 -99999.99 -99999.99 -99999.99
1/1/2022 6:00:00 PM -99999.99 -179968 -99999.99 -99999.99 -99999.99 -99999.99
1/1/2022 6:15:00 PM -99999.99 -179968 -99999.99 -99999.99 -99999.99 -99999.99
1/1/2022 6:30:00 PM -99999.99 -179968 -99999.99 -99999.99 -99999.99 -99999.99
1/1/2022 6:45:00 PM -99999.99 -179968 -99999.99 -99999.99 -99999.99 -99999.99
1/1/2022 7:00:00 PM -99999.99 -179968 -99999.99 -99999.99 -99999.99 -99999.99
1/1/2022 7:15:00 PM -99999.99 -179968 -99999.99 -99999.99 -99999.99 -99999.99
1/1/2022 7:30:00 PM -99999.99 -179968 -99999.99 -99999.99 -99999.99 -99999.99
1/1/2022 7:45:00 PM -99999.99 -179968 -99999.99 -99999.99 -99999.99 -99999.99
1/1/2022 8:00:00 PM -99999.99 -179968 -99999.99 -99999.99 -99999.99 -99999.99
1/1/2022 8:15:00 PM -99999.99 -179968 -99999.99 -99999.99 -99999.99 -99999.99
1/1/2022 8:30:00 PM -99999.99 -179968 -99999.99 -99999.99 -99999.99 -99999.99
1/1/2022 8:45:00 PM -99999.99 -179968 -99999.99 -99999.99 -99999.99 -99999.99
1/1/2022 9:00:00 PM -99999.99 -179968 -99999.99 -99999.99 -99999.99 -99999.99
1/1/2022 9:15:00 PM -99999.99 -179968 -99999.99 -99999.99 -99999.99 -99999.99
1/1/2022 9:30:00 PM -99999.99 -179968 -99999.99 -99999.99 -99999.99 -99999.99
1/1/2022 9:45:00 PM -99999.99 -179968 -99999.99 -99999.99 -99999.99 -99999.99
1/1/2022 10:00:00 PM -99999.99 -179968 -99999.99 -99999.99 -99999.99 -99999.99
1/1/2022 10:15:00 PM -99999.99 -179968 -99999.99 -99999.99 -99999.99 -99999.99
1/1/2022 10:30:00 PM -99999.99 -179968 -99999.99 -99999.99 -99999.99 -99999.99
1/1/2022 10:45:00 PM -99999.99 -179968 -99999.99 -99999.99 -99999.99 -99999.99
1/1/2022 11:00:00 PM -99999.99 -179968 -99999.99 -99999.99 -99999.99 -99999.99
1/1/2022 11:15:00 PM -99999.99 -179968 -99999.99 -99999.99 -99999.99 -99999.99
1/1/2022 11:30:00 PM -99999.99 -179968 -99999.99 -99999.99 -99999.99 -99999.99
1/1/2022 11:45:00 PM -99999.99 -179968 -99999.99 -99999.99 -99999.99 -99999.99
1/2/2022 12:00:00 AM -99999.99 -179968 -99999.99 -99999.99 -99999.99 -99999.99
1/2/2022 12:15:00 AM -99999.99 -179968 -99999.99 -99999.99 -99999.99 -99999.99
1/2/2022 12:30:00 AM -99999.99 -179968 -99999.99 -99999.99 -99999.99 -99999.99
1/2/2022 12:45:00 AM -99999.99 -179968 -99999.99 -99999.99 -99999.99 -99999.99
1/2/2022 1:00:00 AM -99999.99 -179968 -99999.99 -99999.99 -99999.99 -99999.99
1/2/2022 1:15:00 AM -99999.99 -179968 -99999.99 -99999.99 -99999.99 -99999.99
1/2/2022 1:30:00 AM -99999.99 -179968 -99999.99 -99999.99 -99999.99 -99999.99
1/2/2022 1:45:00 AM -99999.99 -179968 -99999.99 -99999.99 -99999.99 -99999.99
1/2/2022 2:00:00 AM -99999.99 -179968 -99999.99 -99999.99 -99999.99 -99999.99
1/2/2022 2:15:00 AM -99999.99 -179968 -99999.99 -99999.99 -99999.99 -99999.99
1/2/2022 2:30:00 AM -99999.99 -179968 -99999.99 -99999.99 -99999.99 -99999.99
1/2/2022 2:45:00 AM -99999.99 -179968 -99999.99 -99999.99 -99999.99 -99999.99
1/2/2022 3:00:00 AM -99999.99 -179968 -99999.99 -99999.99 -99999.99 -99999.99
1/2/2022 3:15:00 AM -99999.99 -179968 -99999.99 -99999.99 -99999.99 -99999.99
1/2/2022 3:30:00 AM -99999.99 -179968 -99999.99 -99999.99 -99999.99 -99999.99
1/2/2022 3:45:00 AM -99999.99 -179968 -99999.99 -99999.99 -99999.99 -99999.99
1/2/2022 4:00:00 AM -99999.99 -179968 -99999.99 -99999.99 -99999.99 -99999.99
1/2/2022 4:15:00 AM -99999.99 -179968 -99999.99 -99999.99 -99999.99 -99999.99
1/2/2022 4:30:00 AM -99999.99 -179968 -99999.99 -99999.99 -99999.99 -99999.99
1/2/2022 4:45:00 AM -99999.99 -179968 -99999.99 -99999.99 -99999.99 -99999.99
1/2/2022 5:00:00 AM -99999.99 -179968 -99999.99 -99999.99 -99999.99 -99999.99
1/2/2022 5:15:00 AM -99999.99 -179968 -99999.99 -99999.99 -99999.99 -99999.99
1/2/2022 5:30:00 AM -99999.99 -179968 -99999.99 -99999.99 -99999.99 -99999.99
1/2/2022 5:45:00 AM -99999.99 -179968 -99999.99 -99999.99 -99999.99 -99999.99
1/2/2022 6:00:00 AM -99999.99 -179968 -99999.99 -99999.99 -99999.99 -99999.99
1/2/2022 6:15:00 AM -99999.99 -179968 -99999.99 -99999.99 -99999.99 -99999.99
1/2/2022 6:30:00 AM -99999.99 -179968 -99999.99 -99999.99 -99999.99 -99999.99
1/2/2022 6:45:00 AM -99999.99 -179968 -99999.99 -99999.99 -99999.99 -99999.99
1/2/2022 7:00:00 AM -99999.99 -179968 -99999.99 -99999.99 -99999.99 -99999.99
1/2/2022 7:15:00 AM -99999.99 -179968 -99999.99 -99999.99 -99999.99 -99999.99
1/2/2022 7:30:00 AM -99999.99 -179968 -99999.99 -99999.99 -99999.99 -99999.99
1/2/2022 7:45:00 AM -99999.99 -179968 -99999.99 -99999.99 -99999.99 -99999.99
1/2/2022 8:00:00 AM -99999.99 -179968 -99999.99 -99999.99 -99999.99 -99999.99
1/2/2022 8:15:00 AM -99999.99 -179968 -99999.99 -99999.99 -99999.99 -99999.99
1/2/2022 8:30:00 AM -99999.99 -179968 -99999.99 -99999.99 -99999.99 -99999.99
1/2/2022 8:45:00 AM -99999.99 -179968 -99999.99 -99999.99 -99999.99 -99999.99
1/2/2022 9:00:00 AM -99999.99 -179968 -99999.99 -99999.99 -99999.99 -99999.99
1/2/2022 9:15:00 AM -99999.99 -179968 -99999.99 -99999.99 -99999.99 -99999.99
1/2/2022 9:30:00 AM -99999.99 -179968 -99999.99 -99999.99 -99999.99 -99999.99
1/2/2022 9:45:00 AM -99999.99 -179968 -99999.99 -99999.99 -99999.99 -99999.99
1/2/2022 10:00:00 AM -99999.99 -179968 -99999.99 -99999.99 -99999.99 -99999.99
1/2/2022 10:15:00 AM -99999.99 -179968 -99999.99 -99999.99 -99999.99 -99999.99
1/2/2022 10:30:00 AM -99999.99 -179968 -99999.99 -99999.99 -99999.99 -99999.99
1/2/2022 10:45:00 AM -99999.99 -179968 -99999.99 -99999.99 -99999.99 -99999.99
1/2/2022 11:00:00 AM 5.02 41.036 0.242 7.66 3.81 12.38
1/2/2022 11:15:00 AM -99999.99 -179968 -99999.99 -99999.99 -99999.99 -99999.99
1/2/2022 11:30:00 AM -99999.99 -179968 -99999.99 -99999.99 -99999.99 -99999.99
1/2/2022 11:45:00 AM -99999.99 -179968 -99999.99 -99999.99 -99999.99 -99999.99
1/2/2022 12:00:00 PM -99999.99 -179968 -99999.99 -99999.99 -99999.99 -99999.99
1/2/2022 12:15:00 PM -99999.99 -179968 -99999.99 -99999.99 -99999.99 -99999.99
1/2/2022 12:30:00 PM -99999.99 -179968 -99999.99 -99999.99 -99999.99 -99999.99
1/2/2022 12:45:00 PM -99999.99 -179968 -99999.99 -99999.99 -99999.99 -99999.99
1/2/2022 1:00:00 PM 4.84 40.712 0.24 7.8 3.59 12.69
1/2/2022 1:15:00 PM 4.83 40.694 0.239 7.82 3.41 12.82
1/2/2022 1:30:00 PM -99999.99 -179968 -99999.99 -99999.99 -99999.99 -99999.99
1/2/2022 1:45:00 PM -99999.99 -179968 -99999.99 -99999.99 -99999.99 -99999.99
1/2/2022 2:00:00 PM -99999.99 -179968 -99999.99 -99999.99 -99999.99 -99999.99
1/2/2022 2:15:00 PM -99999.99 -179968 -99999.99 -99999.99 -99999.99 -99999.99
1/2/2022 2:30:00 PM -99999.99 -179968 -99999.99 -99999.99 -99999.99 -99999.99
1/2/2022 2:45:00 PM -99999.99 -179968 -99999.99 -99999.99 -99999.99 -99999.99
1/2/2022 3:00:00 PM -99999.99 -179968 -99999.99 -99999.99 -99999.99 -99999.99
1/2/2022 3:15:00 PM -99999.99 -179968 -99999.99 -99999.99 -99999.99 -99999.99
1/2/2022 3:30:00 PM -99999.99 -179968 -99999.99 -99999.99 -99999.99 -99999.99
1/2/2022 3:45:00 PM -99999.99 -179968 -99999.99 -99999.99 -99999.99 -99999.99
1/2/2022 4:00:00 PM -99999.99 -179968 -99999.99 -99999.99 -99999.99 -99999.99
1/2/2022 4:15:00 PM -99999.99 -179968 -99999.99 -99999.99 -99999.99 -99999.99
1/2/2022 4:30:00 PM -99999.99 -179968 -99999.99 -99999.99 -99999.99 -99999.99
1/2/2022 4:45:00 PM -99999.99 -179968 -99999.99 -99999.99 -99999.99 -99999.99
1/2/2022 5:00:00 PM -99999.99 -179968 -99999.99 -99999.99 -99999.99 -99999.99
1/2/2022 5:15:00 PM -99999.99 -179968 -99999.99 -99999.99 -99999.99 -99999.99
1/2/2022 5:30:00 PM -99999.99 -179968 -99999.99 -99999.99 -99999.99 -99999.99
1/2/2022 5:45:00 PM -99999.99 -179968 -99999.99 -99999.99 -99999.99 -99999.99
1/2/2022 6:00:00 PM -99999.99 -179968 -99999.99 -99999.99 -99999.99 -99999.99
1/2/2022 6:15:00 PM -99999.99 -179968 -99999.99 -99999.99 -99999.99 -99999.99
1/2/2022 6:30:00 PM -99999.99 -179968 -99999.99 -99999.99 -99999.99 -99999.99
1/2/2022 6:45:00 PM -99999.99 -179968 -99999.99 -99999.99 -99999.99 -99999.99
1/2/2022 7:00:00 PM -99999.99 -179968 -99999.99 -99999.99 -99999.99 -99999.99
1/2/2022 7:15:00 PM -99999.99 -179968 -99999.99 -99999.99 -99999.99 -99999.99
1/2/2022 7:30:00 PM -99999.99 -179968 -99999.99 -99999.99 -99999.99 -99999.99
1/2/2022 7:45:00 PM -99999.99 -179968 -99999.99 -99999.99 -99999.99 -99999.99
1/2/2022 8:00:00 PM -99999.99 -179968 -99999.99 -99999.99 -99999.99 -99999.99
1/2/2022 8:15:00 PM -99999.99 -179968 -99999.99 -99999.99 -99999.99 -99999.99
1/2/2022 8:30:00 PM -99999.99 -179968 -99999.99 -99999.99 -99999.99 -99999.99
1/2/2022 8:45:00 PM -99999.99 -179968 -99999.99 -99999.99 -99999.99 -99999.99
1/2/2022 9:00:00 PM -99999.99 -179968 -99999.99 -99999.99 -99999.99 -99999.99
1/2/2022 9:15:00 PM -99999.99 -179968 -99999.99 -99999.99 -99999.99 -99999.99
1/2/2022 9:30:00 PM -99999.99 -179968 -99999.99 -99999.99 -99999.99 -99999.99
1/2/2022 9:45:00 PM -99999.99 -179968 -99999.99 -99999.99 -99999.99 -99999.99
1/2/2022 10:00:00 PM -99999.99 -179968 -99999.99 -99999.99 -99999.99 -99999.99
1/2/2022 10:15:00 PM -99999.99 -179968 -99999.99 -99999.99 -99999.99 -99999.99
1/2/2022 10:30:00 PM -99999.99 -179968 -99999.99 -99999.99 -99999.99 -99999.99
1/2/2022 10:45:00 PM -99999.99 -179968 -99999.99 -99999.99 -99999.99 -99999.99
1/2/2022 11:00:00 PM -99999.99 -179968 -99999.99 -99999.99 -99999.99 -99999.99
1/2/2022 11:15:00 PM -99999.99 -179968 -99999.99 -99999.99 -99999.99 -99999.99
1/2/2022 11:30:00 PM -99999.99 -179968 -99999.99 -99999.99 -99999.99 -99999.99
1/2/2022 11:45:00 PM -99999.99 -179968 -99999.99 -99999.99 -99999.99 -99999.99
1/3/2022 12:00:00 AM -99999.99 -179968 -99999.99 -99999.99 -99999.99 -99999.99
1/3/2022 12:15:00 AM -99999.99 -179968 -99999.99 -99999.99 -99999.99 -99999.99
1/3/2022 12:30:00 AM -99999.99 -179968 -99999.99 -99999.99 -99999.99 -99999.99
1/3/2022 12:45:00 AM -99999.99 -179968 -99999.99 -99999.99 -99999.99 -99999.99
1/3/2022 1:00:00 AM -99999.99 -179968 -99999.99 -99999.99 -99999.99 -99999.99
1/3/2022 1:15:00 AM -99999.99 -179968 -99999.99 -99999.99 -99999.99 -99999.99
1/3/2022 1:30:00 AM -99999.99 -179968 -99999.99 -99999.99 -99999.99 -99999.99
1/3/2022 1:45:00 AM -99999.99 -179968 -99999.99 -99999.99 -99999.99 -99999.99
1/3/2022 2:00:00 AM -99999.99 -179968 -99999.99 -99999.99 -99999.99 -99999.99
1/3/2022 2:15:00 AM -99999.99 -179968 -99999.99 -99999.99 -99999.99 -99999.99
1/3/2022 2:30:00 AM -99999.99 -179968 -99999.99 -99999.99 -99999.99 -99999.99
1/3/2022 2:45:00 AM -99999.99 -179968 -99999.99 -99999.99 -99999.99 -99999.99
1/3/2022 3:00:00 AM -99999.99 -179968 -99999.99 -99999.99 -99999.99 -99999.99
1/3/2022 3:15:00 AM -99999.99 -179968 -99999.99 -99999.99 -99999.99 -99999.99
1/3/2022 3:30:00 AM -99999.99 -179968 -99999.99 -99999.99 -99999.99 -99999.99
1/3/2022 3:45:00 AM -99999.99 -179968 -99999.99 -99999.99 -99999.99 -99999.99
1/3/2022 4:00:00 AM -99999.99 -179968 -99999.99 -99999.99 -99999.99 -99999.99
1/3/2022 4:15:00 AM -99999.99 -179968 -99999.99 -99999.99 -99999.99 -99999.99
1/3/2022 4:30:00 AM -99999.99 -179968 -99999.99 -99999.99 -99999.99 -99999.99
1/3/2022 4:45:00 AM -99999.99 -179968 -99999.99 -99999.99 -99999.99 -99999.99
1/3/2022 5:00:00 AM -99999.99 -179968 -99999.99 -99999.99 -99999.99 -99999.99
1/3/2022 5:15:00 AM -99999.99 -179968 -99999.99 -99999.99 -99999.99 -99999.99
1/3/2022 5:30:00 AM -99999.99 -179968 -99999.99 -99999.99 -99999.99 -99999.99
1/3/2022 5:45:00 AM -99999.99 -179968 -99999.99 -99999.99 -99999.99 -99999.99
1/3/2022 6:00:00 AM -99999.99 -179968 -99999.99 -99999.99 -99999.99 -99999.99
1/3/2022 6:15:00 AM -99999.99 -179968 -99999.99 -99999.99 -99999.99 -99999.99
1/3/2022 6:30:00 AM -99999.99 -179968 -99999.99 -99999.99 -99999.99 -99999.99
1/3/2022 6:45:00 AM -99999.99 -179968 -99999.99 -99999.99 -99999.99 -99999.99
1/3/2022 7:00:00 AM -99999.99 -179968 -99999.99 -99999.99 -99999.99 -99999.99
1/3/2022 7:15:00 AM -99999.99 -179968 -99999.99 -99999.99 -99999.99 -99999.99
1/3/2022 7:30:00 AM -99999.99 -179968 -99999.99 -99999.99 -99999.99 -99999.99
1/3/2022 7:45:00 AM -99999.99 -179968 -99999.99 -99999.99 -99999.99 -99999.99
1/3/2022 8:00:00 AM -99999.99 -179968 -99999.99 -99999.99 -99999.99 -99999.99
1/3/2022 8:15:00 AM -99999.99 -179968 -99999.99 -99999.99 -99999.99 -99999.99
1/3/2022 8:30:00 AM -99999.99 -179968 -99999.99 -99999.99 -99999.99 -99999.99
1/3/2022 8:45:00 AM -99999.99 -179968 -99999.99 -99999.99 -99999.99 -99999.99
1/3/2022 9:00:00 AM -99999.99 -179968 -99999.99 -99999.99 -99999.99 -99999.99
1/3/2022 9:15:00 AM -99999.99 -179968 -99999.99 -99999.99 -99999.99 -99999.99
1/3/2022 9:30:00 AM -99999.99 -179968 -99999.99 -99999.99 -99999.99 -99999.99
1/3/2022 9:45:00 AM -99999.99 -179968 -99999.99 -99999.99 -99999.99 -99999.99
1/3/2022 10:00:00 AM -99999.99 -179968 -99999.99 -99999.99 -99999.99 -99999.99
1/3/2022 10:15:00 AM -99999.99 -179968 -99999.99 -99999.99 -99999.99 -99999.99
1/3/2022 10:30:00 AM -99999.99 -179968 -99999.99 -99999.99 -99999.99 -99999.99
1/3/2022 10:45:00 AM -99999.99 -179968 -99999.99 -99999.99 -99999.99 -99999.99
1/3/2022 11:00:00 AM -99999.99 -179968 -99999.99 -99999.99 -99999.99 -99999.99
1/3/2022 11:15:00 AM 2.21 35.978 0.231 7.8 3.14 13.89
1/3/2022 11:30:00 AM 2.22 35.996 0.231 7.84 3.04 13.98
1/3/2022 11:45:00 AM 2.22 35.996 0.231 7.88 3.06 14.06
1/3/2022 12:00:00 PM 2.23 36.014 0.23 7.92 2.96 14.13
1/3/2022 12:15:00 PM 2.25 36.05 0.23 7.98 3.09 14.21
1/3/2022 12:30:00 PM 2.26 36.068 0.23 8.03 3.03 14.3
1/3/2022 12:45:00 PM 2.27 36.086 0.23 8.08 3.01 14.36
1/3/2022 1:00:00 PM 2.29 36.122 0.23 8.12 2.95 14.38
1/3/2022 1:15:00 PM 2.3 36.14 0.23 8.15 2.92 14.41
1/3/2022 1:30:00 PM 2.32 36.176 0.23 8.17 2.91 14.4
1/3/2022 1:45:00 PM 2.32 36.176 0.229 8.18 2.93 14.39
1/3/2022 2:00:00 PM 2.32 36.176 0.229 8.2 2.96 14.38
1/3/2022 2:15:00 PM 2.32 36.176 0.229 8.21 2.97 14.39
1/3/2022 2:30:00 PM 2.32 36.176 0.229 8.22 3 14.39
1/3/2022 2:45:00 PM 2.32 36.176 0.23 8.23 2.91 14.39
1/3/2022 3:00:00 PM 2.31 36.158 0.23 8.23 2.93 14.37
1/3/2022 3:15:00 PM 2.31 36.158 0.23 8.22 3.16 14.32
1/3/2022 3:30:00 PM 2.29 36.122 0.23 8.19 2.98 14.27
1/3/2022 3:45:00 PM 2.26 36.068 0.23 8.14 3.06 14.18
1/3/2022 4:00:00 PM 2.23 36.014 0.23 8.08 2.93 14.09
1/3/2022 4:15:00 PM 2.2 35.96 0.231 8.01 2.95 13.98
1/3/2022 4:30:00 PM 2.15 35.87 0.231 7.94 2.89 13.84
1/3/2022 4:45:00 PM 2.1 35.78 0.231 7.86 3.07 13.7
1/3/2022 5:00:00 PM 2.04 35.672 0.231 7.8 2.98 13.57
1/3/2022 5:15:00 PM 1.99 35.582 0.231 7.74 2.86 13.45
1/3/2022 5:30:00 PM 1.92 35.456 0.232 7.7 2.96 13.36
1/3/2022 5:45:00 PM 1.87 35.366 0.232 7.67 2.98 13.29
1/3/2022 6:00:00 PM 1.81 35.258 0.232 7.64 2.92 13.25
1/3/2022 6:15:00 PM 1.73 35.114 0.232 7.62 3.08 13.23
1/3/2022 6:30:00 PM 1.68 35.024 0.232 7.6 2.96 13.21
1/3/2022 6:45:00 PM 1.6 34.88 0.232 7.59 2.99 13.21
1/3/2022 7:00:00 PM 1.52 34.736 0.232 7.58 2.98 13.21
1/3/2022 7:15:00 PM 1.46 34.628 0.232 7.57 2.91 13.21
1/3/2022 7:30:00 PM 1.39 34.502 0.233 7.56 2.93 13.22
1/3/2022 7:45:00 PM 1.34 34.412 0.233 7.55 2.92 13.23
1/3/2022 8:00:00 PM 1.28 34.304 0.233 7.55 2.98 13.25
1/3/2022 8:15:00 PM 1.22 34.196 0.233 7.54 2.91 13.26
1/3/2022 8:30:00 PM 1.18 34.124 0.234 7.54 2.95 13.28
1/3/2022 8:45:00 PM 1.13 34.034 0.234 7.54 2.89 13.3
1/3/2022 9:00:00 PM 1.08 33.944 0.234 7.53 2.86 13.32
1/3/2022 9:15:00 PM 1.04 33.872 0.234 7.53 2.96 13.33
1/3/2022 9:30:00 PM 1 33.8 0.234 7.53 2.88 13.35
1/3/2022 9:45:00 PM 0.96 33.728 0.234 7.53 2.83 13.37
1/3/2022 10:00:00 PM 0.93 33.674 0.234 7.53 2.91 13.39
1/3/2022 10:15:00 PM 0.89 33.602 0.234 7.52 2.88 13.41
1/3/2022 10:30:00 PM 0.86 33.548 0.234 7.52 2.83 13.42
1/3/2022 10:45:00 PM 0.83 33.494 0.234 7.52 2.83 13.44
1/3/2022 11:00:00 PM 0.81 33.458 0.234 7.52 2.93 13.45
1/3/2022 11:15:00 PM 0.78 33.404 0.234 7.52 2.9 13.46
1/3/2022 11:30:00 PM 0.76 33.368 0.234 7.52 2.92 13.47
1/3/2022 11:45:00 PM 0.74 33.332 0.234 7.52 2.89 13.49
1/4/2022 12:00:00 AM 0.71 33.278 0.234 7.52 2.87 13.5
1/4/2022 12:15:00 AM 0.69 33.242 0.234 7.52 2.98 13.51
1/4/2022 12:30:00 AM 0.69 33.242 0.234 7.52 2.89 13.51
1/4/2022 12:45:00 AM 0.69 33.242 0.233 7.51 2.83 13.52
1/4/2022 1:00:00 AM 0.69 33.242 0.232 7.51 2.93 13.52
1/4/2022 1:15:00 AM 0.68 33.224 0.232 7.51 2.92 13.53
1/4/2022 1:30:00 AM 0.67 33.206 0.232 7.51 2.89 13.53
1/4/2022 1:45:00 AM 0.66 33.188 0.231 7.51 2.89 13.53
1/4/2022 2:00:00 AM 0.64 33.152 0.231 7.51 2.91 13.53
1/4/2022 2:15:00 AM 0.63 33.134 0.231 7.51 2.86 13.54
1/4/2022 2:30:00 AM 0.62 33.116 0.231 7.51 2.85 13.54
1/4/2022 2:45:00 AM 0.62 33.116 0.23 7.51 2.88 13.54
1/4/2022 3:00:00 AM 0.62 33.116 0.23 7.5 2.87 13.54
1/4/2022 3:15:00 AM 0.61 33.098 0.23 7.5 2.91 13.54
1/4/2022 3:30:00 AM 0.61 33.098 0.23 7.51 2.83 13.55
1/4/2022 3:45:00 AM 0.61 33.098 0.229 7.5 2.91 13.54
1/4/2022 4:00:00 AM 0.61 33.098 0.229 7.5 2.83 13.54
1/4/2022 4:15:00 AM 0.6 33.08 0.228 7.5 2.86 13.54
1/4/2022 4:30:00 AM 0.6 33.08 0.228 7.5 2.89 13.54
1/4/2022 4:45:00 AM 0.6 33.08 0.228 7.5 2.9 13.54
1/4/2022 5:00:00 AM 0.6 33.08 0.228 7.5 2.9 13.55
1/4/2022 5:15:00 AM 0.6 33.08 0.228 7.5 2.87 13.54
1/4/2022 5:30:00 AM 0.6 33.08 0.227 7.5 2.84 13.54
1/4/2022 5:45:00 AM 0.62 33.116 0.227 7.5 2.87 13.55
1/4/2022 6:00:00 AM 0.63 33.134 0.228 7.5 2.78 13.55
1/4/2022 6:15:00 AM 0.64 33.152 0.228 7.49 2.84 13.55
1/4/2022 6:30:00 AM 0.66 33.188 0.228 7.49 2.87 13.54
1/4/2022 6:45:00 AM 0.67 33.206 0.228 7.49 2.86 13.54
1/4/2022 7:00:00 AM 0.67 33.206 0.228 7.49 2.91 13.54
1/4/2022 7:15:00 AM 0.67 33.206 0.229 7.49 2.85 13.53
1/4/2022 7:30:00 AM 0.67 33.206 0.229 7.49 2.83 13.54
1/4/2022 7:45:00 AM 0.69 33.242 0.23 7.5 2.75 13.58
1/4/2022 8:00:00 AM 0.7 33.26 0.23 7.51 2.85 13.63
1/4/2022 8:15:00 AM 0.73 33.314 0.23 7.53 2.75 13.71
1/4/2022 8:30:00 AM 0.72 33.296 0.23 7.56 2.77 13.82
1/4/2022 8:45:00 AM 0.72 33.296 0.23 7.58 2.83 13.9
1/4/2022 9:00:00 AM 0.73 33.314 0.231 7.6 2.84 14
1/4/2022 9:15:00 AM 0.74 33.332 0.231 7.63 2.8 14.11
1/4/2022 9:30:00 AM 0.77 33.386 0.232 7.66 2.81 14.2
1/4/2022 9:45:00 AM 0.79 33.422 0.232 7.69 2.77 14.29
1/4/2022 10:00:00 AM 0.83 33.494 0.233 7.72 2.78 14.36
1/4/2022 10:15:00 AM 0.87 33.566 0.233 7.75 2.81 14.43
1/4/2022 10:30:00 AM 0.9 33.62 0.234 7.78 2.77 14.49
1/4/2022 10:45:00 AM 0.94 33.692 0.235 7.81 2.79 14.55
1/4/2022 11:00:00 AM 0.98 33.764 0.237 7.84 2.75 14.6
1/4/2022 11:15:00 AM 1.02 33.836 0.238 7.87 2.8 14.64
1/4/2022 11:30:00 AM 1.05 33.89 0.24 7.9 2.74 14.7
1/4/2022 11:45:00 AM 1.09 33.962 0.243 7.93 2.78 14.74
1/4/2022 12:00:00 PM 1.13 34.034 0.245 7.96 2.83 14.77
1/4/2022 12:15:00 PM 1.18 34.124 0.246 8 2.83 14.81
1/4/2022 12:30:00 PM 1.23 34.214 0.246 8.03 2.89 14.84
1/4/2022 12:45:00 PM 1.29 34.322 0.246 8.05 2.77 14.83
1/4/2022 1:00:00 PM 1.36 34.448 0.244 8.07 2.89 14.81
1/4/2022 1:15:00 PM 1.46 34.628 0.241 8.08 2.83 14.77
1/4/2022 1:30:00 PM 1.54 34.772 0.239 8.1 2.76 14.73
1/4/2022 1:45:00 PM 1.6 34.88 0.236 8.1 2.83 14.69
1/4/2022 2:00:00 PM 1.64 34.952 0.235 8.1 2.72 14.65
1/4/2022 2:15:00 PM 1.67 35.006 0.234 8.09 2.83 14.6
1/4/2022 2:30:00 PM 1.71 35.078 0.233 8.08 2.74 14.54
1/4/2022 2:45:00 PM 1.74 35.132 0.233 8.06 2.79 14.47
1/4/2022 3:00:00 PM 1.77 35.186 0.233 8.03 2.66 14.4
1/4/2022 3:15:00 PM 1.8 35.24 0.233 8.01 2.69 14.32
1/4/2022 3:30:00 PM 1.83 35.294 0.233 7.98 2.81 14.25
1/4/2022 3:45:00 PM 1.84 35.312 0.233 7.95 2.78 14.18
1/4/2022 4:00:00 PM 1.86 35.348 0.233 7.92 2.69 14.08
1/4/2022 4:15:00 PM 1.87 35.366 0.233 7.87 2.71 13.97
1/4/2022 4:30:00 PM 1.87 35.366 0.234 7.82 2.7 13.84
1/4/2022 4:45:00 PM 1.87 35.366 0.234 7.76 2.75 13.7
1/4/2022 5:00:00 PM 1.85 35.33 0.234 7.71 2.71 13.57
1/4/2022 5:15:00 PM 1.83 35.294 0.234 7.67 2.73 13.45
1/4/2022 5:30:00 PM 1.81 35.258 0.234 7.64 2.78 13.37
1/4/2022 5:45:00 PM 1.79 35.222 0.234 7.61 2.8 13.3
1/4/2022 6:00:00 PM 1.76 35.168 0.235 7.59 2.72 13.25
1/4/2022 6:15:00 PM 1.74 35.132 0.235 7.58 2.85 13.22
1/4/2022 6:30:00 PM 1.72 35.096 0.235 7.57 2.76 13.2
1/4/2022 6:45:00 PM 1.69 35.042 0.235 7.55 2.77 13.18
1/4/2022 7:00:00 PM 1.66 34.988 0.235 7.55 2.71 13.17
1/4/2022 7:15:00 PM 1.64 34.952 0.235 7.54 2.86 13.16
1/4/2022 7:30:00 PM 1.61 34.898 0.235 7.53 2.76 13.15
1/4/2022 7:45:00 PM 1.58 34.844 0.235 7.53 2.73 13.15
1/4/2022 8:00:00 PM 1.56 34.808 0.236 7.52 2.73 13.15
1/4/2022 8:15:00 PM 1.53 34.754 0.236 7.52 2.82 13.15
1/4/2022 8:30:00 PM 1.52 34.736 0.236 7.52 2.79 13.15
1/4/2022 8:45:00 PM 1.5 34.7 0.236 7.51 2.76 13.16
1/4/2022 9:00:00 PM 1.47 34.646 0.236 7.51 2.75 13.16
1/4/2022 9:15:00 PM 1.45 34.61 0.236 7.51 2.69 13.16
1/4/2022 9:30:00 PM 1.43 34.574 0.236 7.51 2.75 13.16
1/4/2022 9:45:00 PM 1.41 34.538 0.236 7.51 2.78 13.17
1/4/2022 10:00:00 PM 1.39 34.502 0.236 7.5 2.81 13.18
1/4/2022 10:15:00 PM 1.36 34.448 0.236 7.5 2.77 13.18
1/4/2022 10:30:00 PM 1.34 34.412 0.236 7.5 2.78 13.19
1/4/2022 10:45:00 PM 1.32 34.376 0.237 7.5 2.79 13.19
1/4/2022 11:00:00 PM 1.29 34.322 0.237 7.5 2.74 13.19
1/4/2022 11:15:00 PM 1.27 34.286 0.237 7.5 2.75 13.2
1/4/2022 11:30:00 PM 1.26 34.268 0.237 7.5 2.8 13.21
1/4/2022 11:45:00 PM 1.25 34.25 0.237 7.5 2.73 13.21
1/5/2022 12:00:00 AM 1.24 34.232 0.237 7.5 2.68 13.21
1/5/2022 12:15:00 AM 1.22 34.196 0.237 7.5 2.67 13.21
1/5/2022 12:30:00 AM 1.21 34.178 0.237 7.5 2.72 13.22
1/5/2022 12:45:00 AM 1.2 34.16 0.237 7.5 2.69 13.22
1/5/2022 1:00:00 AM 1.19 34.142 0.237 7.5 2.68 13.22
1/5/2022 1:15:00 AM 1.19 34.142 0.237 7.5 2.68 13.23
1/5/2022 1:30:00 AM 1.19 34.142 0.236 7.5 2.72 13.22
1/5/2022 1:45:00 AM 1.19 34.142 0.236 7.5 2.67 13.22
1/5/2022 2:00:00 AM 1.18 34.124 0.236 7.5 2.72 13.22
1/5/2022 2:15:00 AM 1.19 34.142 0.236 7.5 2.7 13.22
1/5/2022 2:30:00 AM 1.2 34.16 0.236 7.5 2.7 13.22
1/5/2022 2:45:00 AM 1.19 34.142 0.236 7.5 2.67 13.22
1/5/2022 3:00:00 AM 1.2 34.16 0.236 7.49 2.76 13.21
1/5/2022 3:15:00 AM 1.2 34.16 0.236 7.5 2.71 13.21
1/5/2022 3:30:00 AM 1.21 34.178 0.236 7.5 2.76 13.21
1/5/2022 3:45:00 AM 1.22 34.196 0.236 7.5 2.7 13.19
1/5/2022 4:00:00 AM 1.23 34.214 0.236 7.5 2.71 13.19
1/5/2022 4:15:00 AM 1.24 34.232 0.236 7.49 2.71 13.18
1/5/2022 4:30:00 AM 1.25 34.25 0.236 7.49 2.76 13.18
1/5/2022 4:45:00 AM 1.26 34.268 0.236 7.5 2.75 13.17
1/5/2022 5:00:00 AM 1.27 34.286 0.236 7.49 2.74 13.16
1/5/2022 5:15:00 AM 1.28 34.304 0.236 7.5 2.68 13.16
1/5/2022 5:30:00 AM 1.28 34.304 0.236 7.5 2.73 13.14
1/5/2022 5:45:00 AM 1.28 34.304 0.236 7.5 2.67 13.14
1/5/2022 6:00:00 AM 1.29 34.322 0.236 7.5 2.67 13.13
1/5/2022 6:15:00 AM 1.29 34.322 0.236 7.5 2.76 13.13
1/5/2022 6:30:00 AM 1.3 34.34 0.236 7.5 2.65 13.13
1/5/2022 6:45:00 AM 1.31 34.358 0.236 7.5 2.72 13.12
1/5/2022 7:00:00 AM 1.31 34.358 0.236 7.5 2.72 13.11
1/5/2022 7:15:00 AM 1.31 34.358 0.236 7.49 2.69 13.11
1/5/2022 7:30:00 AM 1.31 34.358 0.236 7.5 2.65 13.12
1/5/2022 7:45:00 AM 1.31 34.358 0.236 7.5 2.75 13.14
1/5/2022 8:00:00 AM 1.33 34.394 0.236 7.52 2.69 13.21
1/5/2022 8:15:00 AM 1.34 34.412 0.236 7.54 2.69 13.31
1/5/2022 8:30:00 AM 1.36 34.448 0.236 7.57 2.7 13.44
1/5/2022 8:45:00 AM 1.38 34.484 0.236 7.6 2.74 13.56
1/5/2022 9:00:00 AM 1.41 34.538 0.236 7.64 2.67 13.69
1/5/2022 9:15:00 AM 1.45 34.61 0.236 7.69 2.68 13.85
1/5/2022 9:30:00 AM 1.52 34.736 0.236 7.75 2.67 14.02
1/5/2022 9:45:00 AM 1.59 34.862 0.236 7.82 2.74 14.2
1/5/2022 10:00:00 AM 1.67 35.006 0.236 7.89 2.62 14.34
1/5/2022 10:15:00 AM 1.74 35.132 0.235 7.96 2.65 14.44
1/5/2022 10:30:00 AM 1.81 35.258 0.235 8.03 2.69 14.53
1/5/2022 10:45:00 AM 1.87 35.366 0.235 8.08 2.74 14.57
1/5/2022 11:00:00 AM 1.95 35.51 0.235 8.13 2.79 14.61
1/5/2022 11:15:00 AM 2.03 35.654 0.235 8.2 2.74 14.67
1/5/2022 11:30:00 AM 2.13 35.834 0.235 8.26 2.73 14.7
1/5/2022 11:45:00 AM 2.23 36.014 0.235 8.32 2.66 14.72
1/5/2022 12:00:00 PM 2.34 36.212 0.234 8.37 2.76 14.73
1/5/2022 12:15:00 PM 2.42 36.356 0.234 8.41 2.71 14.73
1/5/2022 12:30:00 PM 2.5 36.5 0.234 8.45 2.8 14.7
1/5/2022 12:45:00 PM 2.57 36.626 0.234 8.48 2.64 14.68
1/5/2022 1:00:00 PM 2.64 36.752 0.234 8.5 2.68 14.65
1/5/2022 1:15:00 PM 2.71 36.878 0.234 8.51 2.68 14.61
1/5/2022 1:30:00 PM 2.78 37.004 0.234 8.54 2.66 14.57
1/5/2022 1:45:00 PM 2.86 37.148 0.234 8.55 2.67 14.53
1/5/2022 2:00:00 PM 2.91 37.238 0.234 8.56 2.6 14.48
1/5/2022 2:15:00 PM 2.97 37.346 0.234 8.56 2.73 14.43
1/5/2022 2:30:00 PM 3.02 37.436 0.234 8.55 2.64 14.37
1/5/2022 2:45:00 PM 3.06 37.508 0.234 8.55 2.69 14.3
1/5/2022 3:00:00 PM 3.1 37.58 0.234 8.52 2.65 14.21
1/5/2022 3:15:00 PM 3.12 37.616 0.234 8.47 2.85 14.08
1/5/2022 3:30:00 PM 3.14 37.652 0.234 8.41 2.76 13.95
1/5/2022 3:45:00 PM 3.15 37.67 0.234 8.33 2.66 13.79
1/5/2022 4:00:00 PM 3.15 37.67 0.235 8.22 2.65 13.63
1/5/2022 4:15:00 PM 3.14 37.652 0.235 8.13 2.62 13.5
1/5/2022 4:30:00 PM 3.12 37.616 0.235 8.03 2.71 13.35
1/5/2022 4:45:00 PM 3.09 37.562 0.236 7.93 2.76 13.17
1/5/2022 5:00:00 PM 3.07 37.526 0.236 7.85 2.67 13.02
1/5/2022 5:15:00 PM 3.03 37.454 0.236 7.78 2.64 12.88
1/5/2022 5:30:00 PM 2.99 37.382 0.236 7.73 2.77 12.77
1/5/2022 5:45:00 PM 2.95 37.31 0.237 7.68 2.68 12.68
1/5/2022 6:00:00 PM 2.91 37.238 0.237 7.66 2.67 12.63
1/5/2022 6:15:00 PM 2.87 37.166 0.237 7.63 2.72 12.58
1/5/2022 6:30:00 PM 2.82 37.076 0.237 7.61 2.76 12.55
1/5/2022 6:45:00 PM 2.77 36.986 0.238 7.59 2.7 12.53
1/5/2022 7:00:00 PM 2.73 36.914 0.238 7.58 2.71 12.52
1/5/2022 7:15:00 PM 2.68 36.824 0.238 7.57 2.67 12.52
1/5/2022 7:30:00 PM 2.64 36.752 0.238 7.55 2.67 12.51
1/5/2022 7:45:00 PM 2.61 36.698 0.238 7.55 2.67 12.51
1/5/2022 8:00:00 PM 2.57 36.626 0.239 7.54 2.57 12.51
1/5/2022 8:15:00 PM 2.54 36.572 0.239 7.53 2.7 12.52
1/5/2022 8:30:00 PM 2.51 36.518 0.239 7.53 2.75 12.52
1/5/2022 8:45:00 PM 2.48 36.464 0.239 7.52 2.67 12.52
1/5/2022 9:00:00 PM 2.45 36.41 0.239 7.52 2.65 12.53
1/5/2022 9:15:00 PM 2.43 36.374 0.239 7.52 2.65 12.54
1/5/2022 9:30:00 PM 2.41 36.338 0.239 7.51 2.62 12.55
1/5/2022 9:45:00 PM 2.39 36.302 0.239 7.51 2.72 12.56
1/5/2022 10:00:00 PM 2.38 36.284 0.239 7.51 2.71 12.57
1/5/2022 10:15:00 PM 2.37 36.266 0.239 7.51 2.57 12.58
1/5/2022 10:30:00 PM 2.36 36.248 0.239 7.5 2.59 12.57
1/5/2022 10:45:00 PM 2.34 36.212 0.239 7.51 3.69 12.59
1/5/2022 11:00:00 PM 2.34 36.212 0.239 7.5 2.67 12.58
1/5/2022 11:15:00 PM 2.34 36.212 0.239 7.5 2.69 12.58
1/5/2022 11:30:00 PM 2.32 36.176 0.239 7.5 2.66 12.59
1/5/2022 11:45:00 PM 2.31 36.158 0.239 7.5 2.62 12.59
1/6/2022 12:00:00 AM 2.29 36.122 0.239 7.5 2.6 12.6
1/6/2022 12:15:00 AM 2.27 36.086 0.239 7.49 2.64 12.6
1/6/2022 12:30:00 AM 2.25 36.05 0.238 7.49 2.64 12.61
1/6/2022 12:45:00 AM 2.22 35.996 0.239 7.49 2.75 12.61
1/6/2022 1:00:00 AM 2.19 35.942 0.238 7.49 2.66 12.61
1/6/2022 1:15:00 AM 2.17 35.906 0.238 7.49 2.64 12.63
1/6/2022 1:30:00 AM 2.14 35.852 0.238 7.49 2.66 12.63
1/6/2022 1:45:00 AM 2.13 35.834 0.238 7.49 2.71 12.64
1/6/2022 2:00:00 AM 2.11 35.798 0.238 7.49 2.6 12.65
1/6/2022 2:15:00 AM 2.1 35.78 0.238 7.49 2.61 12.66
1/6/2022 2:30:00 AM 2.09 35.762 0.238 7.49 2.61 12.66
1/6/2022 2:45:00 AM 2.08 35.744 0.238 7.49 2.65 12.66
1/6/2022 3:00:00 AM 2.08 35.744 0.238 7.49 2.66 12.67
1/6/2022 3:15:00 AM 2.08 35.744 0.237 7.49 2.75 12.69
1/6/2022 3:30:00 AM 2.07 35.726 0.237 7.49 2.64 12.69
1/6/2022 3:45:00 AM 2.06 35.708 0.237 7.49 2.68 12.69
1/6/2022 4:00:00 AM 2.05 35.69 0.237 7.49 2.69 12.7
1/6/2022 4:15:00 AM 2.05 35.69 0.237 7.49 2.63 12.71
1/6/2022 4:30:00 AM 2.03 35.654 0.237 7.49 2.71 12.71
1/6/2022 4:45:00 AM 2 35.6 0.237 7.49 2.67 12.72
1/6/2022 5:00:00 AM 1.97 35.546 0.237 7.49 2.65 12.73
1/6/2022 5:15:00 AM 1.95 35.51 0.237 7.49 2.7 12.73
1/6/2022 5:30:00 AM 1.95 35.51 0.237 7.49 2.65 12.75
1/6/2022 5:45:00 AM 1.95 35.51 0.237 7.49 2.69 12.75
1/6/2022 6:00:00 AM 1.93 35.474 0.237 7.49 2.68 12.76
1/6/2022 6:15:00 AM 1.91 35.438 0.237 7.49 2.65 12.77
1/6/2022 6:30:00 AM 1.89 35.402 0.237 7.49 2.68 12.78
1/6/2022 6:45:00 AM 1.88 35.384 0.237 7.49 2.65 12.78
1/6/2022 7:00:00 AM 1.85 35.33 0.237 7.49 2.66 12.79
1/6/2022 7:15:00 AM 1.83 35.294 0.237 7.49 2.68 12.8
1/6/2022 7:30:00 AM 1.81 35.258 0.237 7.5 2.73 12.83
1/6/2022 7:45:00 AM 1.79 35.222 0.237 7.5 2.61 12.86
1/6/2022 8:00:00 AM 1.78 35.204 0.237 7.51 2.65 12.94
1/6/2022 8:15:00 AM 1.75 35.15 0.237 7.53 2.68 13.05
1/6/2022 8:30:00 AM 1.73 35.114 0.237 7.56 2.62 13.16
1/6/2022 8:45:00 AM 1.73 35.114 0.237 7.59 2.65 13.31
1/6/2022 9:00:00 AM 1.73 35.114 0.237 7.62 2.63 13.46
1/6/2022 9:15:00 AM 1.73 35.114 0.237 7.67 2.62 13.65
1/6/2022 9:30:00 AM 1.75 35.15 0.237 7.72 2.65 13.8
1/6/2022 9:45:00 AM 1.78 35.204 0.237 7.78 2.67 13.97
1/6/2022 10:00:00 AM 1.84 35.312 0.237 7.84 2.74 14.15
1/6/2022 10:15:00 AM 1.88 35.384 0.236 7.92 2.66 14.3
1/6/2022 10:30:00 AM 1.91 35.438 0.236 7.99 2.72 14.42
1/6/2022 10:45:00 AM 1.97 35.546 0.236 8.06 2.69 14.52
1/6/2022 11:00:00 AM 2.01 35.618 0.236 8.1 2.68 14.56
1/6/2022 11:15:00 AM 2.08 35.744 0.236 8.17 2.67 14.63
1/6/2022 11:30:00 AM 2.1 35.78 0.235 8.22 2.69 14.66
1/6/2022 11:45:00 AM 2.17 35.906 0.235 8.27 2.62 14.67
1/6/2022 12:00:00 PM 2.22 35.996 0.235 8.31 2.67 14.68
1/6/2022 12:15:00 PM 2.26 36.068 0.235 8.34 2.62 14.66
1/6/2022 12:30:00 PM 2.32 36.176 0.235 8.36 2.74 14.64
1/6/2022 12:45:00 PM 2.37 36.266 0.234 8.4 2.67 14.62
1/6/2022 1:00:00 PM 2.4 36.32 0.234 8.4 2.69 14.57
1/6/2022 1:15:00 PM 2.5 36.5 0.234 8.44 2.73 14.59
1/6/2022 1:30:00 PM 2.57 36.626 0.234 8.48 2.62 14.61
1/6/2022 1:45:00 PM 2.58 36.644 0.233 8.49 2.72 14.59
1/6/2022 2:00:00 PM 2.59 36.662 0.234 8.49 2.69 14.56
1/6/2022 2:15:00 PM 2.59 36.662 0.234 8.5 2.54 14.55
1/6/2022 2:30:00 PM 2.6 36.68 0.234 8.5 2.62 14.52
1/6/2022 2:45:00 PM 2.6 36.68 0.234 8.5 2.59 14.48
1/6/2022 3:00:00 PM 2.6 36.68 0.234 8.47 2.62 14.41
1/6/2022 3:15:00 PM 2.6 36.68 0.234 8.44 2.62 14.34
1/6/2022 3:30:00 PM 2.58 36.644 0.234 8.39 2.63 14.24
1/6/2022 3:45:00 PM 2.57 36.626 0.234 8.31 2.61 14.12
1/6/2022 4:00:00 PM 2.55 36.59 0.234 8.23 2.66 14
1/6/2022 4:15:00 PM 2.53 36.554 0.235 8.12 2.59 13.81
1/6/2022 4:30:00 PM 2.5 36.5 0.235 8.01 2.79 13.63
1/6/2022 4:45:00 PM 2.48 36.464 0.235 7.9 2.57 13.45
1/6/2022 5:00:00 PM 2.45 36.41 0.235 7.82 2.61 13.3
1/6/2022 5:15:00 PM 2.42 36.356 0.236 7.76 2.6 13.16
1/6/2022 5:30:00 PM 2.4 36.32 0.236 7.71 2.58 13.05
1/6/2022 5:45:00 PM 2.39 36.302 0.236 7.67 2.63 12.97
1/6/2022 6:00:00 PM 2.37 36.266 0.236 7.64 2.72 12.91
1/6/2022 6:15:00 PM 2.35 36.23 0.236 7.62 2.71 12.87
1/6/2022 6:30:00 PM 2.33 36.194 0.236 7.6 2.62 12.83
1/6/2022 6:45:00 PM 2.3 36.14 0.236 7.59 2.68 12.81
1/6/2022 7:00:00 PM 2.25 36.05 0.237 7.57 2.68 12.79
1/6/2022 7:15:00 PM 2.22 35.996 0.237 7.56 2.57 12.78
1/6/2022 7:30:00 PM 2.2 35.96 0.237 7.55 2.61 12.77
1/6/2022 7:45:00 PM 2.19 35.942 0.237 7.54 2.65 12.76
1/6/2022 8:00:00 PM 2.17 35.906 0.237 7.54 2.65 12.75
1/6/2022 8:15:00 PM 2.15 35.87 0.238 7.53 2.58 12.76
1/6/2022 8:30:00 PM 2.14 35.852 0.237 7.53 2.64 12.76
1/6/2022 8:45:00 PM 2.12 35.816 0.238 7.52 2.72 12.76
1/6/2022 9:00:00 PM 2.11 35.798 0.238 7.52 2.68 12.76
1/6/2022 9:15:00 PM 2.1 35.78 0.238 7.51 2.65 12.76
1/6/2022 9:30:00 PM 2.08 35.744 0.238 7.51 2.68 12.77
1/6/2022 9:45:00 PM 2.05 35.69 0.238 7.51 2.65 12.77
1/6/2022 10:00:00 PM 2.03 35.654 0.238 7.51 2.66 12.78
1/6/2022 10:15:00 PM 1.99 35.582 0.238 7.51 2.62 12.79
1/6/2022 10:30:00 PM 1.95 35.51 0.238 7.5 2.65 12.79
1/6/2022 10:45:00 PM 1.88 35.384 0.238 7.5 2.64 12.8
1/6/2022 11:00:00 PM 1.84 35.312 0.238 7.5 2.63 12.82
1/6/2022 11:15:00 PM 1.78 35.204 0.238 7.5 2.69 12.83
1/6/2022 11:30:00 PM 1.73 35.114 0.238 7.5 2.91 12.84
1/6/2022 11:45:00 PM 1.71 35.078 0.238 7.5 2.63 12.85
1/7/2022 12:00:00 AM 1.69 35.042 0.237 7.5 4.01 12.86
1/7/2022 12:15:00 AM 1.67 35.006 0.237 7.49 2.64 12.87
1/7/2022 12:30:00 AM 1.63 34.934 0.237 7.49 2.64 12.88
1/7/2022 12:45:00 AM 1.59 34.862 0.237 7.49 2.65 12.89
1/7/2022 1:00:00 AM 1.55 34.79 0.237 7.49 2.63 12.89
1/7/2022 1:15:00 AM 1.52 34.736 0.237 7.49 2.6 12.9
1/7/2022 1:30:00 AM 1.48 34.664 0.237 7.49 2.64 12.91
1/7/2022 1:45:00 AM 1.43 34.574 0.236 7.49 2.66 12.92
1/7/2022 2:00:00 AM 1.39 34.502 0.236 7.49 2.63 12.94
1/7/2022 2:15:00 AM 1.34 34.412 0.236 7.49 2.69 12.94
1/7/2022 2:30:00 AM 1.29 34.322 0.236 7.49 2.68 12.96
1/7/2022 2:45:00 AM 1.25 34.25 0.236 7.49 2.63 12.97
1/7/2022 3:00:00 AM 1.19 34.142 0.235 7.49 2.68 12.99
1/7/2022 3:15:00 AM 1.17 34.106 0.235 7.49 2.68 13
1/7/2022 3:30:00 AM 1.14 34.052 0.235 7.49 2.65 13.02
1/7/2022 3:45:00 AM 1.13 34.034 0.235 7.49 2.68 13.03
1/7/2022 4:00:00 AM 1.13 34.034 0.235 7.49 2.69 13.05
1/7/2022 4:15:00 AM 1.12 34.016 0.235 7.49 2.7 13.05
1/7/2022 4:30:00 AM 1.13 34.034 0.235 7.49 2.65 13.05
1/7/2022 4:45:00 AM 1.14 34.052 0.235 7.49 2.7 13.05
1/7/2022 5:00:00 AM 1.15 34.07 0.235 7.48 2.67 13.05
1/7/2022 5:15:00 AM 1.17 34.106 0.235 7.49 2.66 13.05
1/7/2022 5:30:00 AM 1.18 34.124 0.235 7.49 2.72 13.06
1/7/2022 5:45:00 AM 1.19 34.142 0.235 7.48 2.69 13.05
1/7/2022 6:00:00 AM 1.21 34.178 0.235 7.49 2.73 13.06
1/7/2022 6:15:00 AM 1.21 34.178 0.235 7.48 2.73 13.05
1/7/2022 6:30:00 AM 1.21 34.178 0.235 7.48 2.68 13.06
1/7/2022 6:45:00 AM 1.21 34.178 0.235 7.48 2.66 13.05
1/7/2022 7:00:00 AM 1.22 34.196 0.236 7.48 2.77 13.06
1/7/2022 7:15:00 AM 1.22 34.196 0.236 7.48 2.61 13.05
1/7/2022 7:30:00 AM 1.23 34.214 0.236 7.49 2.7 13.06
1/7/2022 7:45:00 AM 1.24 34.232 0.236 7.5 2.63 13.1
1/7/2022 8:00:00 AM 1.27 34.286 0.236 7.51 2.68 13.16
1/7/2022 8:15:00 AM 1.29 34.322 0.236 7.53 2.68 13.26
1/7/2022 8:30:00 AM 1.33 34.394 0.236 7.57 2.69 13.43
1/7/2022 8:45:00 AM 1.37 34.466 0.236 7.62 2.67 13.62
1/7/2022 9:00:00 AM 1.4 34.52 0.235 7.66 2.63 13.76
1/7/2022 9:15:00 AM 1.45 34.61 0.235 7.71 2.7 13.93
1/7/2022 9:30:00 AM 1.49 34.682 0.235 7.76 2.68 14.05
1/7/2022 9:45:00 AM 1.54 34.772 0.235 7.83 2.73 14.2
1/7/2022 10:00:00 AM 1.59 34.862 0.234 7.9 2.64 14.34
1/7/2022 10:15:00 AM 1.64 34.952 0.234 7.96 2.65 14.45
1/7/2022 10:30:00 AM 1.68 35.024 0.234 8.02 2.64 14.52
1/7/2022 10:45:00 AM 1.73 35.114 0.234 8.09 2.62 14.61
1/7/2022 11:00:00 AM 1.78 35.204 0.235 8.15 2.6 14.67
1/7/2022 11:15:00 AM 1.83 35.294 0.235 8.21 2.68 14.72
1/7/2022 11:30:00 AM 1.86 35.348 0.235 8.25 2.68 14.73
1/7/2022 11:45:00 AM 1.9 35.42 0.236 8.3 2.6 14.79
1/7/2022 12:00:00 PM 1.95 35.51 0.238 8.35 2.67 14.81
1/7/2022 12:15:00 PM 1.98 35.564 0.239 8.38 2.71 14.79
1/7/2022 12:30:00 PM 2.02 35.636 0.241 8.4 2.67 14.79
1/7/2022 12:45:00 PM 2.08 35.744 0.241 8.44 2.64 14.79
1/7/2022 1:00:00 PM 2.13 35.834 0.242 8.47 2.68 14.78
1/7/2022 1:15:00 PM 2.13 35.834 0.242 8.45 2.69 14.68
1/7/2022 1:30:00 PM 2.11 35.798 0.242 8.44 2.68 14.63
1/7/2022 1:45:00 PM 2.1 35.78 0.242 8.44 2.8 14.6
1/7/2022 2:00:00 PM 2.09 35.762 0.241 8.41 2.73 14.54
1/7/2022 2:15:00 PM 2.11 35.798 0.241 8.4 2.75 14.51
1/7/2022 2:30:00 PM 2.02 35.636 0.241 8.33 2.73 14.36
1/7/2022 2:45:00 PM 2.02 35.636 0.241 8.27 2.82 14.26
1/7/2022 3:00:00 PM 1.99 35.582 0.24 8.19 2.71 14.15
1/7/2022 3:15:00 PM 1.94 35.492 0.24 8.14 2.67 14.1
1/7/2022 3:30:00 PM 1.92 35.456 0.241 8.12 2.72 14.11
1/7/2022 3:45:00 PM 1.93 35.474 0.241 8.13 2.72 14.16
1/7/2022 4:00:00 PM 1.91 35.438 0.242 8.1 2.76 14.11
1/7/2022 4:15:00 PM 1.87 35.366 0.244 8 2.7 13.94
1/7/2022 4:30:00 PM 1.84 35.312 0.245 7.93 2.74 13.83
1/7/2022 4:45:00 PM 1.77 35.186 0.246 7.84 2.82 13.64
1/7/2022 5:00:00 PM 1.7 35.06 0.247 7.77 2.7 13.49
1/7/2022 5:15:00 PM 1.65 34.97 0.248 7.71 2.71 13.39
1/7/2022 5:30:00 PM 1.61 34.898 0.248 7.68 2.72 13.31
1/7/2022 5:45:00 PM 1.56 34.808 0.249 7.64 2.73 13.25
1/7/2022 6:00:00 PM 1.52 34.736 0.249 7.62 2.71 13.21
1/7/2022 6:15:00 PM 1.48 34.664 0.248 7.6 2.64 13.19
1/7/2022 6:30:00 PM 1.44 34.592 0.248 7.59 2.79 13.18
1/7/2022 6:45:00 PM 1.4 34.52 0.247 7.57 2.63 13.16
1/7/2022 7:00:00 PM 1.34 34.412 0.248 7.56 2.72 13.16
1/7/2022 7:15:00 PM 1.3 34.34 0.248 7.56 2.75 13.16
1/7/2022 7:30:00 PM 1.25 34.25 0.249 7.55 2.58 13.16
1/7/2022 7:45:00 PM 1.2 34.16 0.249 7.54 2.67 13.18
1/7/2022 8:00:00 PM 1.17 34.106 0.249 7.53 2.7 13.18
1/7/2022 8:15:00 PM 1.14 34.052 0.249 7.53 2.66 13.19
1/7/2022 8:30:00 PM 1.09 33.962 0.248 7.53 2.65 13.21
1/7/2022 8:45:00 PM 1.04 33.872 0.248 7.53 2.67 13.23
1/7/2022 9:00:00 PM 0.97 33.746 0.247 7.52 2.64 13.25
1/7/2022 9:15:00 PM 0.94 33.692 0.246 7.52 2.65 13.26
1/7/2022 9:30:00 PM 0.88 33.584 0.246 7.52 2.7 13.28
1/7/2022 9:45:00 PM 0.85 33.53 0.245 7.52 2.66 13.3
1/7/2022 10:00:00 PM 0.79 33.422 0.245 7.52 2.63 13.33
1/7/2022 10:15:00 PM 0.72 33.296 0.245 7.51 2.61 13.35
1/7/2022 10:30:00 PM 0.67 33.206 0.244 7.51 2.69 13.37
1/7/2022 10:45:00 PM 0.62 33.116 0.244 7.51 2.65 13.39
1/7/2022 11:00:00 PM 0.6 33.08 0.243 7.51 2.59 13.4
1/7/2022 11:15:00 PM 0.58 33.044 0.242 7.51 2.65 13.41
1/7/2022 11:30:00 PM 0.55 32.99 0.241 7.5 2.72 13.43
1/7/2022 11:45:00 PM 0.54 32.972 0.24 7.5 2.71 13.45
1/8/2022 12:00:00 AM 0.52 32.936 0.24 7.5 2.61 13.46
1/8/2022 12:15:00 AM 0.49 32.882 0.239 7.5 2.68 13.47
1/8/2022 12:30:00 AM 0.49 32.882 0.238 7.5 2.68 13.48
1/8/2022 12:45:00 AM 0.48 32.864 0.238 7.5 2.64 13.5
1/8/2022 1:00:00 AM 0.47 32.846 0.237 7.49 2.65 13.5
1/8/2022 1:15:00 AM 0.46 32.828 0.237 7.49 2.64 13.5
1/8/2022 1:30:00 AM 0.44 32.792 0.236 7.49 2.69 13.52
1/8/2022 1:45:00 AM 0.43 32.774 0.236 7.49 2.7 13.53
1/8/2022 2:00:00 AM 0.4 32.72 0.236 7.49 2.81 13.53
1/8/2022 2:15:00 AM 0.39 32.702 0.235 7.49 2.67 13.54
1/8/2022 2:30:00 AM 0.38 32.684 0.235 7.49 2.72 13.55
1/8/2022 2:45:00 AM 0.37 32.666 0.235 7.49 2.64 13.56
1/8/2022 3:00:00 AM 0.36 32.648 0.234 7.49 2.77 13.57
1/8/2022 3:15:00 AM 0.33 32.594 0.234 7.48 2.73 13.57
1/8/2022 3:30:00 AM 0.31 32.558 0.234 7.48 2.59 13.58
1/8/2022 3:45:00 AM 0.3 32.54 0.233 7.48 2.73 13.59
1/8/2022 4:00:00 AM 0.27 32.486 0.233 7.48 2.66 13.6
1/8/2022 4:15:00 AM 0.24 32.432 0.233 7.48 2.64 13.6
1/8/2022 4:30:00 AM 0.22 32.396 0.233 7.48 2.62 13.62
1/8/2022 4:45:00 AM 0.2 32.36 0.233 7.48 2.73 13.63
1/8/2022 5:00:00 AM 0.18 32.324 0.232 7.48 2.75 13.64
1/8/2022 5:15:00 AM 0.16 32.288 0.232 7.48 2.75 13.65
1/8/2022 5:30:00 AM 0.13 32.234 0.231 7.47 2.72 13.66
1/8/2022 5:45:00 AM 0.11 32.198 0.231 7.48 2.75 13.67
1/8/2022 6:00:00 AM 0.08 32.144 0.231 7.47 2.72 13.68
1/8/2022 6:15:00 AM 0.06 32.108 0.23 7.47 2.68 13.69
1/8/2022 6:30:00 AM 0.05 32.09 0.23 7.47 2.73 13.71
1/8/2022 6:45:00 AM 0.01 32.018 0.23 7.47 2.7 13.72
1/8/2022 7:00:00 AM -0.01 31.982 0.229 7.47 2.64 13.73
1/8/2022 7:15:00 AM -0.04 31.928 0.229 7.47 2.65 13.74
1/8/2022 7:30:00 AM -0.07 31.874 0.229 7.47 2.76 13.78
1/8/2022 7:45:00 AM -0.09 31.838 0.229 7.48 2.79 13.84
1/8/2022 8:00:00 AM -0.11 31.802 0.229 7.49 2.8 13.94
1/8/2022 8:15:00 AM -0.11 31.802 0.228 7.52 2.79 14.06
1/8/2022 8:30:00 AM -0.1 31.82 0.228 7.54 2.72 14.17
1/8/2022 8:45:00 AM -0.1 31.82 0.228 7.56 2.88 14.29
1/8/2022 9:00:00 AM -0.09 31.838 0.228 7.59 2.94 14.41
1/8/2022 9:15:00 AM -0.09 31.838 0.228 7.61 2.77 14.55
1/8/2022 9:30:00 AM -0.09 31.838 0.228 7.65 2.94 14.66
1/8/2022 9:45:00 AM -0.08 31.856 0.229 7.67 2.78 14.76
1/8/2022 10:00:00 AM -0.08 31.856 0.229 7.71 2.81 14.85
1/8/2022 10:15:00 AM -0.07 31.874 0.23 7.74 2.9 14.93
1/8/2022 10:30:00 AM -0.05 31.91 0.231 7.77 2.62 14.99
1/8/2022 10:45:00 AM -0.02 31.964 0.233 7.8 2.86 15.06
1/8/2022 11:00:00 AM 0.04 32.072 0.234 7.83 2.66 15.11
1/8/2022 11:15:00 AM 0.1 32.18 0.235 7.85 2.73 15.15
1/8/2022 11:30:00 AM 0.16 32.288 0.237 7.89 2.69 15.18
1/8/2022 11:45:00 AM 0.22 32.396 0.241 7.91 2.7 15.2
1/8/2022 12:00:00 PM 0.3 32.54 0.245 7.93 2.71 15.22
1/8/2022 12:15:00 PM 0.37 32.666 0.248 7.96 2.65 15.23
1/8/2022 12:30:00 PM 0.43 32.774 0.252 7.98 2.67 15.23
1/8/2022 12:45:00 PM 0.5 32.9 0.256 8 2.72 15.24
1/8/2022 1:00:00 PM 0.53 32.954 0.259 8.01 2.65 15.23
1/8/2022 1:15:00 PM 0.57 33.026 0.264 8.02 2.69 15.23
1/8/2022 1:30:00 PM 0.6 33.08 0.268 8.03 2.7 15.23
1/8/2022 1:45:00 PM 0.62 33.116 0.273 8.07 2.74 15.27
1/8/2022 2:00:00 PM 0.63 33.134 0.277 8.08 2.71 15.26
1/8/2022 2:15:00 PM 0.62 33.116 0.281 8.06 2.8 15.18
1/8/2022 2:30:00 PM 0.59 33.062 0.285 8.03 2.87 15.11
1/8/2022 2:45:00 PM 0.61 33.098 0.284 8.02 2.86 15.05
1/8/2022 3:00:00 PM 0.65 33.17 0.282 8.02 2.83 14.99
1/8/2022 3:15:00 PM 0.67 33.206 0.281 8 2.78 14.91
1/8/2022 3:30:00 PM 0.71 33.278 0.28 7.98 2.75 14.83
1/8/2022 3:45:00 PM 0.74 33.332 0.279 7.95 2.87 14.74
1/8/2022 4:00:00 PM 0.77 33.386 0.278 7.92 2.63 14.63
1/8/2022 4:15:00 PM 0.79 33.422 0.277 7.87 2.75 14.51
1/8/2022 4:30:00 PM 0.81 33.458 0.275 7.83 2.7 14.38
1/8/2022 4:45:00 PM 0.81 33.458 0.273 7.77 2.69 14.24
1/8/2022 5:00:00 PM 0.81 33.458 0.272 7.73 2.71 14.09
1/8/2022 5:15:00 PM 0.81 33.458 0.271 7.69 2.66 13.97
1/8/2022 5:30:00 PM 0.79 33.422 0.27 7.65 2.68 13.87
1/8/2022 5:45:00 PM 0.77 33.386 0.269 7.62 2.7 13.79
1/8/2022 6:00:00 PM 0.76 33.368 0.268 7.6 2.65 13.73
1/8/2022 6:15:00 PM 0.73 33.314 0.268 7.58 2.7 13.68
1/8/2022 6:30:00 PM 0.7 33.26 0.267 7.56 2.66 13.65
1/8/2022 6:45:00 PM 0.68 33.224 0.266 7.55 2.66 13.62
1/8/2022 7:00:00 PM 0.66 33.188 0.265 7.54 2.56 13.61
1/8/2022 7:15:00 PM 0.63 33.134 0.264 7.53 2.67 13.59
1/8/2022 7:30:00 PM 0.6 33.08 0.263 7.52 2.62 13.58
1/8/2022 7:45:00 PM 0.59 33.062 0.262 7.52 2.62 13.59
1/8/2022 8:00:00 PM 0.58 33.044 0.26 7.51 2.64 13.58
1/8/2022 8:15:00 PM 0.55 32.99 0.259 7.51 2.64 13.58
1/8/2022 8:30:00 PM 0.53 32.954 0.259 7.5 2.65 13.58
1/8/2022 8:45:00 PM 0.51 32.918 0.258 7.5 2.63 13.58
1/8/2022 9:00:00 PM 0.49 32.882 0.257 7.5 2.67 13.58
1/8/2022 9:15:00 PM 0.49 32.882 0.257 7.5 2.61 13.58
1/8/2022 9:30:00 PM 0.49 32.882 0.256 7.49 2.65 13.58
1/8/2022 9:45:00 PM 0.5 32.9 0.256 7.49 2.67 13.57
1/8/2022 10:00:00 PM 0.51 32.918 0.256 7.49 2.65 13.57
1/8/2022 10:15:00 PM 0.51 32.918 0.256 7.49 2.61 13.56
1/8/2022 10:30:00 PM 0.51 32.918 0.256 7.49 2.56 13.56
1/8/2022 10:45:00 PM 0.51 32.918 0.256 7.49 2.67 13.57
1/8/2022 11:00:00 PM 0.52 32.936 0.257 7.49 2.63 13.57
1/8/2022 11:15:00 PM 0.52 32.936 0.257 7.48 2.61 13.56
1/8/2022 11:30:00 PM 0.52 32.936 0.258 7.48 2.65 13.56
1/8/2022 11:45:00 PM 0.54 32.972 0.258 7.48 2.64 13.57
1/9/2022 12:00:00 AM 0.55 32.99 0.259 7.48 2.67 13.55
1/9/2022 12:15:00 AM 0.58 33.044 0.259 7.48 2.67 13.55
1/9/2022 12:30:00 AM 0.6 33.08 0.259 7.48 2.62 13.54
1/9/2022 12:45:00 AM 0.6 33.08 0.26 7.48 2.63 13.54
1/9/2022 1:00:00 AM 0.62 33.116 0.26 7.48 2.59 13.52
1/9/2022 1:15:00 AM 0.64 33.152 0.26 7.48 2.6 13.51
1/9/2022 1:30:00 AM 0.67 33.206 0.26 7.48 2.67 13.5
1/9/2022 1:45:00 AM 0.68 33.224 0.261 7.48 2.53 13.49
1/9/2022 2:00:00 AM 0.72 33.296 0.261 7.48 2.53 13.48
1/9/2022 2:15:00 AM 0.74 33.332 0.261 7.48 2.57 13.47
1/9/2022 2:30:00 AM 0.75 33.35 0.261 7.48 2.66 13.46
1/9/2022 2:45:00 AM 0.79 33.422 0.26 7.48 2.61 13.44
1/9/2022 3:00:00 AM 0.82 33.476 0.26 7.48 2.67 13.42
1/9/2022 3:15:00 AM 0.84 33.512 0.26 7.47 2.64 13.41
1/9/2022 3:30:00 AM 0.86 33.548 0.26 7.47 2.63 13.39
1/9/2022 3:45:00 AM 0.88 33.584 0.259 7.47 2.62 13.38
1/9/2022 4:00:00 AM 0.91 33.638 0.259 7.47 2.58 13.36
1/9/2022 4:15:00 AM 0.93 33.674 0.259 7.47 2.62 13.35
1/9/2022 4:30:00 AM 0.95 33.71 0.258 7.48 2.58 13.34
1/9/2022 4:45:00 AM 0.97 33.746 0.258 7.47 2.67 13.32
1/9/2022 5:00:00 AM 0.98 33.764 0.257 7.47 2.59 13.31
1/9/2022 5:15:00 AM 0.99 33.782 0.256 7.47 2.63 13.31
1/9/2022 5:30:00 AM 1 33.8 0.256 7.47 2.67 13.3
1/9/2022 5:45:00 AM 1.03 33.854 0.255 7.47 2.61 13.29
1/9/2022 6:00:00 AM 1.06 33.908 0.254 7.47 2.65 13.28
1/9/2022 6:15:00 AM 1.06 33.908 0.254 7.47 2.64 13.26
1/9/2022 6:30:00 AM 1.08 33.944 0.254 7.47 2.61 13.25
1/9/2022 6:45:00 AM 1.1 33.98 0.254 7.47 2.63 13.24
1/9/2022 7:00:00 AM 1.12 34.016 0.253 7.47 2.65 13.23
1/9/2022 7:15:00 AM 1.13 34.034 0.253 7.47 2.66 13.22
1/9/2022 7:30:00 AM 1.15 34.07 0.253 7.47 2.69 13.21
1/9/2022 7:45:00 AM 1.17 34.106 0.252 7.48 2.58 13.22
1/9/2022 8:00:00 AM 1.18 34.124 0.252 7.48 2.64 13.24
1/9/2022 8:15:00 AM 1.18 34.124 0.251 7.48 2.64 13.25
1/9/2022 8:30:00 AM 1.16 34.088 0.251 7.49 2.64 13.29
1/9/2022 8:45:00 AM 1.16 34.088 0.251 7.5 2.67 13.35
1/9/2022 9:00:00 AM 1.2 34.16 0.251 7.52 2.68 13.4
1/9/2022 9:15:00 AM 1.22 34.196 0.251 7.54 2.67 13.51
1/9/2022 9:30:00 AM 1.25 34.25 0.251 7.56 2.66 13.58
1/9/2022 9:45:00 AM 1.27 34.286 0.251 7.57 2.66 13.62
1/9/2022 10:00:00 AM 1.28 34.304 0.252 7.57 2.64 13.59
1/9/2022 10:15:00 AM 1.31 34.358 0.252 7.58 2.63 13.59
1/9/2022 10:30:00 AM 1.34 34.412 0.252 7.59 2.66 13.62
1/9/2022 10:45:00 AM 1.37 34.466 0.252 7.6 2.72 13.67
1/9/2022 11:00:00 AM 1.4 34.52 0.252 7.63 2.71 13.76
1/9/2022 11:15:00 AM 1.42 34.556 0.253 7.64 2.66 13.78
1/9/2022 11:30:00 AM 1.44 34.592 0.253 7.66 2.57 13.82
1/9/2022 11:45:00 AM 1.47 34.646 0.253 7.67 2.66 13.82
1/9/2022 12:00:00 PM 1.5 34.7 0.253 7.69 2.75 13.85
1/9/2022 12:15:00 PM 1.53 34.754 0.252 7.7 2.72 13.88
1/9/2022 12:30:00 PM 1.56 34.808 0.252 7.72 2.69 13.9
1/9/2022 12:45:00 PM 1.57 34.826 0.252 7.72 2.71 13.9
1/9/2022 1:00:00 PM 1.6 34.88 0.252 7.73 2.62 13.91
1/9/2022 1:15:00 PM 1.63 34.934 0.251 7.75 2.62 13.94
1/9/2022 1:30:00 PM 1.66 34.988 0.252 7.77 2.68 13.98
1/9/2022 1:45:00 PM 1.68 35.024 0.252 7.77 2.6 13.96
1/9/2022 2:00:00 PM 1.7 35.06 0.252 7.78 2.7 13.97
1/9/2022 2:15:00 PM 1.72 35.096 0.253 7.78 2.7 13.94
1/9/2022 2:30:00 PM 1.74 35.132 0.254 7.77 2.67 13.88
1/9/2022 2:45:00 PM 1.75 35.15 0.256 7.75 2.62 13.79
1/9/2022 3:00:00 PM 1.77 35.186 0.261 7.72 2.72 13.69
1/9/2022 3:15:00 PM 1.79 35.222 0.268 7.69 2.64 13.59
1/9/2022 3:30:00 PM 1.81 35.258 0.275 7.67 2.67 13.49
1/9/2022 3:45:00 PM 1.82 35.276 0.28 7.65 2.7 13.41
1/9/2022 4:00:00 PM 1.83 35.294 0.281 7.62 2.65 13.31
1/9/2022 4:15:00 PM 1.84 35.312 0.281 7.6 2.71 13.25
1/9/2022 4:30:00 PM 1.85 35.33 0.279 7.59 2.7 13.19
1/9/2022 4:45:00 PM 1.86 35.348 0.275 7.57 2.72 13.13
1/9/2022 5:00:00 PM 1.87 35.366 0.273 7.56 2.7 13.08
1/9/2022 5:15:00 PM 1.88 35.384 0.271 7.55 2.68 13.04
1/9/2022 5:30:00 PM 1.89 35.402 0.269 7.54 2.69 13
1/9/2022 5:45:00 PM 1.9 35.42 0.268 7.53 2.66 12.97
1/9/2022 6:00:00 PM 1.91 35.438 0.268 7.52 2.65 12.94
1/9/2022 6:15:00 PM 1.92 35.456 0.267 7.52 2.63 12.91
1/9/2022 6:30:00 PM 1.93 35.474 0.267 7.51 2.72 12.9
1/9/2022 6:45:00 PM 1.93 35.474 0.267 7.51 2.75 12.88
1/9/2022 7:00:00 PM 1.94 35.492 0.266 7.5 2.72 12.86
1/9/2022 7:15:00 PM 1.94 35.492 0.265 7.5 2.72 12.85
1/9/2022 7:30:00 PM 1.95 35.51 0.264 7.5 2.67 12.85
1/9/2022 7:45:00 PM 1.96 35.528 0.263 7.5 2.62 12.84
1/9/2022 8:00:00 PM 1.98 35.564 0.262 7.49 2.69 12.83
1/9/2022 8:15:00 PM 1.96 35.528 0.261 7.49 2.67 12.83
1/9/2022 8:30:00 PM 1.97 35.546 0.26 7.49 2.86 12.82
1/9/2022 8:45:00 PM 1.99 35.582 0.259 7.49 2.6 12.82
1/9/2022 9:00:00 PM 2 35.6 0.259 7.49 2.64 12.82
1/9/2022 9:15:00 PM 2.01 35.618 0.258 7.49 2.6 12.82
1/9/2022 9:30:00 PM 2.01 35.618 0.257 7.48 2.6 12.81
1/9/2022 9:45:00 PM 2.02 35.636 0.257 7.48 2.69 12.81
1/9/2022 10:00:00 PM 2.03 35.654 0.256 7.48 2.69 12.81
1/9/2022 10:15:00 PM 2.03 35.654 0.256 7.48 2.69 12.81
1/9/2022 10:30:00 PM 2.03 35.654 0.255 7.48 2.65 12.82
1/9/2022 10:45:00 PM 2.04 35.672 0.255 7.48 2.67 12.82
1/9/2022 11:00:00 PM 2.05 35.69 0.254 7.48 2.64 12.81
1/9/2022 11:15:00 PM 2.04 35.672 0.255 7.48 2.66 12.81
1/9/2022 11:30:00 PM 2.04 35.672 0.254 7.48 2.62 12.81
1/9/2022 11:45:00 PM 2.03 35.654 0.254 7.48 2.52 12.81
1/10/2022 12:00:00 AM 2.02 35.636 0.254 7.49 2.6 12.82
1/10/2022 12:15:00 AM 2 35.6 0.254 7.48 2.62 12.82
1/10/2022 12:30:00 AM 1.99 35.582 0.253 7.48 2.59 12.82
1/10/2022 12:45:00 AM 1.96 35.528 0.253 7.48 2.63 12.83
1/10/2022 1:00:00 AM 1.95 35.51 0.253 7.48 2.63 12.83
1/10/2022 1:15:00 AM 1.91 35.438 0.253 7.49 2.59 12.85
1/10/2022 1:30:00 AM 1.89 35.402 0.253 7.49 2.67 12.85
1/10/2022 1:45:00 AM 1.86 35.348 0.253 7.49 2.66 12.86
1/10/2022 2:00:00 AM 1.81 35.258 0.252 7.49 2.7 12.88
1/10/2022 2:15:00 AM 1.75 35.15 0.252 7.49 2.65 12.9
1/10/2022 2:30:00 AM 1.7 35.06 0.252 7.49 2.58 12.92
1/10/2022 2:45:00 AM 1.66 34.988 0.252 7.49 2.64 12.93
1/10/2022 3:00:00 AM 1.63 34.934 0.252 7.49 2.67 12.95
1/10/2022 3:15:00 AM 1.61 34.898 0.252 7.49 2.61 12.96
1/10/2022 3:30:00 AM 1.59 34.862 0.252 7.49 2.64 12.98
1/10/2022 3:45:00 AM 1.55 34.79 0.252 7.49 2.54 12.99
1/10/2022 4:00:00 AM 1.53 34.754 0.252 7.49 2.64 13
1/10/2022 4:15:00 AM 1.49 34.682 0.252 7.49 2.68 13.03
1/10/2022 4:30:00 AM 1.44 34.592 0.253 7.49 2.56 13.03
1/10/2022 4:45:00 AM 1.42 34.556 0.253 7.49 2.71 13.06
1/10/2022 5:00:00 AM 1.37 34.466 0.253 7.49 2.61 13.07
1/10/2022 5:15:00 AM 1.33 34.394 0.253 7.49 2.62 13.09
1/10/2022 5:30:00 AM 1.27 34.286 0.254 7.49 2.82 13.1
1/10/2022 5:45:00 AM 1.21 34.178 0.254 7.49 2.6 13.13
1/10/2022 6:00:00 AM 1.13 34.034 0.254 7.49 2.65 13.14
1/10/2022 6:15:00 AM 1.07 33.926 0.255 7.49 2.6 13.17
1/10/2022 6:30:00 AM 1 33.8 0.255 7.49 2.66 13.2
1/10/2022 6:45:00 AM 0.92 33.656 0.256 7.49 2.62 13.22
1/10/2022 7:00:00 AM 0.85 33.53 0.257 7.49 2.66 13.25
1/10/2022 7:15:00 AM 0.78 33.404 0.258 7.49 2.67 13.28
1/10/2022 7:30:00 AM 0.73 33.314 0.258 7.49 2.67 13.32
1/10/2022 7:45:00 AM 0.68 33.224 0.259 7.5 2.62 13.39
1/10/2022 8:00:00 AM 0.65 33.17 0.258 7.52 2.66 13.48
1/10/2022 8:15:00 AM 0.64 33.152 0.257 7.54 2.65 13.59
1/10/2022 8:30:00 AM 0.63 33.134 0.256 7.56 2.57 13.71
1/10/2022 8:45:00 AM 0.63 33.134 0.256 7.6 2.66 13.87
1/10/2022 9:00:00 AM 0.63 33.134 0.256 7.64 2.56 14.04
1/10/2022 9:15:00 AM 0.68 33.224 0.256 7.7 2.58 14.26
1/10/2022 9:30:00 AM 0.72 33.296 0.256 7.76 2.63 14.46
1/10/2022 9:45:00 AM 0.73 33.314 0.257 7.81 2.6 14.59
1/10/2022 10:00:00 AM 0.67 33.206 0.258 7.84 2.65 14.61
1/10/2022 10:15:00 AM 0.67 33.206 0.259 7.88 2.61 14.72
1/10/2022 10:30:00 AM 0.71 33.278 0.26 7.95 2.66 14.83
1/10/2022 10:45:00 AM 0.72 33.296 0.262 7.99 2.61 14.93
1/10/2022 11:00:00 AM 0.77 33.386 0.264 8.06 2.65 15
1/10/2022 11:15:00 AM 0.82 33.476 0.266 8.11 2.73 15.1
1/10/2022 11:30:00 AM 0.84 33.512 0.27 8.15 2.73 15.13
1/10/2022 11:45:00 AM 0.9 33.62 0.273 8.2 2.61 15.17
1/10/2022 12:00:00 PM 0.95 33.71 0.275 8.25 2.65 15.2
1/10/2022 12:15:00 PM 1.04 33.872 0.274 8.3 2.71 15.24
1/10/2022 12:30:00 PM 1.09 33.962 0.273 8.34 2.74 15.24
1/10/2022 12:45:00 PM 1.17 34.106 0.271 8.37 2.66 15.22
1/10/2022 1:00:00 PM 1.23 34.214 0.269 8.4 2.61 15.24
1/10/2022 1:15:00 PM 1.31 34.358 0.268 8.44 2.64 15.23
1/10/2022 1:30:00 PM 1.33 34.394 0.267 8.45 2.69 15.17
1/10/2022 1:45:00 PM 1.37 34.466 0.266 8.46 2.67 15.11
1/10/2022 2:00:00 PM 1.41 34.538 0.264 8.47 2.62 15.06
1/10/2022 2:15:00 PM 1.42 34.556 0.263 8.45 2.7 14.97
1/10/2022 2:30:00 PM 1.42 34.556 0.262 8.44 2.64 14.88
1/10/2022 2:45:00 PM 1.44 34.592 0.262 8.43 2.61 14.83
1/10/2022 3:00:00 PM 1.44 34.592 0.261 8.39 2.68 14.72
1/10/2022 3:15:00 PM 1.43 34.574 0.261 8.33 2.66 14.59
1/10/2022 3:30:00 PM 1.44 34.592 0.261 8.28 2.71 14.53
1/10/2022 3:45:00 PM 1.47 34.646 0.261 8.26 2.61 14.48
1/10/2022 4:00:00 PM 1.46 34.628 0.262 8.21 2.66 14.39
1/10/2022 4:15:00 PM 1.44 34.592 0.263 8.11 2.64 14.24
1/10/2022 4:30:00 PM 1.43 34.574 0.263 8.03 2.57 14.09
1/10/2022 4:45:00 PM 1.39 34.502 0.264 7.93 2.65 13.94
1/10/2022 5:00:00 PM 1.35 34.43 0.264 7.85 2.74 13.78
1/10/2022 5:15:00 PM 1.32 34.376 0.265 7.78 2.68 13.63
1/10/2022 5:30:00 PM 1.29 34.322 0.265 7.73 2.62 13.53
1/10/2022 5:45:00 PM 1.23 34.214 0.265 7.68 2.58 13.45
1/10/2022 6:00:00 PM 1.19 34.142 0.265 7.65 2.6 13.39
1/10/2022 6:15:00 PM 1.15 34.07 0.266 7.63 2.67 13.35
1/10/2022 6:30:00 PM 1.1 33.98 0.266 7.61 2.61 13.33
1/10/2022 6:45:00 PM 1.04 33.872 0.267 7.59 2.61 13.31
1/10/2022 7:00:00 PM 0.99 33.782 0.267 7.58 2.62 13.3
1/10/2022 7:15:00 PM 0.97 33.746 0.267 7.57 2.63 13.3
1/10/2022 7:30:00 PM 0.94 33.692 0.268 7.56 2.66 13.29
1/10/2022 7:45:00 PM 0.92 33.656 0.268 7.55 2.59 13.3
1/10/2022 8:00:00 PM 0.89 33.602 0.268 7.54 2.55 13.3
1/10/2022 8:15:00 PM 0.86 33.548 0.268 7.54 2.72 13.3
1/10/2022 8:30:00 PM 0.83 33.494 0.267 7.53 2.57 13.3
1/10/2022 8:45:00 PM 0.81 33.458 0.266 7.53 2.62 13.32
1/10/2022 9:00:00 PM 0.76 33.368 0.266 7.52 2.55 13.32
1/10/2022 9:15:00 PM 0.72 33.296 0.265 7.52 2.64 13.34
1/10/2022 9:30:00 PM 0.7 33.26 0.265 7.52 2.62 13.35
1/10/2022 9:45:00 PM 0.7 33.26 0.264 7.52 2.59 13.35
1/10/2022 10:00:00 PM 0.62 33.116 0.264 7.51 2.59 13.37
1/10/2022 10:15:00 PM 0.52 32.936 0.263 7.51 2.57 13.38
1/10/2022 10:30:00 PM 0.49 32.882 0.263 7.51 2.61 13.4
1/10/2022 10:45:00 PM 0.44 32.792 0.262 7.51 2.56 13.41
1/10/2022 11:00:00 PM 0.42 32.756 0.261 7.51 2.64 13.43
1/10/2022 11:15:00 PM 0.37 32.666 0.26 7.5 2.54 13.45
1/10/2022 11:30:00 PM 0.34 32.612 0.259 7.5 2.61 13.47
1/10/2022 11:45:00 PM 0.29 32.522 0.26 7.5 2.58 13.48
1/11/2022 12:00:00 AM 0.25 32.45 0.259 7.5 2.6 13.5
1/11/2022 12:15:00 AM 0.2 32.36 0.258 7.5 2.62 13.51
1/11/2022 12:30:00 AM 0.15 32.27 0.257 7.5 2.62 13.54
1/11/2022 12:45:00 AM 0.11 32.198 0.256 7.5 2.64 13.56
1/11/2022 1:00:00 AM 0.08 32.144 0.255 7.5 2.55 13.57
1/11/2022 1:15:00 AM 0.05 32.09 0.254 7.49 2.7 13.59
1/11/2022 1:30:00 AM 0.01 32.018 0.254 7.49 2.56 13.61
1/11/2022 1:45:00 AM -0.03 31.946 0.253 7.49 2.57 13.63
1/11/2022 2:00:00 AM -0.06 31.892 0.253 7.49 2.58 13.65
1/11/2022 2:15:00 AM -0.08 31.856 0.252 7.49 2.54 13.67
1/11/2022 2:30:00 AM -0.08 31.856 0.251 7.49 2.59 13.68
1/11/2022 2:45:00 AM -0.1 31.82 0.25 7.49 2.67 13.7
1/11/2022 3:00:00 AM -0.11 31.802 0.25 7.49 2.72 13.72
1/11/2022 3:15:00 AM -0.1 31.82 0.25 7.49 2.6 13.74
1/11/2022 3:30:00 AM -0.1 31.82 0.25 7.49 2.6 13.76
1/11/2022 3:45:00 AM -0.09 31.838 0.25 7.49 2.59 13.78
1/11/2022 4:00:00 AM -0.09 31.838 0.25 7.49 2.77 13.79
1/11/2022 4:15:00 AM -0.08 31.856 0.249 7.49 2.63 13.79
1/11/2022 4:30:00 AM -0.08 31.856 0.249 7.48 2.65 13.8
1/11/2022 4:45:00 AM -0.08 31.856 0.248 7.48 2.65 13.81
1/11/2022 5:00:00 AM -0.08 31.856 0.248 7.47 2.67 13.8
1/11/2022 5:15:00 AM -0.08 31.856 0.248 7.47 2.65 13.8
1/11/2022 5:30:00 AM -0.08 31.856 0.249 7.47 2.57 13.81
1/11/2022 5:45:00 AM -0.08 31.856 0.249 7.47 2.52 13.81
1/11/2022 6:00:00 AM -0.08 31.856 0.248 7.47 2.56 13.83
1/11/2022 6:15:00 AM -0.08 31.856 0.247 7.46 2.57 13.83
1/11/2022 6:30:00 AM -0.08 31.856 0.247 7.46 2.55 13.85
1/11/2022 6:45:00 AM -0.08 31.856 0.248 7.46 2.56 13.84
1/11/2022 7:00:00 AM -0.08 31.856 0.248 7.46 2.59 13.86
1/11/2022 7:15:00 AM -0.08 31.856 0.247 7.46 2.51 13.86
1/11/2022 7:30:00 AM -0.08 31.856 0.247 7.46 2.5 13.88
1/11/2022 7:45:00 AM -0.08 31.856 0.246 7.46 2.5 13.94
1/11/2022 8:00:00 AM -0.08 31.856 0.246 7.48 2.46 14.02
1/11/2022 8:15:00 AM -0.08 31.856 0.246 7.49 2.55 14.13
1/11/2022 8:30:00 AM -0.08 31.856 0.246 7.51 2.48 14.22
1/11/2022 8:45:00 AM -0.08 31.856 0.246 7.53 2.44 14.33
1/11/2022 9:00:00 AM -0.07 31.874 0.246 7.55 2.53 14.43
1/11/2022 9:15:00 AM -0.07 31.874 0.246 7.57 2.47 14.54
1/11/2022 9:30:00 AM -0.07 31.874 0.246 7.6 2.51 14.66
1/11/2022 9:45:00 AM -0.07 31.874 0.246 7.63 2.58 14.78
1/11/2022 10:00:00 AM -0.07 31.874 0.247 7.66 2.59 14.9
1/11/2022 10:15:00 AM -0.07 31.874 0.247 7.69 2.5 15
1/11/2022 10:30:00 AM -0.07 31.874 0.247 7.72 2.92 15.08
1/11/2022 10:45:00 AM -0.07 31.874 0.249 7.74 2.42 15.12
1/11/2022 11:00:00 AM -0.07 31.874 0.25 7.76 2.4 15.17
1/11/2022 11:15:00 AM -0.07 31.874 0.251 7.78 2.47 15.23
1/11/2022 11:30:00 AM -0.07 31.874 0.253 7.81 2.49 15.27
1/11/2022 11:45:00 AM -0.07 31.874 0.254 7.83 2.48 15.31
1/11/2022 12:00:00 PM -0.07 31.874 0.256 7.84 2.73 15.34
1/11/2022 12:15:00 PM -0.07 31.874 0.259 7.86 2.58 15.37
1/11/2022 12:30:00 PM -0.07 31.874 0.264 7.88 2.47 15.38
1/11/2022 12:45:00 PM -0.07 31.874 0.269 7.89 2.88 15.41
1/11/2022 1:00:00 PM -0.07 31.874 0.268 7.9 2.62 15.42
1/11/2022 1:15:00 PM -0.07 31.874 0.269 7.91 2.5 15.42
1/11/2022 1:30:00 PM -0.07 31.874 0.272 7.92 2.54 15.42
1/11/2022 1:45:00 PM -0.07 31.874 0.275 7.92 2.46 15.43
1/11/2022 2:00:00 PM -0.07 31.874 0.278 7.91 2.55 15.43
1/11/2022 2:15:00 PM -0.07 31.874 0.279 7.91 2.45 15.41
1/11/2022 2:30:00 PM -0.07 31.874 0.28 7.91 2.54 15.4
1/11/2022 2:45:00 PM -0.07 31.874 0.28 7.91 2.46 15.38
1/11/2022 3:00:00 PM -0.07 31.874 0.282 7.91 2.52 15.35
1/11/2022 3:15:00 PM -0.07 31.874 0.283 7.9 2.48 15.32
1/11/2022 3:30:00 PM -0.07 31.874 0.282 7.89 2.55 15.28
1/11/2022 3:45:00 PM -0.07 31.874 0.282 7.87 2.53 15.23
1/11/2022 4:00:00 PM -0.07 31.874 0.281 7.85 2.59 15.16
1/11/2022 4:15:00 PM -0.07 31.874 0.281 7.82 2.54 15.08
1/11/2022 4:30:00 PM -0.07 31.874 0.281 7.8 2.55 14.98
1/11/2022 4:45:00 PM -0.07 31.874 0.28 7.76 2.63 14.86
1/11/2022 5:00:00 PM -0.07 31.874 0.279 7.72 2.73 14.73
1/11/2022 5:15:00 PM -0.07 31.874 0.279 7.69 2.51 14.59
1/11/2022 5:30:00 PM -0.07 31.874 0.278 7.65 2.47 14.47
1/11/2022 5:45:00 PM -0.07 31.874 0.277 7.62 2.5 14.36
1/11/2022 6:00:00 PM -0.07 31.874 0.277 7.59 2.52 14.27
1/11/2022 6:15:00 PM -0.07 31.874 0.276 7.57 2.36 14.19
1/11/2022 6:30:00 PM -0.07 31.874 0.275 7.55 2.5 14.13
1/11/2022 6:45:00 PM -0.07 31.874 0.275 7.54 2.46 14.08
1/11/2022 7:00:00 PM -0.07 31.874 0.275 7.52 2.43 14.04
1/11/2022 7:15:00 PM -0.07 31.874 0.274 7.51 2.5 14.01
1/11/2022 7:30:00 PM -0.07 31.874 0.273 7.5 2.46 13.98
1/11/2022 7:45:00 PM -0.07 31.874 0.273 7.49 2.45 13.94
1/11/2022 8:00:00 PM -0.07 31.874 0.272 7.48 2.54 13.92
1/11/2022 8:15:00 PM -0.07 31.874 0.272 7.48 2.74 13.9
1/11/2022 8:30:00 PM -0.07 31.874 0.272 7.47 2.44 13.88
1/11/2022 8:45:00 PM -0.07 31.874 0.271 7.46 2.46 13.87
1/11/2022 9:00:00 PM -0.07 31.874 0.271 7.46 2.83 13.86
1/11/2022 9:15:00 PM -0.07 31.874 0.27 7.46 2.48 13.85
1/11/2022 9:30:00 PM -0.07 31.874 0.27 7.45 2.43 13.84
1/11/2022 9:45:00 PM -0.07 31.874 0.269 7.44 2.54 13.82
1/11/2022 10:00:00 PM -0.07 31.874 0.269 7.44 2.62 13.82
1/11/2022 10:15:00 PM -0.07 31.874 0.269 7.44 2.4 13.83
1/11/2022 10:30:00 PM -0.07 31.874 0.269 7.44 2.64 13.82
1/11/2022 10:45:00 PM -0.07 31.874 0.269 7.44 2.51 13.8
1/11/2022 11:00:00 PM -0.07 31.874 0.269 7.44 2.43 13.8
1/11/2022 11:15:00 PM -0.07 31.874 0.269 7.43 2.35 13.79
1/11/2022 11:30:00 PM -0.07 31.874 0.269 7.43 2.49 13.79
1/11/2022 11:45:00 PM -0.07 31.874 0.268 7.43 2.45 13.77
1/12/2022 12:00:00 AM -0.07 31.874 0.268 7.42 2.43 13.77
1/12/2022 12:15:00 AM -0.07 31.874 0.268 7.42 2.44 13.75
1/12/2022 12:30:00 AM -0.07 31.874 0.267 7.41 2.5 13.74
1/12/2022 12:45:00 AM -0.07 31.874 0.267 7.42 2.38 13.73
1/12/2022 1:00:00 AM -0.07 31.874 0.267 7.42 2.49 13.73
1/12/2022 1:15:00 AM -0.07 31.874 0.267 7.41 2.49 13.72
1/12/2022 1:30:00 AM -0.07 31.874 0.266 7.42 2.4 13.72
1/12/2022 1:45:00 AM -0.07 31.874 0.267 7.42 2.37 13.72
1/12/2022 2:00:00 AM -0.07 31.874 0.266 7.42 2.44 13.72
1/12/2022 2:15:00 AM -0.07 31.874 0.266 7.41 2.45 13.71
1/12/2022 2:30:00 AM -0.07 31.874 0.266 7.41 2.44 13.7
1/12/2022 2:45:00 AM -0.07 31.874 0.266 7.41 2.4 13.69
1/12/2022 3:00:00 AM -0.07 31.874 0.266 7.41 4.52 13.69
1/12/2022 3:15:00 AM -0.07 31.874 0.266 7.41 2.41 13.69
1/12/2022 3:30:00 AM -0.07 31.874 0.266 7.41 2.47 13.68
1/12/2022 3:45:00 AM -0.07 31.874 0.266 7.41 2.33 13.67
1/12/2022 4:00:00 AM -0.07 31.874 0.266 7.4 2.42 13.67
1/12/2022 4:15:00 AM -0.07 31.874 0.266 7.41 2.48 13.66
1/12/2022 4:30:00 AM -0.07 31.874 0.267 7.41 2.38 13.66
1/12/2022 4:45:00 AM -0.07 31.874 0.267 7.41 2.36 13.65
1/12/2022 5:00:00 AM -0.07 31.874 0.267 7.4 2.51 13.64
1/12/2022 5:15:00 AM -0.06 31.892 0.267 7.4 2.46 13.63
1/12/2022 5:30:00 AM -0.07 31.874 0.267 7.4 2.27 13.63
1/12/2022 5:45:00 AM -0.07 31.874 0.268 7.4 2.36 13.61
1/12/2022 6:00:00 AM -0.07 31.874 0.268 7.4 2.61 13.61
1/12/2022 6:15:00 AM -0.07 31.874 0.268 7.4 2.38 13.6
1/12/2022 6:30:00 AM -0.06 31.892 0.269 7.4 2.33 13.59
1/12/2022 6:45:00 AM -0.06 31.892 0.269 7.4 2.43 13.58
1/12/2022 7:00:00 AM -0.07 31.874 0.269 7.4 2.39 13.58
1/12/2022 7:15:00 AM -0.06 31.892 0.269 7.4 2.33 13.58
1/12/2022 7:30:00 AM -0.06 31.892 0.269 7.4 2.31 13.58
1/12/2022 7:45:00 AM -0.06 31.892 0.269 7.4 2.54 13.59
1/12/2022 8:00:00 AM -0.06 31.892 0.269 7.41 2.37 13.62
1/12/2022 8:15:00 AM -0.06 31.892 0.268 7.42 2.36 13.69
1/12/2022 8:30:00 AM -0.06 31.892 0.268 7.43 2.38 13.76
1/12/2022 8:45:00 AM -0.06 31.892 0.267 7.44 2.46 13.84
1/12/2022 9:00:00 AM -0.06 31.892 0.267 7.46 2.41 13.92
1/12/2022 9:15:00 AM -0.06 31.892 0.267 7.48 2.34 14.05
1/12/2022 9:30:00 AM -0.06 31.892 0.267 7.49 2.44 14.16
1/12/2022 9:45:00 AM -0.06 31.892 0.266 7.52 2.46 14.27
1/12/2022 10:00:00 AM -0.06 31.892 0.266 7.53 2.51 14.37
1/12/2022 10:15:00 AM -0.05 31.91 0.267 7.56 2.59 14.49
1/12/2022 10:30:00 AM -0.05 31.91 0.267 7.59 2.52 14.6
1/12/2022 10:45:00 AM -0.05 31.91 0.267 7.62 2.68 14.72
1/12/2022 11:00:00 AM -0.05 31.91 0.267 7.65 2.56 14.82
1/12/2022 11:15:00 AM -0.04 31.928 0.267 7.68 2.62 14.91
1/12/2022 11:30:00 AM -0.05 31.91 0.268 7.7 2.47 14.94
1/12/2022 11:45:00 AM -0.05 31.91 0.268 7.73 2.53 15
1/12/2022 12:00:00 PM -0.04 31.928 0.268 7.74 2.57 15.04
1/12/2022 12:15:00 PM -0.04 31.928 0.269 7.79 2.52 15.13
1/12/2022 12:30:00 PM -0.04 31.928 0.269 7.81 2.57 15.15
1/12/2022 12:45:00 PM -0.04 31.928 0.269 7.83 2.65 15.2
1/12/2022 1:00:00 PM -0.04 31.928 0.27 7.85 2.53 15.25
1/12/2022 1:15:00 PM -0.04 31.928 0.271 7.86 2.71 15.25
1/12/2022 1:30:00 PM 0 32 0.271 7.85 2.61 15.3
1/12/2022 1:45:00 PM -0.01 31.982 0.27 7.9 2.68 15.33
1/12/2022 2:00:00 PM -0.02 31.964 0.269 7.95 2.74 15.34
1/12/2022 2:15:00 PM 0 32 0.267 7.95 2.66 15.31
1/12/2022 2:30:00 PM -0.03 31.946 0.268 7.97 2.86 15.24
1/12/2022 2:45:00 PM -0.04 31.928 0.268 7.97 2.63 15.23
1/12/2022 3:00:00 PM -0.04 31.928 0.268 7.98 2.81 15.2
1/12/2022 3:15:00 PM -0.04 31.928 0.266 7.98 2.82 15.17
1/12/2022 3:30:00 PM -0.04 31.928 0.265 8.06 2.89 15.12
1/12/2022 3:45:00 PM -0.05 31.91 0.265 8.06 2.85 15.05
1/12/2022 4:00:00 PM -0.05 31.91 0.265 8.05 3.06 14.95
1/12/2022 4:15:00 PM -0.06 31.892 0.267 8.03 2.94 14.82
1/12/2022 4:30:00 PM -0.06 31.892 0.266 7.97 3.26 14.64
1/12/2022 4:45:00 PM -0.06 31.892 0.266 7.9 3.25 14.44
1/12/2022 5:00:00 PM -0.06 31.892 0.267 7.84 3.3 14.24
1/12/2022 5:15:00 PM -0.05 31.91 0.266 7.78 3.99 14.03
1/12/2022 5:30:00 PM -0.03 31.946 0.266 7.71 3.44 13.82
1/12/2022 5:45:00 PM 0 32 0.266 7.67 3.48 13.67
1/12/2022 6:00:00 PM 0.03 32.054 0.266 7.62 3.23 13.52
1/12/2022 6:15:00 PM 0.08 32.144 0.267 7.59 3.24 13.42
1/12/2022 6:30:00 PM 0.1 32.18 0.267 7.53 3.02 13.29
1/12/2022 6:45:00 PM 0.16 32.288 0.266 7.5 2.51 13.17
1/12/2022 7:00:00 PM 0.2 32.36 0.266 7.47 3.02 13.06
1/12/2022 7:15:00 PM 0.17 32.306 0.266 7.44 2.59 12.97
1/12/2022 7:30:00 PM 0.1 32.18 0.266 7.41 2.83 12.86
1/12/2022 7:45:00 PM 0.15 32.27 0.265 7.41 2.62 12.85
1/12/2022 8:00:00 PM 0.23 32.414 0.265 7.43 2.92 12.89
1/12/2022 8:15:00 PM 0.32 32.576 0.265 7.44 3.25 12.92
1/12/2022 8:30:00 PM 0.36 32.648 0.265 7.44 3.01 12.95
1/12/2022 8:45:00 PM 0.51 32.918 0.265 7.46 2.79 12.96
1/12/2022 9:00:00 PM 0.71 33.278 0.265 7.47 2.65 12.98
1/12/2022 9:15:00 PM 0.76 33.368 0.265 7.47 2.62 12.99
1/12/2022 9:30:00 PM 0.84 33.512 0.265 7.47 2.72 12.98
1/12/2022 9:45:00 PM 0.89 33.602 0.265 7.47 2.7 13
1/12/2022 10:00:00 PM 0.88 33.584 0.266 7.46 2.66 12.97
1/12/2022 10:15:00 PM 0.92 33.656 0.266 7.46 2.62 12.99
1/12/2022 10:30:00 PM 0.94 33.692 0.266 7.46 2.61 12.99
1/12/2022 10:45:00 PM 0.94 33.692 0.266 7.46 2.68 12.98
1/12/2022 11:00:00 PM 0.96 33.728 0.266 7.46 2.72 12.99
1/12/2022 11:15:00 PM 0.98 33.764 0.265 7.46 2.7 13
1/12/2022 11:30:00 PM 0.99 33.782 0.265 7.46 2.62 12.99
1/12/2022 11:45:00 PM 1 33.8 0.265 7.45 2.72 12.99
1/13/2022 12:00:00 AM 1.02 33.836 0.265 7.46 2.62 13
1/13/2022 12:15:00 AM 1.03 33.854 0.265 7.45 2.67 13
1/13/2022 12:30:00 AM 1.04 33.872 0.264 7.46 2.65 13
1/13/2022 12:45:00 AM 1.06 33.908 0.264 7.45 2.59 12.99
1/13/2022 1:00:00 AM 1.09 33.962 0.264 7.45 2.56 13
1/13/2022 1:15:00 AM 1.1 33.98 0.264 7.45 2.54 13
1/13/2022 1:30:00 AM 1.11 33.998 0.263 7.45 2.61 13
1/13/2022 1:45:00 AM 1.11 33.998 0.263 7.46 2.53 13
1/13/2022 2:00:00 AM 1.13 34.034 0.263 7.45 2.54 13
1/13/2022 2:15:00 AM 1.17 34.106 0.263 7.45 2.6 12.99
1/13/2022 2:30:00 AM 1.18 34.124 0.263 7.45 2.62 13
1/13/2022 2:45:00 AM 1.2 34.16 0.263 7.45 2.63 12.99
1/13/2022 3:00:00 AM 1.19 34.142 0.263 7.45 2.53 12.99
1/13/2022 3:15:00 AM 1.23 34.214 0.262 7.45 2.62 12.99
1/13/2022 3:30:00 AM 1.23 34.214 0.262 7.45 2.46 12.99
1/13/2022 3:45:00 AM 1.26 34.268 0.262 7.45 2.58 12.99
1/13/2022 4:00:00 AM 1.26 34.268 0.261 7.45 2.58 12.98
1/13/2022 4:15:00 AM 1.27 34.286 0.261 7.45 2.65 12.98
1/13/2022 4:30:00 AM 1.28 34.304 0.261 7.45 2.52 12.98
1/13/2022 4:45:00 AM 1.28 34.304 0.261 7.45 2.53 12.98
1/13/2022 5:00:00 AM 1.29 34.322 0.26 7.44 2.63 12.96
1/13/2022 5:15:00 AM 1.32 34.376 0.26 7.45 2.6 12.97
1/13/2022 5:30:00 AM 1.31 34.358 0.26 7.44 2.73 12.95
1/13/2022 5:45:00 AM 1.32 34.376 0.259 7.45 2.59 12.96
1/13/2022 6:00:00 AM 1.32 34.376 0.259 7.44 2.66 12.96
1/13/2022 6:15:00 AM 1.32 34.376 0.259 7.44 2.61 12.96
1/13/2022 6:30:00 AM 1.33 34.394 0.259 7.44 2.54 12.96
1/13/2022 6:45:00 AM 1.32 34.376 0.259 7.44 2.58 12.97
1/13/2022 7:00:00 AM 1.32 34.376 0.258 7.44 2.63 12.96
1/13/2022 7:15:00 AM 1.3 34.34 0.258 7.44 2.54 12.96
1/13/2022 7:30:00 AM 1.29 34.322 0.258 7.44 2.5 12.98
1/13/2022 7:45:00 AM 1.28 34.304 0.258 7.45 2.56 13.02
1/13/2022 8:00:00 AM 1.27 34.286 0.258 7.47 2.56 13.11
1/13/2022 8:15:00 AM 1.28 34.304 0.258 7.49 2.52 13.24
1/13/2022 8:30:00 AM 1.31 34.358 0.257 7.51 2.58 13.34
1/13/2022 8:45:00 AM 1.33 34.394 0.257 7.53 2.5 13.43
1/13/2022 9:00:00 AM 1.36 34.448 0.257 7.55 2.58 13.55
1/13/2022 9:15:00 AM 1.4 34.52 0.257 7.59 2.65 13.69
1/13/2022 9:30:00 AM 1.46 34.628 0.256 7.63 2.55 13.88
1/13/2022 9:45:00 AM 1.48 34.664 0.256 7.68 2.55 14
1/13/2022 10:00:00 AM 1.48 34.664 0.256 7.71 2.58 14.05
1/13/2022 10:15:00 AM 1.5 34.7 0.256 7.73 2.51 14.12
1/13/2022 10:30:00 AM 1.56 34.808 0.256 7.78 2.62 14.23
1/13/2022 10:45:00 AM 1.65 34.97 0.255 7.84 2.56 14.37
1/13/2022 11:00:00 AM 1.68 35.024 0.256 7.88 2.55 14.41
1/13/2022 11:15:00 AM 1.71 35.078 0.256 7.91 2.64 14.44
1/13/2022 11:30:00 AM 1.74 35.132 0.255 7.95 2.52 14.47
1/13/2022 11:45:00 AM 1.83 35.294 0.255 8.01 2.59 14.57
1/13/2022 12:00:00 PM 1.92 35.456 0.255 8.08 2.53 14.66
1/13/2022 12:15:00 PM 2 35.6 0.255 8.13 2.67 14.71
1/13/2022 12:30:00 PM 2.03 35.654 0.255 8.16 2.56 14.69
1/13/2022 12:45:00 PM 2.07 35.726 0.255 8.2 2.49 14.68
1/13/2022 1:00:00 PM 2.12 35.816 0.254 8.23 2.66 14.69
1/13/2022 1:15:00 PM 2.14 35.852 0.254 8.26 2.59 14.67
1/13/2022 1:30:00 PM 2.19 35.942 0.254 8.28 2.56 14.66
1/13/2022 1:45:00 PM 2.23 36.014 0.254 8.31 2.54 14.65
1/13/2022 2:00:00 PM 2.26 36.068 0.254 8.32 2.58 14.62
1/13/2022 2:15:00 PM 2.28 36.104 0.254 8.33 2.57 14.6
1/13/2022 2:30:00 PM 2.29 36.122 0.254 8.35 2.54 14.55
1/13/2022 2:45:00 PM 2.28 36.104 0.254 8.3 2.71 14.44
1/13/2022 3:00:00 PM 2.32 36.176 0.253 8.31 2.53 14.43
1/13/2022 3:15:00 PM 2.32 36.176 0.253 8.3 2.58 14.37
1/13/2022 3:30:00 PM 2.33 36.194 0.253 8.28 2.69 14.31
1/13/2022 3:45:00 PM 2.34 36.212 0.254 8.24 2.55 14.21
1/13/2022 4:00:00 PM 2.33 36.194 0.254 8.16 2.56 14.07
1/13/2022 4:15:00 PM 2.34 36.212 0.254 8.09 2.51 13.92
1/13/2022 4:30:00 PM 2.33 36.194 0.255 7.99 2.54 13.75
1/13/2022 4:45:00 PM 2.32 36.176 0.256 7.91 2.66 13.58
1/13/2022 5:00:00 PM 2.3 36.14 0.256 7.82 2.57 13.39
1/13/2022 5:15:00 PM 2.28 36.104 0.256 7.76 2.66 13.25
1/13/2022 5:30:00 PM 2.26 36.068 0.256 7.7 2.63 13.12
1/13/2022 5:45:00 PM 2.23 36.014 0.256 7.66 2.75 13.02
1/13/2022 6:00:00 PM 2.2 35.96 0.256 7.63 2.62 12.94
1/13/2022 6:15:00 PM 2.18 35.924 0.256 7.6 2.65 12.88
1/13/2022 6:30:00 PM 2.15 35.87 0.256 7.58 2.64 12.85
1/13/2022 6:45:00 PM 2.11 35.798 0.256 7.56 2.56 12.82
1/13/2022 7:00:00 PM 2.08 35.744 0.256 7.55 2.55 12.8
1/13/2022 7:15:00 PM 2.06 35.708 0.256 7.54 2.61 12.79
1/13/2022 7:30:00 PM 2.03 35.654 0.257 7.53 2.55 12.78
1/13/2022 7:45:00 PM 2.01 35.618 0.257 7.52 2.57 12.78
1/13/2022 8:00:00 PM 1.98 35.564 0.257 7.51 2.63 12.77
1/13/2022 8:15:00 PM 1.95 35.51 0.257 7.5 2.62 12.77
1/13/2022 8:30:00 PM 1.92 35.456 0.258 7.5 2.51 12.78
1/13/2022 8:45:00 PM 1.89 35.402 0.258 7.49 2.6 12.78
1/13/2022 9:00:00 PM 1.86 35.348 0.259 7.49 2.52 12.79
1/13/2022 9:15:00 PM 1.84 35.312 0.26 7.49 2.55 12.8
1/13/2022 9:30:00 PM 1.81 35.258 0.26 7.48 2.7 12.81
1/13/2022 9:45:00 PM 1.78 35.204 0.26 7.48 2.55 12.81
1/13/2022 10:00:00 PM 1.75 35.15 0.26 7.48 2.57 12.83
1/13/2022 10:15:00 PM 1.74 35.132 0.26 7.47 2.5 12.83
1/13/2022 10:30:00 PM 1.73 35.114 0.26 7.47 2.56 12.84
1/13/2022 10:45:00 PM 1.72 35.096 0.26 7.47 2.51 12.84
1/13/2022 11:00:00 PM 1.71 35.078 0.26 7.47 2.55 12.84
1/13/2022 11:15:00 PM 1.7 35.06 0.26 7.47 2.53 12.85
1/13/2022 11:30:00 PM 1.69 35.042 0.26 7.46 2.48 12.85
1/13/2022 11:45:00 PM 1.68 35.024 0.259 7.46 2.53 12.86
1/14/2022 12:00:00 AM 1.67 35.006 0.259 7.46 2.51 12.86
1/14/2022 12:15:00 AM 1.67 35.006 0.259 7.46 2.49 12.86
1/14/2022 12:30:00 AM 1.66 34.988 0.259 7.46 2.51 12.86
1/14/2022 12:45:00 AM 1.66 34.988 0.259 7.46 2.51 12.86
1/14/2022 1:00:00 AM 1.66 34.988 0.259 7.46 2.5 12.86
1/14/2022 1:15:00 AM 1.65 34.97 0.259 7.46 2.51 12.86
1/14/2022 1:30:00 AM 1.65 34.97 0.259 7.46 2.5 12.86
1/14/2022 1:45:00 AM 1.66 34.988 0.258 7.46 2.47 12.86
1/14/2022 2:00:00 AM 1.66 34.988 0.259 7.45 2.58 12.86
1/14/2022 2:15:00 AM 1.67 35.006 0.258 7.45 2.61 12.85
1/14/2022 2:30:00 AM 1.67 35.006 0.258 7.46 2.47 12.86
1/14/2022 2:45:00 AM 1.68 35.024 0.258 7.46 2.5 12.85
1/14/2022 3:00:00 AM 1.69 35.042 0.258 7.45 2.5 12.85
1/14/2022 3:15:00 AM 1.7 35.06 0.257 7.45 2.5 12.85
1/14/2022 3:30:00 AM 1.71 35.078 0.257 7.45 2.53 12.84
1/14/2022 3:45:00 AM 1.71 35.078 0.257 7.45 2.48 12.84
1/14/2022 4:00:00 AM 1.71 35.078 0.257 7.45 2.54 12.83
1/14/2022 4:15:00 AM 1.72 35.096 0.257 7.45 2.47 12.84
1/14/2022 4:30:00 AM 1.72 35.096 0.257 7.45 2.5 12.83
1/14/2022 4:45:00 AM 1.73 35.114 0.257 7.45 2.52 12.83
1/14/2022 5:00:00 AM 1.73 35.114 0.256 7.45 2.44 12.84
1/14/2022 5:15:00 AM 1.73 35.114 0.256 7.45 2.48 12.83
1/14/2022 5:30:00 AM 1.73 35.114 0.256 7.45 2.44 12.82
1/14/2022 5:45:00 AM 1.74 35.132 0.256 7.45 2.54 12.83
1/14/2022 6:00:00 AM 1.74 35.132 0.256 7.45 2.48 12.83
1/14/2022 6:15:00 AM 1.75 35.15 0.256 7.45 2.55 12.83
1/14/2022 6:30:00 AM 1.76 35.168 0.256 7.45 2.51 12.82
1/14/2022 6:45:00 AM 1.77 35.186 0.256 7.45 2.52 12.82
1/14/2022 7:00:00 AM 1.79 35.222 0.256 7.45 2.55 12.82
1/14/2022 7:15:00 AM 1.8 35.24 0.256 7.45 2.48 12.81
1/14/2022 7:30:00 AM 1.81 35.258 0.256 7.46 2.42 12.82
1/14/2022 7:45:00 AM 1.82 35.276 0.256 7.46 2.47 12.83
1/14/2022 8:00:00 AM 1.82 35.276 0.256 7.48 2.5 12.89
1/14/2022 8:15:00 AM 1.82 35.276 0.256 7.49 2.5 12.97
1/14/2022 8:30:00 AM 1.82 35.276 0.256 7.51 2.51 13.02
1/14/2022 8:45:00 AM 1.81 35.258 0.256 7.53 2.55 13.12
1/14/2022 9:00:00 AM 1.82 35.276 0.256 7.56 2.47 13.29
1/14/2022 9:15:00 AM 1.83 35.294 0.256 7.6 2.49 13.43
1/14/2022 9:30:00 AM 1.84 35.312 0.256 7.65 2.54 13.63
1/14/2022 9:45:00 AM 1.83 35.294 0.256 7.68 2.52 13.69
1/14/2022 10:00:00 AM 1.84 35.312 0.256 7.73 2.41 13.84
1/14/2022 10:15:00 AM 1.87 35.366 0.256 7.79 2.51 14.03
1/14/2022 10:30:00 AM 1.93 35.474 0.255 7.86 2.53 14.2
1/14/2022 10:45:00 AM 1.99 35.582 0.255 7.93 2.5 14.33
1/14/2022 11:00:00 AM 2.03 35.654 0.255 8 2.43 14.42
1/14/2022 11:15:00 AM 2.05 35.69 0.255 8.04 2.51 14.47
1/14/2022 11:30:00 AM 2.08 35.744 0.255 8.09 2.49 14.53
1/14/2022 11:45:00 AM 2.13 35.834 0.255 8.15 2.5 14.57
1/14/2022 12:00:00 PM 2.16 35.888 0.255 8.2 2.53 14.6
1/14/2022 12:15:00 PM 2.19 35.942 0.255 8.22 2.53 14.61
1/14/2022 12:30:00 PM 2.24 36.032 0.254 8.28 2.46 14.65
1/14/2022 12:45:00 PM 2.27 36.086 0.254 8.32 2.46 14.67
1/14/2022 1:00:00 PM 2.27 36.086 0.254 8.33 2.49 14.64
1/14/2022 1:15:00 PM 2.33 36.194 0.254 8.37 2.48 14.65
1/14/2022 1:30:00 PM 2.37 36.266 0.254 8.4 2.44 14.66
1/14/2022 1:45:00 PM 2.39 36.302 0.254 8.42 2.52 14.65
1/14/2022 2:00:00 PM 2.41 36.338 0.254 8.44 2.48 14.65
1/14/2022 2:15:00 PM 2.43 36.374 0.254 8.46 2.59 14.64
1/14/2022 2:30:00 PM 2.44 36.392 0.254 8.47 2.55 14.61
1/14/2022 2:45:00 PM 2.43 36.374 0.254 8.48 2.54 14.58
1/14/2022 3:00:00 PM 2.4 36.32 0.254 8.47 2.45 14.52
1/14/2022 3:15:00 PM 2.35 36.23 0.255 8.42 2.48 14.42
1/14/2022 3:30:00 PM 2.29 36.122 0.254 8.36 2.54 14.29
1/14/2022 3:45:00 PM 2.23 36.014 0.254 8.3 2.55 14.22
1/14/2022 4:00:00 PM 2.14 35.852 0.255 8.22 2.52 14.08
1/14/2022 4:15:00 PM 2.09 35.762 0.255 8.14 2.5 13.99
1/14/2022 4:30:00 PM 2.03 35.654 0.255 8.05 2.48 13.87
1/14/2022 4:45:00 PM 1.96 35.528 0.255 7.96 2.49 13.73
1/14/2022 5:00:00 PM 1.9 35.42 0.256 7.88 2.54 13.58
1/14/2022 5:15:00 PM 1.85 35.33 0.256 7.8 2.5 13.44
1/14/2022 5:30:00 PM 1.79 35.222 0.256 7.74 2.49 13.33
1/14/2022 5:45:00 PM 1.71 35.078 0.256 7.69 2.55 13.24
1/14/2022 6:00:00 PM 1.62 34.916 0.257 7.66 2.53 13.18
1/14/2022 6:15:00 PM 1.54 34.772 0.257 7.64 2.54 13.15
1/14/2022 6:30:00 PM 1.45 34.61 0.257 7.61 2.53 13.12
1/14/2022 6:45:00 PM 1.36 34.448 0.257 7.59 2.51 13.11
1/14/2022 7:00:00 PM 1.27 34.286 0.257 7.58 2.53 13.12
1/14/2022 7:15:00 PM 1.16 34.088 0.257 7.57 2.52 13.13
1/14/2022 7:30:00 PM 1.08 33.944 0.258 7.56 2.55 13.15
1/14/2022 7:45:00 PM 0.97 33.746 0.258 7.55 2.59 13.18
1/14/2022 8:00:00 PM 0.89 33.602 0.258 7.54 2.53 13.2
1/14/2022 8:15:00 PM 0.79 33.422 0.258 7.54 2.57 13.23
1/14/2022 8:30:00 PM 0.7 33.26 0.258 7.53 2.59 13.26
1/14/2022 8:45:00 PM 0.62 33.116 0.258 7.53 2.48 13.29
1/14/2022 9:00:00 PM 0.53 32.954 0.258 7.53 2.53 13.33
1/14/2022 9:15:00 PM 0.44 32.792 0.256 7.52 2.55 13.36
1/14/2022 9:30:00 PM 0.37 32.666 0.254 7.52 2.59 13.39
1/14/2022 9:45:00 PM 0.29 32.522 0.252 7.52 2.54 13.43
1/14/2022 10:00:00 PM 0.22 32.396 0.25 7.51 2.55 13.46
1/14/2022 10:15:00 PM 0.14 32.252 0.249 7.51 2.5 13.49
1/14/2022 10:30:00 PM 0.07 32.126 0.247 7.51 2.61 13.51
1/14/2022 10:45:00 PM 0.01 32.018 0.245 7.5 2.57 13.54
1/14/2022 11:00:00 PM -0.07 31.874 0.243 7.5 2.51 13.56
1/14/2022 11:15:00 PM -0.12 31.784 0.241 7.5 2.59 13.6
1/14/2022 11:30:00 PM -0.12 31.784 0.239 7.5 2.73 13.65
1/14/2022 11:45:00 PM -0.09 31.838 0.239 7.5 2.66 13.68
1/15/2022 12:00:00 AM -0.08 31.856 0.238 7.5 2.71 13.67
1/15/2022 12:15:00 AM -0.08 31.856 0.237 7.49 2.6 13.69
1/15/2022 12:30:00 AM -0.08 31.856 0.237 7.49 2.9 13.7
1/15/2022 12:45:00 AM -0.07 31.874 0.237 7.49 2.61 13.72
1/15/2022 1:00:00 AM -0.08 31.856 0.237 7.48 2.54 13.74
1/15/2022 1:15:00 AM -0.08 31.856 0.237 7.48 2.58 13.75
1/15/2022 1:30:00 AM -0.08 31.856 0.237 7.48 2.68 13.76
1/15/2022 1:45:00 AM -0.08 31.856 0.237 7.47 2.43 13.77
1/15/2022 2:00:00 AM -0.08 31.856 0.237 7.47 2.76 13.79
1/15/2022 2:15:00 AM -0.08 31.856 0.237 7.47 2.5 13.78
1/15/2022 2:30:00 AM -0.08 31.856 0.237 7.47 2.57 13.79
1/15/2022 2:45:00 AM -0.07 31.874 0.237 7.46 2.58 13.79
1/15/2022 3:00:00 AM -0.07 31.874 0.236 7.46 2.49 13.79
1/15/2022 3:15:00 AM -0.07 31.874 0.236 7.46 2.64 13.79
1/15/2022 3:30:00 AM -0.07 31.874 0.236 7.46 2.51 13.8
1/15/2022 3:45:00 AM -0.07 31.874 0.236 7.45 2.58 13.79
1/15/2022 4:00:00 AM -0.07 31.874 0.236 7.45 2.56 13.79
1/15/2022 4:15:00 AM -0.07 31.874 0.236 7.45 2.41 13.78
1/15/2022 4:30:00 AM -0.07 31.874 0.236 7.45 2.45 13.78
1/15/2022 4:45:00 AM -0.07 31.874 0.237 7.44 2.67 13.79
1/15/2022 5:00:00 AM -0.07 31.874 0.237 7.44 2.53 13.77
1/15/2022 5:15:00 AM -0.06 31.892 0.238 7.44 2.34 13.78
1/15/2022 5:30:00 AM -0.07 31.874 0.238 7.43 2.45 13.78
1/15/2022 5:45:00 AM -0.07 31.874 0.238 7.43 2.42 13.77
1/15/2022 6:00:00 AM -0.07 31.874 0.239 7.43 2.41 13.78
1/15/2022 6:15:00 AM -0.07 31.874 0.239 7.43 2.46 13.79
1/15/2022 6:30:00 AM -0.07 31.874 0.239 7.43 2.38 13.78
1/15/2022 6:45:00 AM -0.07 31.874 0.239 7.42 2.5 13.79
1/15/2022 7:00:00 AM -0.07 31.874 0.24 7.42 2.35 13.79
1/15/2022 7:15:00 AM -0.07 31.874 0.24 7.42 2.38 13.79
1/15/2022 7:30:00 AM -0.07 31.874 0.241 7.42 2.48 13.8
1/15/2022 7:45:00 AM -0.07 31.874 0.241 7.42 2.47 13.83
1/15/2022 8:00:00 AM -0.07 31.874 0.242 7.43 2.35 13.92
1/15/2022 8:15:00 AM -0.07 31.874 0.242 7.45 2.51 14.01
1/15/2022 8:30:00 AM -0.07 31.874 0.242 7.47 2.47 14.11
1/15/2022 8:45:00 AM -0.07 31.874 0.243 7.48 2.36 14.22
1/15/2022 9:00:00 AM -0.07 31.874 0.244 7.5 2.4 14.34
1/15/2022 9:15:00 AM -0.07 31.874 0.245 7.52 2.52 14.45
1/15/2022 9:30:00 AM -0.07 31.874 0.246 7.55 2.47 14.56
1/15/2022 9:45:00 AM -0.07 31.874 0.246 7.57 2.56 14.7
1/15/2022 10:00:00 AM -0.07 31.874 0.246 7.6 2.37 14.82
1/15/2022 10:15:00 AM -0.07 31.874 0.247 7.63 2.53 14.94
1/15/2022 10:30:00 AM -0.07 31.874 0.247 7.66 2.47 15.08
1/15/2022 10:45:00 AM -0.07 31.874 0.247 7.69 2.55 15.2
1/15/2022 11:00:00 AM -0.07 31.874 0.249 7.73 2.44 15.29
1/15/2022 11:15:00 AM -0.07 31.874 0.251 7.76 2.53 15.38
1/15/2022 11:30:00 AM -0.07 31.874 0.253 7.82 2.45 15.46
1/15/2022 11:45:00 AM -0.07 31.874 0.254 7.85 2.52 15.53
1/15/2022 12:00:00 PM -0.07 31.874 0.256 7.89 2.44 15.6
1/15/2022 12:15:00 PM -0.07 31.874 0.257 7.92 2.46 15.65
1/15/2022 12:30:00 PM -0.07 31.874 0.26 7.95 2.58 15.7
1/15/2022 12:45:00 PM -0.07 31.874 0.262 7.97 2.41 15.72
1/15/2022 1:00:00 PM -0.07 31.874 0.265 7.99 2.47 15.74
1/15/2022 1:15:00 PM -0.07 31.874 0.268 8.01 2.58 15.75
1/15/2022 1:30:00 PM -0.07 31.874 0.271 8.02 2.51 15.75
1/15/2022 1:45:00 PM -0.07 31.874 0.272 8.03 2.45 15.76
1/15/2022 2:00:00 PM -0.07 31.874 0.273 8.05 2.49 15.79
1/15/2022 2:15:00 PM -0.08 31.856 0.274 8.06 2.5 15.79
1/15/2022 2:30:00 PM -0.08 31.856 0.276 8.08 2.48 15.8
1/15/2022 2:45:00 PM -0.08 31.856 0.277 8.09 2.53 15.8
1/15/2022 3:00:00 PM -0.08 31.856 0.278 8.09 2.63 15.78
1/15/2022 3:15:00 PM -0.08 31.856 0.279 8.09 2.47 15.78
1/15/2022 3:30:00 PM -0.08 31.856 0.281 8.09 2.49 15.78
1/15/2022 3:45:00 PM -0.08 31.856 0.282 8.09 2.49 15.76
1/15/2022 4:00:00 PM -0.08 31.856 0.283 8.09 2.4 15.73
1/15/2022 4:15:00 PM -0.08 31.856 0.284 8.07 2.48 15.67
1/15/2022 4:30:00 PM -0.08 31.856 0.284 8.03 2.59 15.54
1/15/2022 4:45:00 PM -0.08 31.856 0.285 7.98 2.51 15.4
1/15/2022 5:00:00 PM -0.09 31.838 0.286 7.92 2.54 15.24
1/15/2022 5:15:00 PM -0.09 31.838 0.287 7.86 2.49 15.07
1/15/2022 5:30:00 PM -0.08 31.856 0.288 7.81 2.52 14.91
1/15/2022 5:45:00 PM -0.08 31.856 0.288 7.76 2.59 14.77
1/15/2022 6:00:00 PM -0.08 31.856 0.288 7.72 2.43 14.65
1/15/2022 6:15:00 PM -0.08 31.856 0.288 7.69 2.46 14.55
1/15/2022 6:30:00 PM -0.08 31.856 0.287 7.66 2.46 14.46
1/15/2022 6:45:00 PM -0.08 31.856 0.287 7.64 2.57 14.39
1/15/2022 7:00:00 PM -0.08 31.856 0.287 7.62 2.52 14.32
1/15/2022 7:15:00 PM -0.08 31.856 0.286 7.6 2.45 14.26
1/15/2022 7:30:00 PM -0.08 31.856 0.286 7.59 2.42 14.21
1/15/2022 7:45:00 PM -0.08 31.856 0.286 7.57 2.54 14.17
1/15/2022 8:00:00 PM -0.08 31.856 0.286 7.56 2.48 14.13
1/15/2022 8:15:00 PM -0.08 31.856 0.286 7.55 2.44 14.09
1/15/2022 8:30:00 PM -0.08 31.856 0.286